Darstellungsparameter: Aktuell verwendete Einstellungen:
Skalierung der Graphiken ... ?
xyx+y,   Skalierungsfaktor:      Skalierung: Modus: x, Faktor: 1
Darstellungszeitraum ... ?
Vom - - bis: - -   Zeitraum: 08.07.2010 - 07.08.2010
Min/Max/Avg-Anzeige ... ?
Zeige MMA aktuell
Zeige MMA Monat
Zeige MMA alles
Zeige --A aktuell
Zeige --A Monat
Zeige --A alles
Keine MMA-Anzeige
MMA:
Average (ber die Originaldaten)
MMA-Basis: 08.07.2010 - 07.08.2010
Quicknavigation für Darstellung... ?
Tage:      1T, 2T, 3T, 5T -1T -2T -3T -5T +1T +2T +3T +5T
Wochen: 1W, 2W, 3W -1W -2W -3W +1W +2W +3W
Monate: 1M, 3M, 6M -1M -3M -6M +1M +3M +6M
Jahre:    1J, 3J, 5J, 10J -1J -3J -5J -10J +1J +3J +5J +10J
Nutze für die Darstellung ... ?
Originaldaten oder Mittelwerte auf ...
Stundenbasis Tagesbasis Wochenbasis
Monatsbasis Jahresbasis      Datenbasis: Original-Daten
Darstellen als:
Statistik (Auto) Statistik J:M      Darstellung:
Zur Graphik,    zurück zur Übersicht aller Sensoren.
 
Tabellarische Datenbersicht: ?
 
Sensor: Nr:Datum:Temp:Abs-Feuchte:Windchill:Wind:
Aussen-T/F 1 08-07-2010 00:08:01 23.3 C 7.32 g/m*3 23.3 C 0 km/h
2 08-07-2010 00:21:04 22.8 C 7.52 g/m*3 22.8 C 0 km/h
3 08-07-2010 00:33:04 22.3 C 7.7 g/m*3 22.3 C 0 km/h
4 08-07-2010 00:45:04 22 C 7.96 g/m*3 22 C 0 km/h
5 08-07-2010 00:57:04 21.5 C 8.11 g/m*3 21.5 C 0 km/h
6 08-07-2010 01:09:04 21.1 C 7.92 g/m*3 21.1 C 0 km/h
7 08-07-2010 01:21:04 20.8 C 7.97 g/m*3 20.8 C 0 km/h
8 08-07-2010 01:33:04 20.4 C 7.96 g/m*3 20.4 C 0 km/h
9 08-07-2010 01:45:04 20.3 C 8.09 g/m*3 20.3 C 0 km/h
10 08-07-2010 01:57:04 20.1 C 8 g/m*3 20.1 C 0 km/h
11 08-07-2010 02:09:04 20 C 8.3 g/m*3 20 C 0 km/h
12 08-07-2010 02:21:04 19.9 C 8.42 g/m*3 19.9 C 0 km/h
13 08-07-2010 02:33:04 19.8 C 8.2 g/m*3 19.8 C 0 km/h
14 08-07-2010 02:45:04 19.7 C 7.98 g/m*3 19.7 C 0 km/h
15 08-07-2010 02:57:05 19.5 C 8.06 g/m*3 19.5 C 0 km/h
16 08-07-2010 03:09:05 19.4 C 8.01 g/m*3 19.4 C 0 km/h
17 08-07-2010 03:21:05 19.6 C 8.1 g/m*3 19.6 C 0 km/h
18 08-07-2010 03:33:05 19.6 C 8.1 g/m*3 19.6 C 0 km/h
19 08-07-2010 03:45:05 19.3 C 8.29 g/m*3 19.3 C 0 km/h
20 08-07-2010 03:57:05 19.1 C 8.2 g/m*3 19.1 C 0 km/h
21 08-07-2010 04:09:05 18.8 C 8.21 g/m*3 18.8 C 0 km/h
22 08-07-2010 04:21:05 18.7 C 8.33 g/m*3 18.7 C 0 km/h
23 08-07-2010 04:33:05 18.4 C 8.18 g/m*3 18.4 C 0 km/h
24 08-07-2010 04:45:05 18.4 C 8.65 g/m*3 18.4 C 0 km/h
25 08-07-2010 04:57:05 18.3 C 8.76 g/m*3 18.3 C 0 km/h
Sensor: Nr:Datum:Temp:Abs-Feuchte:Windchill:Wind:
Aussen-T/F 26 08-07-2010 05:09:05 18.1 C 8.5 g/m*3 18.1 C 0 km/h
27 08-07-2010 05:21:05 17.9 C 8.4 g/m*3 17.9 C 0 km/h
28 08-07-2010 05:33:05 17.8 C 8.5 g/m*3 17.8 C 0 km/h
29 08-07-2010 05:45:05 17.6 C 8.4 g/m*3 17.6 C 0 km/h
30 08-07-2010 05:57:05 17.5 C 8.2 g/m*3 17.5 C 0 km/h
31 08-07-2010 06:09:05 17.4 C 8.15 g/m*3 17.4 C 0 km/h
32 08-07-2010 06:21:03 17.3 C 8.4 g/m*3 17.3 C 0 km/h
33 08-07-2010 06:33:03 17.3 C 8.4 g/m*3 17.3 C 0 km/h
34 08-07-2010 06:45:02 17.4 C 8.74 g/m*3 17.4 C 0 km/h
35 08-07-2010 06:57:02 17.5 C 8.8 g/m*3 17.5 C 0 km/h
36 08-07-2010 07:09:02 17.7 C 8.9 g/m*3 17.7 C 0 km/h
37 08-07-2010 07:21:02 17.7 C 8.9 g/m*3 17.7 C 0 km/h
38 08-07-2010 07:33:01 17.9 C 9.01 g/m*3 17.9 C 0 km/h
39 08-07-2010 07:45:02 18.1 C 8.96 g/m*3 18.1 C 0 km/h
40 08-07-2010 07:57:02 18.2 C 8.86 g/m*3 18.2 C 0 km/h
41 08-07-2010 08:09:01 18.5 C 9.02 g/m*3 18.5 C 0 km/h
42 08-07-2010 08:21:02 18.7 C 8.81 g/m*3 18.7 C 0 km/h
43 08-07-2010 08:33:01 19.1 C 8.85 g/m*3 19.1 C 0 km/h
44 08-07-2010 08:45:02 19.4 C 8.84 g/m*3 19.4 C 0 km/h
45 08-07-2010 08:57:02 19.9 C 8.93 g/m*3 19.9 C 0 km/h
46 08-07-2010 09:09:02 20.6 C 9.13 g/m*3 20.6 C 0 km/h
47 08-07-2010 09:21:02 21.3 C 9.32 g/m*3 21.3 C 0 km/h
48 08-07-2010 09:33:02 22.3 C 9.08 g/m*3 22.3 C 0 km/h
49 08-07-2010 09:45:02 23.1 C 9.1 g/m*3 23.1 C 0 km/h
50 08-07-2010 09:57:03 23.9 C 9.09 g/m*3 23.9 C 0 km/h
Sensor: Nr:Datum:Temp:Abs-Feuchte:Windchill:Wind:
Aussen-T/F 51 08-07-2010 10:09:01 24.6 C 9.23 g/m*3 24.6 C 0 km/h
52 08-07-2010 10:21:01 25.3 C 8.66 g/m*3 25.3 C 0 km/h
53 08-07-2010 10:33:02 26 C 9.01 g/m*3 26 C 0 km/h
54 08-07-2010 10:45:02 26.5 C 9.01 g/m*3 26.5 C 0 km/h
55 08-07-2010 10:57:02 27.4 C 8.68 g/m*3 27.4 C 0 km/h
56 08-07-2010 11:09:02 27.8 C 6.99 g/m*3 27.8 C 0 km/h
57 08-07-2010 11:21:01 28.6 C 7.03 g/m*3 28.6 C 0 km/h
58 08-07-2010 11:33:02 29.3 C 7.01 g/m*3 29.3 C 0 km/h
59 08-07-2010 11:45:02 29.9 C 7.54 g/m*3 29.9 C 0 km/h
60 08-07-2010 11:57:02 30.3 C 6.78 g/m*3 30.3 C 0 km/h
61 08-07-2010 12:09:02 30.8 C 6.33 g/m*3 30.8 C 0 km/h
62 08-07-2010 12:21:01 31.4 C 6.54 g/m*3 31.4 C 0 km/h
63 08-07-2010 12:33:02 31.8 C 6.68 g/m*3 31.8 C 0 km/h
64 08-07-2010 12:45:02 31.9 C 6.72 g/m*3 31.9 C 0 km/h
65 08-07-2010 12:57:02 31.6 C 6.61 g/m*3 31.6 C 0 km/h
66 08-07-2010 13:09:02 32.1 C 6.79 g/m*3 32.1 C 0 km/h
67 08-07-2010 13:21:01 32.8 C 7.04 g/m*3 32.8 C 0 km/h
68 08-07-2010 13:33:02 33 C 7.12 g/m*3 33 C 0 km/h
69 08-07-2010 13:45:01 33.3 C 7.23 g/m*3 33.3 C 0 km/h
70 08-07-2010 13:57:01 33.2 C 7.2 g/m*3 33.2 C 0 km/h
71 08-07-2010 14:09:02 32.5 C 6.93 g/m*3 32.5 C 0 km/h
72 08-07-2010 14:21:01 32.3 C 6.86 g/m*3 32.3 C 0 km/h
73 08-07-2010 14:33:02 32.3 C 6.86 g/m*3 32.3 C 0 km/h
74 08-07-2010 14:45:01 32.3 C 6.86 g/m*3 32.3 C 0 km/h
75 08-07-2010 14:57:01 32.4 C 6.9 g/m*3 32.4 C 0 km/h
Sensor: Nr:Datum:Temp:Abs-Feuchte:Windchill:Wind:
Aussen-T/F 76 08-07-2010 15:09:02 32.7 C 7.01 g/m*3 32.7 C 0 km/h
77 08-07-2010 15:21:01 32.9 C 7.08 g/m*3 32.9 C 0 km/h
78 08-07-2010 15:33:01 33.3 C 7.23 g/m*3 33.3 C 0 km/h
79 08-07-2010 15:45:01 33.7 C 7.39 g/m*3 33.7 C 0 km/h
80 08-07-2010 15:57:01 33.7 C 7.39 g/m*3 33.7 C 0 km/h
81 08-07-2010 16:09:02 33.8 C 7.43 g/m*3 33.8 C 0 km/h
82 08-07-2010 16:21:02 33.8 C 7.43 g/m*3 33.8 C 0 km/h
83 08-07-2010 16:33:01 33.9 C 7.46 g/m*3 33.9 C 0 km/h
84 08-07-2010 16:45:01 33.3 C 7.23 g/m*3 33.3 C 0 km/h
85 08-07-2010 16:57:01 33.3 C 7.23 g/m*3 33.3 C 0 km/h
86 08-07-2010 17:09:01 33.3 C 7.23 g/m*3 33.3 C 0 km/h
87 08-07-2010 17:21:02 33.5 C 7.31 g/m*3 33.5 C 0 km/h
88 08-07-2010 17:33:01 34.2 C 7.58 g/m*3 34.2 C 0 km/h
89 08-07-2010 17:45:03 34.6 C 7.74 g/m*3 34.6 C 0 km/h
90 08-07-2010 17:57:03 34.2 C 7.58 g/m*3 34.2 C 0 km/h
91 08-07-2010 18:09:02 34.7 C 7.78 g/m*3 34.7 C 0 km/h
92 08-07-2010 18:21:02 34 C 7.5 g/m*3 34 C 0 km/h
93 08-07-2010 18:33:02 34.2 C 7.58 g/m*3 34.2 C 0 km/h
94 08-07-2010 18:45:02 34.4 C 7.66 g/m*3 34.4 C 0 km/h
95 08-07-2010 18:57:02 34.6 C 7.74 g/m*3 34.6 C 0 km/h
96 08-07-2010 19:09:02 34.5 C 7.7 g/m*3 34.5 C 0 km/h
97 08-07-2010 19:21:02 34.4 C 7.66 g/m*3 34.4 C 0 km/h
98 08-07-2010 19:33:02 34.1 C 7.54 g/m*3 34.1 C 0 km/h
99 08-07-2010 19:45:02 33.9 C 7.46 g/m*3 33.9 C 0 km/h
100 08-07-2010 19:57:03 33.8 C 7.43 g/m*3 33.8 C 0 km/h
Sensor: Nr:Datum:Temp:Abs-Feuchte:Windchill:Wind:
Aussen-T/F 101 08-07-2010 20:09:01 33.7 C 7.39 g/m*3 33.7 C 0 km/h
102 08-07-2010 20:21:01 33.3 C 7.23 g/m*3 33.3 C 0 km/h
103 08-07-2010 20:33:02 33 C 7.12 g/m*3 33 C 0 km/h
104 08-07-2010 20:45:02 32.7 C 7.01 g/m*3 32.7 C 0 km/h
105 08-07-2010 20:57:02 32.3 C 7.2 g/m*3 32.3 C 0 km/h
106 08-07-2010 21:09:02 31.4 C 7.52 g/m*3 31.4 C 0 km/h
107 08-07-2010 21:21:02 30.4 C 8.37 g/m*3 30.4 C 0 km/h
108 08-07-2010 21:33:02 29.9 C 8.45 g/m*3 29.9 C 0 km/h
109 08-07-2010 21:45:02 29.3 C 8.47 g/m*3 29.3 C 0 km/h
110 08-07-2010 21:57:02 28.9 C 8.57 g/m*3 28.9 C 0 km/h
111 08-07-2010 22:09:03 28.4 C 8.06 g/m*3 28.4 C 0 km/h
112 08-07-2010 22:21:02 28.3 C 8.29 g/m*3 28.3 C 0 km/h
113 08-07-2010 22:33:02 28 C 8.16 g/m*3 28 C 0 km/h
114 08-07-2010 22:46:02 27.8 C 8.34 g/m*3 27.8 C 0 km/h
115 08-07-2010 22:58:02 27.6 C 8.25 g/m*3 27.6 C 0 km/h
116 08-07-2010 23:10:02 27.5 C 8.2 g/m*3 27.5 C 0 km/h
117 08-07-2010 23:22:02 27.2 C 8.33 g/m*3 27.2 C 0 km/h
118 08-07-2010 23:34:03 27 C 7.98 g/m*3 27 C 0 km/h
119 08-07-2010 23:46:03 27 C 7.98 g/m*3 27 C 0 km/h
120 08-07-2010 23:58:03 26.9 C 7.93 g/m*3 26.9 C 0 km/h
121 09-07-2010 00:10:03 26.8 C 7.89 g/m*3 26.8 C 0 km/h
122 09-07-2010 00:22:03 26.2 C 8.12 g/m*3 26.2 C 0 km/h
123 09-07-2010 00:34:03 25.5 C 8.29 g/m*3 25.5 C 0 km/h
124 09-07-2010 00:46:03 25.3 C 8.66 g/m*3 25.3 C 0 km/h
125 09-07-2010 00:58:03 24.5 C 8.95 g/m*3 24.5 C 0 km/h
Sensor: Nr:Datum:Temp:Abs-Feuchte:Windchill:Wind:
Aussen-T/F 126 09-07-2010 01:10:03 24.3 C 8.85 g/m*3 24.3 C 0 km/h
127 09-07-2010 01:22:03 24.1 C 8.75 g/m*3 24.1 C 0 km/h
128 09-07-2010 01:34:03 23.7 C 8.77 g/m*3 23.7 C 0 km/h
129 09-07-2010 01:46:03 23.5 C 8.88 g/m*3 23.5 C 0 km/h
130 09-07-2010 01:58:03 23.3 C 8.78 g/m*3 23.3 C 0 km/h
131 09-07-2010 02:10:03 23 C 8.84 g/m*3 23 C 0 km/h
132 09-07-2010 02:22:03 22.8 C 9.14 g/m*3 22.8 C 0 km/h
133 09-07-2010 02:34:03 22.4 C 9.14 g/m*3 22.4 C 0 km/h
134 09-07-2010 02:46:03 22 C 8.73 g/m*3 22 C 0 km/h
135 09-07-2010 02:58:03 21.8 C 8.83 g/m*3 21.8 C 0 km/h
136 09-07-2010 03:10:03 21.7 C 8.97 g/m*3 21.7 C 0 km/h
137 09-07-2010 03:22:03 21.4 C 9.37 g/m*3 21.4 C 0 km/h
138 09-07-2010 03:34:03 21.3 C 9.32 g/m*3 21.3 C 0 km/h
139 09-07-2010 03:46:04 21 C 9.16 g/m*3 21 C 0 km/h
140 09-07-2010 03:58:04 20.8 C 9.23 g/m*3 20.8 C 0 km/h
141 09-07-2010 04:10:04 20.5 C 9.43 g/m*3 20.5 C 0 km/h
142 09-07-2010 04:22:04 20.3 C 9.32 g/m*3 20.3 C 0 km/h
143 09-07-2010 04:34:04 20.2 C 9.44 g/m*3 20.2 C 0 km/h
144 09-07-2010 04:46:04 20 C 9.51 g/m*3 20 C 0 km/h
145 09-07-2010 04:58:04 19.8 C 9.57 g/m*3 19.8 C 0 km/h
146 09-07-2010 05:10:04 19.4 C 9.51 g/m*3 19.4 C 0 km/h
147 09-07-2010 05:22:04 19.3 C 9.45 g/m*3 19.3 C 0 km/h
148 09-07-2010 05:34:04 19.2 C 9.4 g/m*3 19.2 C 0 km/h
149 09-07-2010 05:46:04 19.1 C 9.51 g/m*3 19.1 C 0 km/h
150 09-07-2010 05:58:04 19.1 C 9.51 g/m*3 19.1 C 0 km/h
Sensor: Nr:Datum:Temp:Abs-Feuchte:Windchill:Wind:
Aussen-T/F 151 09-07-2010 06:10:04 19 C 9.78 g/m*3 19 C 0 km/h
152 09-07-2010 06:22:04 19.1 C 9.84 g/m*3 19.1 C 0 km/h
153 09-07-2010 06:34:04 18.9 C 10.04 g/m*3 18.9 C 0 km/h
154 09-07-2010 06:46:04 19.1 C 10 g/m*3 19.1 C 0 km/h
155 09-07-2010 06:58:04 19.2 C 10.22 g/m*3 19.2 C 0 km/h
156 09-07-2010 07:10:02 19.3 C 10.12 g/m*3 19.3 C 0 km/h
157 09-07-2010 07:22:02 19.4 C 10.18 g/m*3 19.4 C 0 km/h
158 09-07-2010 07:34:02 19.9 C 10.31 g/m*3 19.9 C 0 km/h
159 09-07-2010 07:46:02 20.3 C 9.85 g/m*3 20.3 C 0 km/h
160 09-07-2010 07:58:02 20.6 C 10.02 g/m*3 20.6 C 0 km/h
161 09-07-2010 08:10:01 20.8 C 9.96 g/m*3 20.8 C 0 km/h
162 09-07-2010 08:22:01 21.3 C 10.07 g/m*3 21.3 C 0 km/h
163 09-07-2010 08:34:02 21.5 C 9.99 g/m*3 21.5 C 0 km/h
164 09-07-2010 08:46:02 21.8 C 9.98 g/m*3 21.8 C 0 km/h
165 09-07-2010 08:58:02 22.1 C 9.76 g/m*3 22.1 C 0 km/h
166 09-07-2010 09:10:02 22.6 C 10.04 g/m*3 22.6 C 0 km/h
167 09-07-2010 09:22:02 23.3 C 10.04 g/m*3 23.3 C 0 km/h
168 09-07-2010 09:34:02 24.1 C 10.06 g/m*3 24.1 C 0 km/h
169 09-07-2010 09:46:02 25 C 10.13 g/m*3 25 C 0 km/h
170 09-07-2010 09:58:02 25.8 C 10.35 g/m*3 25.8 C 0 km/h
171 09-07-2010 10:10:02 26.5 C 10.26 g/m*3 26.5 C 0 km/h
172 09-07-2010 10:22:02 27.3 C 10.2 g/m*3 27.3 C 0 km/h
173 09-07-2010 10:34:02 27.8 C 10.49 g/m*3 27.8 C 0 km/h
174 09-07-2010 10:46:01 28.8 C 10.23 g/m*3 28.8 C 0 km/h
175 09-07-2010 10:58:01 29.3 C 10.22 g/m*3 29.3 C 0 km/h
Sensor: Nr:Datum:Temp:Abs-Feuchte:Windchill:Wind:
Aussen-T/F 176 09-07-2010 11:10:02 30 C 10.01 g/m*3 30 C 0 km/h
177 09-07-2010 11:22:01 30.2 C 10.42 g/m*3 30.2 C 0 km/h
178 09-07-2010 11:34:01 30.8 C 9.5 g/m*3 30.8 C 0 km/h
179 09-07-2010 11:46:01 31.3 C 8.46 g/m*3 31.3 C 0 km/h
180 09-07-2010 11:58:01 31.8 C 7.35 g/m*3 31.8 C 0 km/h
181 09-07-2010 12:10:02 32.3 C 6.86 g/m*3 32.3 C 0 km/h
182 09-07-2010 12:22:01 32.7 C 7.01 g/m*3 32.7 C 0 km/h
183 09-07-2010 12:34:01 33.2 C 7.2 g/m*3 33.2 C 0 km/h
184 09-07-2010 12:46:01 33.6 C 7.35 g/m*3 33.6 C 0 km/h
185 09-07-2010 12:58:01 33.9 C 7.46 g/m*3 33.9 C 0 km/h
186 09-07-2010 13:10:02 34.2 C 7.58 g/m*3 34.2 C 0 km/h
187 09-07-2010 13:22:02 34.2 C 7.58 g/m*3 34.2 C 0 km/h
188 09-07-2010 13:34:01 34.6 C 7.74 g/m*3 34.6 C 0 km/h
189 09-07-2010 13:46:01 35 C 7.91 g/m*3 35 C 0 km/h
190 09-07-2010 13:58:01 34.8 C 7.82 g/m*3 34.8 C 0 km/h
191 09-07-2010 14:10:02 33.9 C 7.46 g/m*3 33.9 C 0 km/h
192 09-07-2010 14:22:02 33.5 C 7.31 g/m*3 33.5 C 0 km/h
193 09-07-2010 14:34:01 33.1 C 7.16 g/m*3 33.1 C 0 km/h
194 09-07-2010 14:46:01 33 C 7.12 g/m*3 33 C 0 km/h
195 09-07-2010 14:58:01 32.8 C 7.04 g/m*3 32.8 C 0 km/h
196 09-07-2010 15:10:02 33.2 C 7.2 g/m*3 33.2 C 0 km/h
197 09-07-2010 15:22:02 33.2 C 7.2 g/m*3 33.2 C 0 km/h
198 09-07-2010 15:34:01 33.8 C 7.43 g/m*3 33.8 C 0 km/h
199 09-07-2010 15:46:02 33.9 C 7.46 g/m*3 33.9 C 0 km/h
200 09-07-2010 15:58:02 33.3 C 7.23 g/m*3 33.3 C 0 km/h
Sensor: Nr:Datum:Temp:Abs-Feuchte:Windchill:Wind:
Aussen-T/F 201 09-07-2010 16:10:01 33.2 C 7.2 g/m*3 33.2 C 0 km/h
202 09-07-2010 16:22:02 32.9 C 7.08 g/m*3 32.9 C 0 km/h
203 09-07-2010 16:34:01 32.1 C 7.13 g/m*3 32.1 C 0 km/h
204 09-07-2010 16:46:03 31.8 C 8.35 g/m*3 31.8 C 0 km/h
205 09-07-2010 16:58:03 31.4 C 8.83 g/m*3 31.4 C 0 km/h
206 09-07-2010 17:10:02 31.2 C 8.73 g/m*3 31.2 C 0 km/h
207 09-07-2010 17:22:02 31.8 C 8.35 g/m*3 31.8 C 0 km/h
208 09-07-2010 17:34:02 32.8 C 7.04 g/m*3 32.8 C 0 km/h
209 09-07-2010 17:46:02 32.7 C 7.36 g/m*3 32.7 C 0 km/h
210 09-07-2010 17:58:02 33.1 C 7.16 g/m*3 33.1 C 0 km/h
211 09-07-2010 18:10:02 33.2 C 7.2 g/m*3 33.2 C 0 km/h
212 09-07-2010 18:22:02 33.4 C 7.27 g/m*3 33.4 C 0 km/h
213 09-07-2010 18:34:02 33.1 C 7.16 g/m*3 33.1 C 0 km/h
214 09-07-2010 18:46:02 33.6 C 7.35 g/m*3 33.6 C 0 km/h
215 09-07-2010 18:58:02 33.8 C 7.43 g/m*3 33.8 C 0 km/h
216 09-07-2010 19:10:03 33.6 C 7.35 g/m*3 33.6 C 0 km/h
217 09-07-2010 19:22:03 33.5 C 7.31 g/m*3 33.5 C 0 km/h
218 09-07-2010 19:34:03 33.5 C 7.31 g/m*3 33.5 C 0 km/h
219 09-07-2010 19:46:01 33.5 C 7.31 g/m*3 33.5 C 0 km/h
220 09-07-2010 19:58:01 33.3 C 7.23 g/m*3 33.3 C 0 km/h
221 09-07-2010 20:10:01 33.1 C 7.16 g/m*3 33.1 C 0 km/h
222 09-07-2010 20:22:00 32.9 C 7.08 g/m*3 32.9 C 0 km/h
223 09-07-2010 20:34:01 32.1 C 7.47 g/m*3 32.1 C 0 km/h
224 09-07-2010 20:46:01 31.3 C 7.81 g/m*3 31.3 C 0 km/h
225 09-07-2010 20:58:01 30.8 C 8.23 g/m*3 30.8 C 0 km/h
Sensor: Nr:Datum:Temp:Abs-Feuchte:Windchill:Wind:
Aussen-T/F 226 09-07-2010 21:10:02 30.4 C 8.37 g/m*3 30.4 C 0 km/h
227 09-07-2010 21:22:01 30.2 C 8.58 g/m*3 30.2 C 0 km/h
228 09-07-2010 21:34:01 30 C 8.79 g/m*3 30 C 0 km/h
229 09-07-2010 21:46:02 29.6 C 8.9 g/m*3 29.6 C 0 km/h
230 09-07-2010 21:58:02 29.5 C 8.85 g/m*3 29.5 C 0 km/h
231 09-07-2010 22:10:02 29.2 C 9 g/m*3 29.2 C 0 km/h
232 09-07-2010 22:22:02 28.9 C 9.43 g/m*3 28.9 C 0 km/h
233 09-07-2010 22:34:02 28.9 C 9.71 g/m*3 28.9 C 0 km/h
234 09-07-2010 22:47:03 28.6 C 9.84 g/m*3 28.6 C 0 km/h
235 09-07-2010 22:59:03 28.3 C 9.4 g/m*3 28.3 C 0 km/h
236 09-07-2010 23:11:03 28 C 9.25 g/m*3 28 C 0 km/h
237 09-07-2010 23:23:04 27.9 C 9.47 g/m*3 27.9 C 0 km/h
238 09-07-2010 23:35:04 27.8 C 9.68 g/m*3 27.8 C 0 km/h
239 09-07-2010 23:47:04 27.6 C 9.84 g/m*3 27.6 C 0 km/h
240 09-07-2010 23:59:04 27.6 C 9.84 g/m*3 27.6 C 0 km/h
241 10-07-2010 00:11:04 27 C 9.78 g/m*3 27 C 0 km/h
242 10-07-2010 00:23:04 26.6 C 10.07 g/m*3 26.6 C 0 km/h
243 10-07-2010 00:35:04 26.3 C 10.15 g/m*3 26.3 C 0 km/h
244 10-07-2010 00:47:04 25.9 C 10.17 g/m*3 25.9 C 0 km/h
245 10-07-2010 00:59:04 25.7 C 10.29 g/m*3 25.7 C 0 km/h
246 10-07-2010 01:11:04 25.3 C 10.3 g/m*3 25.3 C 0 km/h
247 10-07-2010 01:23:04 25.2 C 10.48 g/m*3 25.2 C 0 km/h
248 10-07-2010 01:35:04 24.8 C 10.7 g/m*3 24.8 C 0 km/h
249 10-07-2010 01:47:04 24.8 C 10.7 g/m*3 24.8 C 0 km/h
250 10-07-2010 01:59:04 24.7 C 10.64 g/m*3 24.7 C 0 km/h
Sensor: Nr:Datum:Temp:Abs-Feuchte:Windchill:Wind:
Aussen-T/F 251 10-07-2010 02:11:04 24.5 C 10.52 g/m*3 24.5 C 0 km/h
252 10-07-2010 02:23:04 24.5 C 10.74 g/m*3 24.5 C 0 km/h
253 10-07-2010 02:35:04 24.2 C 10.78 g/m*3 24.2 C 0 km/h
254 10-07-2010 02:47:04 24.1 C 10.94 g/m*3 24.1 C 0 km/h
255 10-07-2010 02:59:04 23.7 C 10.91 g/m*3 23.7 C 0 km/h
256 10-07-2010 03:11:04 23.5 C 11.21 g/m*3 23.5 C 0 km/h
257 10-07-2010 03:23:04 23.2 C 11.23 g/m*3 23.2 C 0 km/h
258 10-07-2010 03:35:05 23.1 C 11.58 g/m*3 23.1 C 0 km/h
259 10-07-2010 03:47:05 22.9 C 11.44 g/m*3 22.9 C 0 km/h
260 10-07-2010 03:59:05 22.8 C 11.58 g/m*3 22.8 C 0 km/h
261 10-07-2010 04:11:05 22.7 C 11.52 g/m*3 22.7 C 0 km/h
262 10-07-2010 04:23:05 22.5 C 11.39 g/m*3 22.5 C 0 km/h
263 10-07-2010 04:35:05 22.3 C 11.45 g/m*3 22.3 C 0 km/h
264 10-07-2010 04:47:05 22.2 C 11.58 g/m*3 22.2 C 0 km/h
265 10-07-2010 04:59:05 22 C 11.45 g/m*3 22 C 0 km/h
266 10-07-2010 05:11:05 21.8 C 11.7 g/m*3 21.8 C 0 km/h
267 10-07-2010 05:23:05 21.8 C 11.7 g/m*3 21.8 C 0 km/h
268 10-07-2010 05:35:05 21.7 C 11.64 g/m*3 21.7 C 0 km/h
269 10-07-2010 05:47:05 21.6 C 11.57 g/m*3 21.6 C 0 km/h
270 10-07-2010 05:59:05 21.3 C 11.74 g/m*3 21.3 C 0 km/h
271 10-07-2010 06:11:05 21.2 C 11.86 g/m*3 21.2 C 0 km/h
272 10-07-2010 06:23:05 21.1 C 11.98 g/m*3 21.1 C 0 km/h
273 10-07-2010 06:35:03 21.3 C 11.93 g/m*3 21.3 C 0 km/h
274 10-07-2010 06:47:02 21.3 C 11.93 g/m*3 21.3 C 0 km/h
275 10-07-2010 06:59:02 21.6 C 12.14 g/m*3 21.6 C 0 km/h
Sensor: Nr:Datum:Temp:Abs-Feuchte:Windchill:Wind:
Aussen-T/F 276 10-07-2010 07:11:02 21.6 C 11.95 g/m*3 21.6 C 0 km/h
277 10-07-2010 07:23:01 21.6 C 12.14 g/m*3 21.6 C 0 km/h
278 10-07-2010 07:35:01 21.8 C 12.47 g/m*3 21.8 C 0 km/h
279 10-07-2010 07:47:01 22.1 C 12.3 g/m*3 22.1 C 0 km/h
280 10-07-2010 07:59:01 22.4 C 12.31 g/m*3 22.4 C 0 km/h
281 10-07-2010 08:11:01 22.7 C 12.32 g/m*3 22.7 C 0 km/h
282 10-07-2010 08:23:02 23 C 11.92 g/m*3 23 C 0 km/h
283 10-07-2010 08:35:01 23.3 C 11.92 g/m*3 23.3 C 0 km/h
284 10-07-2010 08:47:02 23.7 C 11.98 g/m*3 23.7 C 0 km/h
285 10-07-2010 08:59:02 24.2 C 11.88 g/m*3 24.2 C 0 km/h
286 10-07-2010 09:11:02 24.6 C 11.93 g/m*3 24.6 C 0 km/h
287 10-07-2010 09:23:02 25.2 C 11.87 g/m*3 25.2 C 0 km/h
288 10-07-2010 09:35:02 25.9 C 11.62 g/m*3 25.9 C 0 km/h
289 10-07-2010 09:47:02 26.8 C 11.45 g/m*3 26.8 C 0 km/h
290 10-07-2010 09:59:02 27.7 C 11.77 g/m*3 27.7 C 0 km/h
291 10-07-2010 10:11:02 28.1 C 11.48 g/m*3 28.1 C 0 km/h
292 10-07-2010 10:23:02 28.9 C 12 g/m*3 28.9 C 0 km/h
293 10-07-2010 10:35:02 29.8 C 11.7 g/m*3 29.8 C 0 km/h
294 10-07-2010 10:47:02 30 C 11.22 g/m*3 30 C 0 km/h
295 10-07-2010 10:59:02 30.4 C 11.16 g/m*3 30.4 C 0 km/h
296 10-07-2010 11:11:02 30.9 C 10.5 g/m*3 30.9 C 0 km/h
297 10-07-2010 11:23:02 31.2 C 9.7 g/m*3 31.2 C 0 km/h
298 10-07-2010 11:35:02 31.3 C 8.78 g/m*3 31.3 C 0 km/h
299 10-07-2010 11:47:02 31.8 C 8.68 g/m*3 31.8 C 0 km/h
300 10-07-2010 11:59:02 32.1 C 8.48 g/m*3 32.1 C 0 km/h
Sensor: Nr:Datum:Temp:Abs-Feuchte:Windchill:Wind:
Aussen-T/F 301 10-07-2010 12:11:02 32.6 C 8.02 g/m*3 32.6 C 0 km/h
302 10-07-2010 12:23:02 32.9 C 7.08 g/m*3 32.9 C 0 km/h
303 10-07-2010 12:35:02 33.5 C 7.31 g/m*3 33.5 C 0 km/h
304 10-07-2010 12:47:02 34 C 7.5 g/m*3 34 C 0 km/h
305 10-07-2010 12:59:02 34.1 C 7.54 g/m*3 34.1 C 0 km/h
306 10-07-2010 13:11:02 34.2 C 7.58 g/m*3 34.2 C 0 km/h
307 10-07-2010 13:23:02 34.8 C 7.82 g/m*3 34.8 C 0 km/h
308 10-07-2010 13:35:02 35.1 C 7.95 g/m*3 35.1 C 0 km/h
309 10-07-2010 13:47:02 35.1 C 7.95 g/m*3 35.1 C 0 km/h
310 10-07-2010 13:59:02 34.8 C 7.82 g/m*3 34.8 C 0 km/h
311 10-07-2010 14:11:02 34.5 C 7.7 g/m*3 34.5 C 0 km/h
312 10-07-2010 14:23:01 34.6 C 7.74 g/m*3 34.6 C 0 km/h
313 10-07-2010 14:35:02 34.6 C 7.74 g/m*3 34.6 C 0 km/h
314 10-07-2010 14:47:01 34.3 C 7.62 g/m*3 34.3 C 0 km/h
315 10-07-2010 14:59:01 34.2 C 7.58 g/m*3 34.2 C 0 km/h
316 10-07-2010 15:11:02 34.8 C 7.82 g/m*3 34.8 C 0 km/h
317 10-07-2010 15:23:02 35.1 C 7.95 g/m*3 35.1 C 0 km/h
318 10-07-2010 15:35:01 35.2 C 7.99 g/m*3 35.2 C 0 km/h
319 10-07-2010 15:47:02 35.4 C 8.07 g/m*3 35.4 C 0 km/h
320 10-07-2010 15:59:02 35.5 C 8.11 g/m*3 35.5 C 0 km/h
321 10-07-2010 16:11:01 35.4 C 8.07 g/m*3 35.4 C 0 km/h
322 10-07-2010 16:23:02 35.6 C 8.16 g/m*3 35.6 C 0 km/h
323 10-07-2010 16:35:01 35.7 C 8.2 g/m*3 35.7 C 0 km/h
324 10-07-2010 16:47:03 35.7 C 8.2 g/m*3 35.7 C 0 km/h
325 10-07-2010 16:59:03 35.7 C 8.2 g/m*3 35.7 C 0 km/h
Sensor: Nr:Datum:Temp:Abs-Feuchte:Windchill:Wind:
Aussen-T/F 326 10-07-2010 17:11:02 35.7 C 8.2 g/m*3 35.7 C 0 km/h
327 10-07-2010 17:23:03 35.9 C 8.28 g/m*3 35.9 C 0 km/h
328 10-07-2010 17:35:02 35.8 C 8.24 g/m*3 35.8 C 0 km/h
329 10-07-2010 17:47:03 36 C 8.33 g/m*3 36 C 0 km/h
330 10-07-2010 17:59:03 35.6 C 8.16 g/m*3 35.6 C 0 km/h
331 10-07-2010 18:11:02 35.8 C 8.24 g/m*3 35.8 C 0 km/h
332 10-07-2010 18:23:02 36 C 8.33 g/m*3 36 C 0 km/h
333 10-07-2010 18:35:02 35.9 C 8.28 g/m*3 35.9 C 0 km/h
334 10-07-2010 18:47:02 36 C 8.33 g/m*3 36 C 0 km/h
335 10-07-2010 18:59:02 35.9 C 8.28 g/m*3 35.9 C 0 km/h
336 10-07-2010 19:11:01 35.7 C 8.2 g/m*3 35.7 C 0 km/h
337 10-07-2010 19:23:02 35.6 C 8.16 g/m*3 35.6 C 0 km/h
338 10-07-2010 19:35:01 35.4 C 8.07 g/m*3 35.4 C 0 km/h
339 10-07-2010 19:47:02 35.3 C 8.03 g/m*3 35.3 C 0 km/h
340 10-07-2010 19:59:02 34.9 C 7.87 g/m*3 34.9 C 0 km/h
341 10-07-2010 20:11:01 34.5 C 7.7 g/m*3 34.5 C 0 km/h
342 10-07-2010 20:23:01 34 C 7.5 g/m*3 34 C 0 km/h
343 10-07-2010 20:35:02 33.6 C 8.08 g/m*3 33.6 C 0 km/h
344 10-07-2010 20:47:02 33.1 C 8.59 g/m*3 33.1 C 0 km/h
345 10-07-2010 20:59:03 32.7 C 9.11 g/m*3 32.7 C 0 km/h
346 10-07-2010 21:11:01 32.2 C 9.21 g/m*3 32.2 C 0 km/h
347 10-07-2010 21:23:02 31.6 C 9.58 g/m*3 31.6 C 0 km/h
348 10-07-2010 21:35:02 31.2 C 9.38 g/m*3 31.2 C 0 km/h
349 10-07-2010 21:47:01 30.8 C 9.5 g/m*3 30.8 C 0 km/h
350 10-07-2010 21:59:01 30.7 C 9.45 g/m*3 30.7 C 0 km/h
Sensor: Nr:Datum:Temp:Abs-Feuchte:Windchill:Wind:
Aussen-T/F 351 10-07-2010 22:11:01 30.5 C 9.97 g/m*3 30.5 C 0 km/h
352 10-07-2010 22:23:01 30.4 C 9.92 g/m*3 30.4 C 0 km/h
353 10-07-2010 22:35:02 30.4 C 9.92 g/m*3 30.4 C 0 km/h
354 10-07-2010 22:47:02 30.5 C 9.97 g/m*3 30.5 C 0 km/h
355 10-07-2010 22:59:02 30.4 C 9.92 g/m*3 30.4 C 0 km/h
356 10-07-2010 23:11:02 30.6 C 9.4 g/m*3 30.6 C 0 km/h
357 10-07-2010 23:23:02 30.2 C 9.81 g/m*3 30.2 C 0 km/h
358 10-07-2010 23:35:02 30.1 C 10.06 g/m*3 30.1 C 0 km/h
359 10-07-2010 23:47:02 30.1 C 9.76 g/m*3 30.1 C 0 km/h
360 10-07-2010 23:59:02 30 C 10.01 g/m*3 30 C 0 km/h
361 11-07-2010 00:11:03 29.9 C 9.95 g/m*3 29.9 C 0 km/h
362 11-07-2010 00:23:02 30 C 9.7 g/m*3 30 C 0 km/h
363 11-07-2010 00:36:04 29.7 C 9.85 g/m*3 29.7 C 0 km/h
364 11-07-2010 00:48:04 29.8 C 9.9 g/m*3 29.8 C 0 km/h
365 11-07-2010 01:00:04 29.8 C 9.9 g/m*3 29.8 C 0 km/h
366 11-07-2010 01:12:04 29.6 C 9.79 g/m*3 29.6 C 0 km/h
367 11-07-2010 01:24:04 29.5 C 10.03 g/m*3 29.5 C 0 km/h
368 11-07-2010 01:36:04 28.3 C 10.23 g/m*3 28.3 C 0 km/h
369 11-07-2010 01:48:04 25.4 C 14.83 g/m*3 25.4 C 0 km/h
370 11-07-2010 02:00:04 24 C 16.1 g/m*3 24 C 0 km/h
371 11-07-2010 02:12:04 24.5 C 15.44 g/m*3 24.5 C 0 km/h
372 11-07-2010 02:24:04 25 C 14.73 g/m*3 25 C 0 km/h
373 11-07-2010 02:36:04 23.7 C 16.47 g/m*3 23.7 C 0 km/h
374 11-07-2010 02:48:04 22.9 C 16.55 g/m*3 22.9 C 0 km/h
375 11-07-2010 03:00:04 23.2 C 16.42 g/m*3 23.2 C 0 km/h
Sensor: Nr:Datum:Temp:Abs-Feuchte:Windchill:Wind:
Aussen-T/F 376 11-07-2010 03:12:04 23.6 C 16.59 g/m*3 23.6 C 0 km/h
377 11-07-2010 03:24:04 23.7 C 16.47 g/m*3 23.7 C 0 km/h
378 11-07-2010 03:36:05 23.3 C 15.89 g/m*3 23.3 C 0 km/h
379 11-07-2010 03:48:05 23.1 C 15.92 g/m*3 23.1 C 0 km/h
380 11-07-2010 04:00:05 22.5 C 16.18 g/m*3 22.5 C 0 km/h
381 11-07-2010 04:12:05 22.1 C 16.4 g/m*3 22.1 C 0 km/h
382 11-07-2010 04:24:05 21.9 C 16.6 g/m*3 21.9 C 0 km/h
383 11-07-2010 04:36:05 21.6 C 16.31 g/m*3 21.6 C 0 km/h
384 11-07-2010 04:48:05 21.8 C 16.69 g/m*3 21.8 C 0 km/h
385 11-07-2010 05:00:05 21.9 C 16.6 g/m*3 21.9 C 0 km/h
386 11-07-2010 05:12:05 22 C 16.11 g/m*3 22 C 0 km/h
387 11-07-2010 05:24:05 22.2 C 16.3 g/m*3 22.2 C 0 km/h
388 11-07-2010 05:36:05 21.9 C 16.02 g/m*3 21.9 C 0 km/h
389 11-07-2010 05:48:05 22 C 16.11 g/m*3 22 C 0 km/h
390 11-07-2010 06:00:05 21.9 C 16.21 g/m*3 21.9 C 0 km/h
391 11-07-2010 06:12:05 21.8 C 16.12 g/m*3 21.8 C 0 km/h
392 11-07-2010 06:24:05 21.8 C 16.12 g/m*3 21.8 C 0 km/h
393 11-07-2010 06:36:05 21.7 C 16.02 g/m*3 21.7 C 0 km/h
394 11-07-2010 06:48:05 22 C 15.91 g/m*3 22 C 0 km/h
395 11-07-2010 07:00:05 22.5 C 15.98 g/m*3 22.5 C 0 km/h
396 11-07-2010 07:12:05 22.6 C 15.47 g/m*3 22.6 C 0 km/h
397 11-07-2010 07:24:05 22.8 C 15.65 g/m*3 22.8 C 0 km/h
398 11-07-2010 07:36:05 22.8 C 15.65 g/m*3 22.8 C 0 km/h
399 11-07-2010 07:48:06 23.1 C 15.92 g/m*3 23.1 C 0 km/h
400 11-07-2010 08:00:06 23.5 C 15.65 g/m*3 23.5 C 0 km/h
Sensor: Nr:Datum:Temp:Abs-Feuchte:Windchill:Wind:
Aussen-T/F 401 11-07-2010 08:12:06 24 C 15.45 g/m*3 24 C 0 km/h
402 11-07-2010 08:24:06 24.5 C 15.44 g/m*3 24.5 C 0 km/h
403 11-07-2010 08:36:06 24.7 C 15.39 g/m*3 24.7 C 0 km/h
404 11-07-2010 08:48:02 24.4 C 15.36 g/m*3 24.4 C 0 km/h
405 11-07-2010 09:00:02 23.8 C 15.06 g/m*3 23.8 C 0 km/h
406 11-07-2010 09:12:02 23.9 C 15.36 g/m*3 23.9 C 0 km/h
407 11-07-2010 09:24:03 24.4 C 14.91 g/m*3 24.4 C 0 km/h
408 11-07-2010 09:36:02 24.7 C 14.49 g/m*3 24.7 C 0 km/h
409 11-07-2010 09:48:03 25.3 C 14.05 g/m*3 25.3 C 0 km/h
410 11-07-2010 10:00:03 25.9 C 13.56 g/m*3 25.9 C 0 km/h
411 11-07-2010 10:12:02 26.3 C 12.87 g/m*3 26.3 C 0 km/h
412 11-07-2010 10:24:02 26.9 C 13.05 g/m*3 26.9 C 0 km/h
413 11-07-2010 10:36:02 27.1 C 12.42 g/m*3 27.1 C 0 km/h
414 11-07-2010 10:53:34 27.8 C 12.64 g/m*3 27.8 C 0 km/h
415 11-07-2010 11:05:34 27.8 C 12.64 g/m*3 27.8 C 0 km/h
416 11-07-2010 11:17:34 28 C 12.24 g/m*3 28 C 0 km/h
417 11-07-2010 11:29:34 28.4 C 12.51 g/m*3 28.4 C 0 km/h
418 11-07-2010 11:41:34 29.1 C 12.13 g/m*3 29.1 C 0 km/h
419 11-07-2010 11:53:35 29.4 C 11.74 g/m*3 29.4 C 0 km/h
420 11-07-2010 12:05:35 30.3 C 11.4 g/m*3 30.3 C 0 km/h
421 11-07-2010 12:17:35 30.3 C 10.79 g/m*3 30.3 C 0 km/h
422 11-07-2010 12:29:35 30.8 C 10.76 g/m*3 30.8 C 0 km/h
423 11-07-2010 12:41:35 30.7 C 10.39 g/m*3 30.7 C 0 km/h
424 11-07-2010 12:53:35 30.1 C 10.67 g/m*3 30.1 C 0 km/h
425 11-07-2010 13:05:35 31.5 C 9.86 g/m*3 31.5 C 0 km/h
Sensor: Nr:Datum:Temp:Abs-Feuchte:Windchill:Wind:
Aussen-T/F 426 11-07-2010 13:17:35 32.1 C 8.82 g/m*3 32.1 C 0 km/h
427 11-07-2010 13:29:35 30.7 C 9.76 g/m*3 30.7 C 0 km/h
428 11-07-2010 13:41:35 31.7 C 8.97 g/m*3 31.7 C 0 km/h
429 11-07-2010 13:53:35 32.3 C 8.23 g/m*3 32.3 C 0 km/h
430 11-07-2010 14:05:35 32.1 C 8.48 g/m*3 32.1 C 0 km/h
431 11-07-2010 14:17:35 32.1 C 8.48 g/m*3 32.1 C 0 km/h
432 11-07-2010 14:29:35 31.8 C 8.35 g/m*3 31.8 C 0 km/h
433 11-07-2010 14:41:35 32 C 8.44 g/m*3 32 C 0 km/h
434 11-07-2010 14:53:35 32.3 C 7.89 g/m*3 32.3 C 0 km/h
435 11-07-2010 15:05:35 32.3 C 7.55 g/m*3 32.3 C 0 km/h
436 11-07-2010 15:17:35 32.8 C 7.75 g/m*3 32.8 C 0 km/h
437 11-07-2010 15:29:35 33 C 7.48 g/m*3 33 C 0 km/h
438 11-07-2010 15:41:35 33 C 7.48 g/m*3 33 C 0 km/h
439 11-07-2010 15:53:35 33.1 C 7.52 g/m*3 33.1 C 0 km/h
440 11-07-2010 16:05:36 33.7 C 7.39 g/m*3 33.7 C 0 km/h
441 11-07-2010 16:17:36 33.7 C 7.39 g/m*3 33.7 C 0 km/h
442 11-07-2010 16:29:36 33.7 C 7.39 g/m*3 33.7 C 0 km/h
443 11-07-2010 16:41:36 33.8 C 7.43 g/m*3 33.8 C 0 km/h
444 11-07-2010 16:53:36 33.6 C 7.35 g/m*3 33.6 C 0 km/h
445 11-07-2010 17:05:36 34 C 7.5 g/m*3 34 C 0 km/h
446 11-07-2010 17:17:36 34 C 7.5 g/m*3 34 C 0 km/h
447 11-07-2010 17:29:36 34.5 C 7.7 g/m*3 34.5 C 0 km/h
448 11-07-2010 17:41:36 34.6 C 7.74 g/m*3 34.6 C 0 km/h
449 11-07-2010 17:53:36 34.2 C 7.58 g/m*3 34.2 C 0 km/h
450 11-07-2010 18:05:36 34.1 C 7.54 g/m*3 34.1 C 0 km/h
Sensor: Nr:Datum:Temp:Abs-Feuchte:Windchill:Wind:
Aussen-T/F 451 11-07-2010 18:17:36 34.1 C 7.54 g/m*3 34.1 C 0 km/h
452 11-07-2010 18:29:36 34 C 7.5 g/m*3 34 C 0 km/h
453 11-07-2010 18:41:36 34.2 C 7.58 g/m*3 34.2 C 0 km/h
454 11-07-2010 18:53:36 34.2 C 7.58 g/m*3 34.2 C 0 km/h
455 11-07-2010 19:05:36 34.3 C 7.62 g/m*3 34.3 C 0 km/h
456 11-07-2010 19:17:36 34.2 C 7.58 g/m*3 34.2 C 0 km/h
457 11-07-2010 19:29:36 33.8 C 7.43 g/m*3 33.8 C 0 km/h
458 11-07-2010 19:41:36 33.8 C 7.43 g/m*3 33.8 C 0 km/h
459 11-07-2010 19:53:36 33.5 C 7.31 g/m*3 33.5 C 0 km/h
460 11-07-2010 20:05:37 33.7 C 7.39 g/m*3 33.7 C 0 km/h
461 11-07-2010 20:17:37 33.7 C 7.39 g/m*3 33.7 C 0 km/h
462 11-07-2010 20:29:37 33.4 C 7.63 g/m*3 33.4 C 0 km/h
463 11-07-2010 20:41:37 33.1 C 8.23 g/m*3 33.1 C 0 km/h
464 11-07-2010 20:53:37 32.6 C 8.71 g/m*3 32.6 C 0 km/h
465 11-07-2010 21:05:37 31.9 C 9.4 g/m*3 31.9 C 0 km/h
466 11-07-2010 21:17:37 31.2 C 9.7 g/m*3 31.2 C 0 km/h
467 11-07-2010 21:29:37 30.7 C 10.08 g/m*3 30.7 C 0 km/h
468 11-07-2010 21:41:37 30.4 C 10.54 g/m*3 30.4 C 0 km/h
469 11-07-2010 21:53:37 30.2 C 10.73 g/m*3 30.2 C 0 km/h
470 11-07-2010 22:05:37 30.1 C 10.67 g/m*3 30.1 C 0 km/h
471 11-07-2010 22:17:37 30 C 10.92 g/m*3 30 C 0 km/h
472 11-07-2010 22:29:37 29.9 C 10.86 g/m*3 29.9 C 0 km/h
473 11-07-2010 22:41:37 29.7 C 11.04 g/m*3 29.7 C 0 km/h
474 11-07-2010 22:53:37 29.4 C 10.86 g/m*3 29.4 C 0 km/h
475 11-07-2010 23:05:37 29.1 C 10.97 g/m*3 29.1 C 0 km/h
Sensor: Nr:Datum:Temp:Abs-Feuchte:Windchill:Wind:
Aussen-T/F 476 11-07-2010 23:17:37 28.6 C 11.24 g/m*3 28.6 C 0 km/h
477 11-07-2010 23:29:37 28.4 C 11.12 g/m*3 28.4 C 0 km/h
478 11-07-2010 23:41:37 28.5 C 11.18 g/m*3 28.5 C 0 km/h
479 11-07-2010 23:53:37 28.1 C 11.21 g/m*3 28.1 C 0 km/h
480 12-07-2010 00:05:37 27.8 C 11.57 g/m*3 27.8 C 0 km/h
481 12-07-2010 00:17:38 27.4 C 11.84 g/m*3 27.4 C 0 km/h
482 12-07-2010 00:29:38 27.2 C 11.71 g/m*3 27.2 C 0 km/h
483 12-07-2010 00:41:38 27 C 11.84 g/m*3 27 C 0 km/h
484 12-07-2010 00:53:38 26.8 C 12.22 g/m*3 26.8 C 0 km/h
485 12-07-2010 01:05:38 26.5 C 12.27 g/m*3 26.5 C 0 km/h
486 12-07-2010 01:17:38 26.2 C 12.06 g/m*3 26.2 C 0 km/h
487 12-07-2010 01:29:38 26 C 12.17 g/m*3 26 C 0 km/h
488 12-07-2010 01:41:38 25.7 C 12.69 g/m*3 25.7 C 0 km/h
489 12-07-2010 01:53:38 25.7 C 12.45 g/m*3 25.7 C 0 km/h
490 12-07-2010 02:05:38 25.6 C 12.38 g/m*3 25.6 C 0 km/h
491 12-07-2010 02:17:38 25.3 C 12.41 g/m*3 25.3 C 0 km/h
492 12-07-2010 02:29:38 25.2 C 12.57 g/m*3 25.2 C 0 km/h
493 12-07-2010 02:41:38 24.9 C 13.05 g/m*3 24.9 C 0 km/h
494 12-07-2010 02:53:38 24.6 C 13.05 g/m*3 24.6 C 0 km/h
495 12-07-2010 03:05:38 24.6 C 13.05 g/m*3 24.6 C 0 km/h
496 12-07-2010 03:17:38 24.2 C 13.2 g/m*3 24.2 C 0 km/h
497 12-07-2010 03:29:38 24 C 13.05 g/m*3 24 C 0 km/h
498 12-07-2010 03:41:38 24.1 C 13.13 g/m*3 24.1 C 0 km/h
499 12-07-2010 03:53:38 24 C 13.05 g/m*3 24 C 0 km/h
500 12-07-2010 04:05:38 23.7 C 13.05 g/m*3 23.7 C 0 km/h
Sensor: Nr:Datum:Temp:Abs-Feuchte:Windchill:Wind:
Aussen-T/F 501 12-07-2010 04:17:39 23.4 C 13.04 g/m*3 23.4 C 0 km/h
502 12-07-2010 04:29:39 23.3 C 13.17 g/m*3 23.3 C 0 km/h
503 12-07-2010 04:41:39 23.2 C 12.89 g/m*3 23.2 C 0 km/h
504 12-07-2010 04:53:39 23 C 13.15 g/m*3 23 C 0 km/h
505 12-07-2010 05:05:39 22.9 C 13.28 g/m*3 22.9 C 0 km/h
506 12-07-2010 05:17:39 22.6 C 13.26 g/m*3 22.6 C 0 km/h
507 12-07-2010 05:29:39 22.7 C 13.13 g/m*3 22.7 C 0 km/h
508 12-07-2010 05:41:39 22.6 C 13.06 g/m*3 22.6 C 0 km/h
509 12-07-2010 05:53:39 22.5 C 13.18 g/m*3 22.5 C 0 km/h
510 12-07-2010 06:05:39 22.4 C 13.11 g/m*3 22.4 C 0 km/h
511 12-07-2010 06:17:39 22.4 C 13.5 g/m*3 22.4 C 0 km/h
512 12-07-2010 06:29:39 22.4 C 13.31 g/m*3 22.4 C 0 km/h
513 12-07-2010 06:41:39 22.7 C 13.54 g/m*3 22.7 C 0 km/h
514 12-07-2010 06:53:39 22.8 C 13.41 g/m*3 22.8 C 0 km/h
515 12-07-2010 07:05:39 22.8 C 13.61 g/m*3 22.8 C 0 km/h
516 12-07-2010 07:17:39 22.7 C 13.54 g/m*3 22.7 C 0 km/h
517 12-07-2010 07:29:39 22.9 C 13.69 g/m*3 22.9 C 0 km/h
518 12-07-2010 07:41:39 23 C 13.57 g/m*3 23 C 0 km/h
519 12-07-2010 07:53:39 22.9 C 13.69 g/m*3 22.9 C 0 km/h
520 12-07-2010 08:05:39 23.1 C 13.64 g/m*3 23.1 C 0 km/h
521 12-07-2010 08:17:39 23.4 C 13.46 g/m*3 23.4 C 0 km/h
522 12-07-2010 08:29:40 23.7 C 13.48 g/m*3 23.7 C 0 km/h
523 12-07-2010 08:41:40 24.3 C 13.72 g/m*3 24.3 C 0 km/h
524 12-07-2010 08:53:40 24.8 C 13.88 g/m*3 24.8 C 0 km/h
525 12-07-2010 09:05:40 25.4 C 13.65 g/m*3 25.4 C 0 km/h
Sensor: Nr:Datum:Temp:Abs-Feuchte:Windchill:Wind:
Aussen-T/F 526 12-07-2010 09:17:40 26.1 C 13.71 g/m*3 26.1 C 0 km/h
527 12-07-2010 09:29:40 26.7 C 13.67 g/m*3 26.7 C 0 km/h
528 12-07-2010 09:41:40 27.3 C 13.34 g/m*3 27.3 C 0 km/h
529 12-07-2010 09:53:40 28.1 C 13.4 g/m*3 28.1 C 0 km/h
530 12-07-2010 10:05:40 28.9 C 13.43 g/m*3 28.9 C 0 km/h
531 12-07-2010 10:17:40 29.7 C 12.83 g/m*3 29.7 C 0 km/h
532 12-07-2010 10:29:40 30 C 12.74 g/m*3 30 C 0 km/h
533 12-07-2010 10:41:40 30.3 C 12.02 g/m*3 30.3 C 0 km/h
534 12-07-2010 10:53:40 30.9 C 11.46 g/m*3 30.9 C 0 km/h
535 12-07-2010 11:05:40 31.4 C 11.12 g/m*3 31.4 C 0 km/h
536 12-07-2010 11:17:40 31.5 C 10.52 g/m*3 31.5 C 0 km/h
537 12-07-2010 11:29:40 31.9 C 10.41 g/m*3 31.9 C 0 km/h
538 12-07-2010 11:41:40 32 C 8.78 g/m*3 32 C 0 km/h
539 12-07-2010 11:53:40 32.1 C 8.82 g/m*3 32.1 C 0 km/h
540 12-07-2010 12:05:40 32.3 C 8.58 g/m*3 32.3 C 0 km/h
541 12-07-2010 12:17:40 32.4 C 8.62 g/m*3 32.4 C 0 km/h
542 12-07-2010 12:29:41 32.8 C 8.45 g/m*3 32.8 C 0 km/h
543 12-07-2010 12:41:41 31.8 C 7.35 g/m*3 31.8 C 0 km/h
544 12-07-2010 12:53:41 25.9 C 7.51 g/m*3 25.9 C 0 km/h
545 12-07-2010 13:05:41 25.1 C 14.58 g/m*3 25.1 C 0 km/h
546 12-07-2010 13:17:41 27.9 C 11.09 g/m*3 27.9 C 0 km/h
547 12-07-2010 13:29:41 28.3 C 11.06 g/m*3 28.3 C 0 km/h
548 12-07-2010 13:41:41 29.2 C 11.91 g/m*3 29.2 C 0 km/h
549 12-07-2010 13:53:41 30.1 C 9.15 g/m*3 30.1 C 0 km/h
550 12-07-2010 14:05:41 30.3 C 9.55 g/m*3 30.3 C 0 km/h
Sensor: Nr:Datum:Temp:Abs-Feuchte:Windchill:Wind:
Aussen-T/F 551 12-07-2010 14:17:41 30.5 C 10.59 g/m*3 30.5 C 0 km/h
552 12-07-2010 14:29:41 30.7 C 10.08 g/m*3 30.7 C 0 km/h
553 12-07-2010 14:41:41 31 C 8.32 g/m*3 31 C 0 km/h
554 12-07-2010 14:53:41 31 C 8.64 g/m*3 31 C 0 km/h
555 12-07-2010 15:05:41 31.1 C 9.65 g/m*3 31.1 C 0 km/h
556 12-07-2010 15:17:41 31.5 C 8.55 g/m*3 31.5 C 0 km/h
557 12-07-2010 15:29:41 32 C 7.43 g/m*3 32 C 0 km/h
558 12-07-2010 15:41:41 31.8 C 7.01 g/m*3 31.8 C 0 km/h
559 12-07-2010 15:53:41 31.7 C 6.98 g/m*3 31.7 C 0 km/h
560 12-07-2010 16:05:41 32.3 C 6.86 g/m*3 32.3 C 0 km/h
561 12-07-2010 16:17:41 32 C 6.75 g/m*3 32 C 0 km/h
562 12-07-2010 16:29:42 31.9 C 6.72 g/m*3 31.9 C 0 km/h
563 12-07-2010 16:41:42 31.8 C 6.68 g/m*3 31.8 C 0 km/h
564 12-07-2010 16:53:42 31.5 C 6.57 g/m*3 31.5 C 0 km/h
565 12-07-2010 17:05:42 31.4 C 6.54 g/m*3 31.4 C 0 km/h
566 12-07-2010 17:17:42 31.7 C 6.64 g/m*3 31.7 C 0 km/h
567 12-07-2010 17:29:42 32 C 6.75 g/m*3 32 C 0 km/h
568 12-07-2010 17:41:42 31.6 C 6.61 g/m*3 31.6 C 0 km/h
569 12-07-2010 17:53:42 31 C 6.4 g/m*3 31 C 0 km/h
570 12-07-2010 18:05:42 30.6 C 6.58 g/m*3 30.6 C 0 km/h
571 12-07-2010 18:17:42 30.3 C 7.4 g/m*3 30.3 C 0 km/h
572 12-07-2010 18:29:42 30 C 7.58 g/m*3 30 C 0 km/h
573 12-07-2010 18:41:42 30 C 7.58 g/m*3 30 C 0 km/h
574 12-07-2010 18:53:42 30 C 7.88 g/m*3 30 C 0 km/h
575 12-07-2010 19:05:42 29.5 C 7.67 g/m*3 29.5 C 0 km/h
Sensor: Nr:Datum:Temp:Abs-Feuchte:Windchill:Wind:
Aussen-T/F 576 12-07-2010 19:17:42 29 C 7.47 g/m*3 29 C 0 km/h
577 12-07-2010 19:29:42 28.6 C 7.87 g/m*3 28.6 C 0 km/h
578 12-07-2010 19:41:42 28.2 C 7.7 g/m*3 28.2 C 0 km/h
579 12-07-2010 19:53:42 28.1 C 7.38 g/m*3 28.1 C 0 km/h
580 12-07-2010 20:05:42 27.8 C 7.53 g/m*3 27.8 C 0 km/h
581 12-07-2010 20:17:42 27.6 C 7.71 g/m*3 27.6 C 0 km/h
582 12-07-2010 20:29:42 27 C 7.72 g/m*3 27 C 0 km/h
583 12-07-2010 20:41:43 26.4 C 7.97 g/m*3 26.4 C 0 km/h
584 12-07-2010 20:53:43 26 C 8.28 g/m*3 26 C 0 km/h
585 12-07-2010 21:05:43 26 C 8.52 g/m*3 26 C 0 km/h
586 12-07-2010 21:17:43 25.8 C 8.67 g/m*3 25.8 C 0 km/h
587 12-07-2010 21:29:43 25.7 C 8.86 g/m*3 25.7 C 0 km/h
588 12-07-2010 21:41:43 25.7 C 9.34 g/m*3 25.7 C 0 km/h
589 12-07-2010 21:53:43 25.4 C 9.42 g/m*3 25.4 C 0 km/h
590 12-07-2010 22:05:43 24.9 C 9.61 g/m*3 24.9 C 0 km/h
591 12-07-2010 22:17:43 24.9 C 9.16 g/m*3 24.9 C 0 km/h
592 12-07-2010 22:29:43 24.2 C 9.02 g/m*3 24.2 C 0 km/h
593 12-07-2010 22:41:43 24.6 C 9.23 g/m*3 24.6 C 0 km/h
594 12-07-2010 22:53:43 24.5 C 9.18 g/m*3 24.5 C 0 km/h
595 12-07-2010 23:05:43 24.3 C 9.29 g/m*3 24.3 C 0 km/h
596 12-07-2010 23:17:43 24 C 9.57 g/m*3 24 C 0 km/h
597 12-07-2010 23:29:43 23.4 C 9.67 g/m*3 23.4 C 0 km/h
598 12-07-2010 23:41:43 23 C 9.87 g/m*3 23 C 0 km/h
599 12-07-2010 23:53:43 22.7 C 10.1 g/m*3 22.7 C 0 km/h
600 13-07-2010 00:05:43 22.6 C 10.25 g/m*3 22.6 C 0 km/h
Sensor: Nr:Datum:Temp:Abs-Feuchte:Windchill:Wind:
Aussen-T/F 601 13-07-2010 00:17:43 22.5 C 10.39 g/m*3 22.5 C 0 km/h
602 13-07-2010 00:29:43 22.3 C 10.27 g/m*3 22.3 C 0 km/h
603 13-07-2010 00:41:44 22.1 C 10.35 g/m*3 22.1 C 0 km/h
604 13-07-2010 00:53:44 22 C 10.48 g/m*3 22 C 0 km/h
605 13-07-2010 01:05:44 21.6 C 10.62 g/m*3 21.6 C 0 km/h
606 13-07-2010 01:17:44 21.5 C 10.56 g/m*3 21.5 C 0 km/h
607 13-07-2010 01:29:44 21.4 C 10.69 g/m*3 21.4 C 0 km/h
608 13-07-2010 01:41:44 21.3 C 10.81 g/m*3 21.3 C 0 km/h
609 13-07-2010 01:53:44 21.3 C 10.81 g/m*3 21.3 C 0 km/h
610 13-07-2010 02:05:44 21 C 10.62 g/m*3 21 C 0 km/h
611 13-07-2010 02:17:44 20.8 C 10.86 g/m*3 20.8 C 0 km/h
612 13-07-2010 02:29:44 20.7 C 10.98 g/m*3 20.7 C 0 km/h
613 13-07-2010 02:41:44 20.5 C 11.03 g/m*3 20.5 C 0 km/h
614 13-07-2010 02:53:44 20.3 C 11.08 g/m*3 20.3 C 0 km/h
615 13-07-2010 03:05:44 20.2 C 11.02 g/m*3 20.2 C 0 km/h
616 13-07-2010 03:17:44 20 C 11.06 g/m*3 20 C 0 km/h
617 13-07-2010 03:29:44 19.8 C 11.27 g/m*3 19.8 C 0 km/h
618 13-07-2010 03:41:44 19.7 C 11.38 g/m*3 19.7 C 0 km/h
619 13-07-2010 03:53:44 19.7 C 11.38 g/m*3 19.7 C 0 km/h
620 13-07-2010 04:05:44 19.8 C 11.44 g/m*3 19.8 C 0 km/h
621 13-07-2010 04:17:44 19.8 C 11.44 g/m*3 19.8 C 0 km/h
622 13-07-2010 04:29:44 19.7 C 11.38 g/m*3 19.7 C 0 km/h
623 13-07-2010 04:41:44 19.7 C 11.89 g/m*3 19.7 C 0 km/h
624 13-07-2010 04:53:45 19.1 C 12.13 g/m*3 19.1 C 0 km/h
625 13-07-2010 05:05:45 18.9 C 12.31 g/m*3 18.9 C 0 km/h
Sensor: Nr:Datum:Temp:Abs-Feuchte:Windchill:Wind:
Aussen-T/F 626 13-07-2010 05:17:45 18.7 C 12.33 g/m*3 18.7 C 0 km/h
627 13-07-2010 05:29:45 18.7 C 12.33 g/m*3 18.7 C 0 km/h
628 13-07-2010 05:41:45 18.7 C 12.17 g/m*3 18.7 C 0 km/h
629 13-07-2010 05:53:45 18.6 C 12.1 g/m*3 18.6 C 0 km/h
630 13-07-2010 06:05:45 18.7 C 12.17 g/m*3 18.7 C 0 km/h
631 13-07-2010 06:17:45 18.8 C 12.08 g/m*3 18.8 C 0 km/h
632 13-07-2010 06:29:45 18.8 C 12.08 g/m*3 18.8 C 0 km/h
633 13-07-2010 06:41:45 18.8 C 12.08 g/m*3 18.8 C 0 km/h
634 13-07-2010 06:53:45 18.9 C 12.15 g/m*3 18.9 C 0 km/h
635 13-07-2010 07:05:45 19.2 C 12.04 g/m*3 19.2 C 0 km/h
636 13-07-2010 07:17:45 19.5 C 12.08 g/m*3 19.5 C 0 km/h
637 13-07-2010 07:29:45 19.7 C 12.06 g/m*3 19.7 C 0 km/h
638 13-07-2010 07:41:45 19.7 C 12.06 g/m*3 19.7 C 0 km/h
639 13-07-2010 07:53:45 20 C 11.92 g/m*3 20 C 0 km/h
640 13-07-2010 08:05:45 20.4 C 12.03 g/m*3 20.4 C 0 km/h
641 13-07-2010 08:17:45 20.5 C 12.1 g/m*3 20.5 C 0 km/h
642 13-07-2010 08:29:45 21 C 12.09 g/m*3 21 C 0 km/h
643 13-07-2010 08:41:45 21.5 C 11.88 g/m*3 21.5 C 0 km/h
644 13-07-2010 08:53:45 21.2 C 11.68 g/m*3 21.2 C 0 km/h
645 13-07-2010 09:05:46 21.4 C 12 g/m*3 21.4 C 0 km/h
646 13-07-2010 09:17:46 21.9 C 12.16 g/m*3 21.9 C 0 km/h
647 13-07-2010 09:29:46 22.7 C 11.72 g/m*3 22.7 C 0 km/h
648 13-07-2010 09:41:46 23.3 C 11.5 g/m*3 23.3 C 0 km/h
649 13-07-2010 09:53:46 23.9 C 11.47 g/m*3 23.9 C 0 km/h
650 13-07-2010 10:05:46 24.4 C 11.57 g/m*3 24.4 C 0 km/h
Sensor: Nr:Datum:Temp:Abs-Feuchte:Windchill:Wind:
Aussen-T/F 651 13-07-2010 10:17:46 24.8 C 11.15 g/m*3 24.8 C 0 km/h
652 13-07-2010 10:29:46 24.2 C 11 g/m*3 24.2 C 0 km/h
653 13-07-2010 10:41:46 24.5 C 10.97 g/m*3 24.5 C 0 km/h
654 13-07-2010 10:53:46 25.1 C 10.65 g/m*3 25.1 C 0 km/h
655 13-07-2010 11:05:46 25.4 C 10.59 g/m*3 25.4 C 0 km/h
656 13-07-2010 11:17:46 25.7 C 10.29 g/m*3 25.7 C 0 km/h
657 13-07-2010 11:29:46 25.4 C 10.12 g/m*3 25.4 C 0 km/h
658 13-07-2010 11:41:46 25.7 C 10.29 g/m*3 25.7 C 0 km/h
659 13-07-2010 11:53:46 28.3 C 9.95 g/m*3 28.3 C 0 km/h
660 13-07-2010 12:05:46 29.5 C 8.85 g/m*3 29.5 C 0 km/h
661 13-07-2010 12:17:46 30 C 9.1 g/m*3 30 C 0 km/h
662 13-07-2010 12:29:46 29.4 C 8.51 g/m*3 29.4 C 0 km/h
663 13-07-2010 12:41:46 28.8 C 8.52 g/m*3 28.8 C 0 km/h
664 13-07-2010 12:53:46 29.5 C 7.97 g/m*3 29.5 C 0 km/h
665 13-07-2010 13:05:46 29.1 C 7.8 g/m*3 29.1 C 0 km/h
666 13-07-2010 13:17:47 28.5 C 8.66 g/m*3 28.5 C 0 km/h
667 13-07-2010 13:29:47 28.9 C 8 g/m*3 28.9 C 0 km/h
668 13-07-2010 13:41:47 29.7 C 7.76 g/m*3 29.7 C 0 km/h
669 13-07-2010 13:53:47 30.4 C 7.75 g/m*3 30.4 C 0 km/h
670 13-07-2010 14:05:47 29.4 C 8.22 g/m*3 29.4 C 0 km/h
671 13-07-2010 14:17:47 28.7 C 8.76 g/m*3 28.7 C 0 km/h
672 13-07-2010 14:29:47 28.1 C 8.48 g/m*3 28.1 C 0 km/h
673 13-07-2010 14:41:47 29 C 8.62 g/m*3 29 C 0 km/h
674 13-07-2010 14:53:47 30 C 7.58 g/m*3 30 C 0 km/h
675 13-07-2010 15:05:47 30.4 C 7.75 g/m*3 30.4 C 0 km/h
Sensor: Nr:Datum:Temp:Abs-Feuchte:Windchill:Wind:
Aussen-T/F 676 13-07-2010 15:17:47 31.1 C 7.72 g/m*3 31.1 C 0 km/h
677 13-07-2010 15:29:47 30.6 C 6.89 g/m*3 30.6 C 0 km/h
678 13-07-2010 15:41:47 30.5 C 7.17 g/m*3 30.5 C 0 km/h
679 13-07-2010 15:53:47 31 C 7.04 g/m*3 31 C 0 km/h
680 13-07-2010 16:05:47 31.2 C 6.47 g/m*3 31.2 C 0 km/h
681 13-07-2010 16:17:47 31 C 6.72 g/m*3 31 C 0 km/h
682 13-07-2010 16:29:47 30.8 C 7.28 g/m*3 30.8 C 0 km/h
683 13-07-2010 16:41:47 30.8 C 7.28 g/m*3 30.8 C 0 km/h
684 13-07-2010 16:53:47 31.5 C 6.57 g/m*3 31.5 C 0 km/h
685 13-07-2010 17:05:47 31.8 C 6.68 g/m*3 31.8 C 0 km/h
686 13-07-2010 17:17:47 31.5 C 6.57 g/m*3 31.5 C 0 km/h
687 13-07-2010 17:29:48 31.8 C 6.68 g/m*3 31.8 C 0 km/h
688 13-07-2010 17:41:48 31.8 C 6.68 g/m*3 31.8 C 0 km/h
689 13-07-2010 17:53:48 31.8 C 6.68 g/m*3 31.8 C 0 km/h
690 13-07-2010 18:05:48 32.1 C 6.79 g/m*3 32.1 C 0 km/h
691 13-07-2010 18:17:48 31.8 C 6.68 g/m*3 31.8 C 0 km/h
692 13-07-2010 18:29:48 31.7 C 6.64 g/m*3 31.7 C 0 km/h
693 13-07-2010 18:41:48 32.1 C 6.79 g/m*3 32.1 C 0 km/h
694 13-07-2010 18:53:48 31.6 C 6.61 g/m*3 31.6 C 0 km/h
695 13-07-2010 19:05:48 31.4 C 6.54 g/m*3 31.4 C 0 km/h
696 13-07-2010 19:17:48 31.4 C 6.54 g/m*3 31.4 C 0 km/h
697 13-07-2010 19:29:48 31.4 C 6.54 g/m*3 31.4 C 0 km/h
698 13-07-2010 19:41:48 31.4 C 6.54 g/m*3 31.4 C 0 km/h
699 13-07-2010 19:53:48 31.2 C 6.47 g/m*3 31.2 C 0 km/h
700 13-07-2010 20:05:48 31.4 C 6.54 g/m*3 31.4 C 0 km/h
Sensor: Nr:Datum:Temp:Abs-Feuchte:Windchill:Wind:
Aussen-T/F 701 13-07-2010 20:17:48 31.4 C 6.54 g/m*3 31.4 C 0 km/h
702 13-07-2010 20:29:48 31.2 C 6.79 g/m*3 31.2 C 0 km/h
703 13-07-2010 20:41:48 31 C 6.72 g/m*3 31 C 0 km/h
704 13-07-2010 20:53:48 30.6 C 7.2 g/m*3 30.6 C 0 km/h
705 13-07-2010 21:05:48 29.8 C 7.8 g/m*3 29.8 C 0 km/h
706 13-07-2010 21:17:48 28.6 C 7.87 g/m*3 28.6 C 0 km/h
707 13-07-2010 21:29:48 27.6 C 7.98 g/m*3 27.6 C 0 km/h
708 13-07-2010 21:41:49 26.8 C 8.14 g/m*3 26.8 C 0 km/h
709 13-07-2010 21:53:49 26.4 C 8.21 g/m*3 26.4 C 0 km/h
710 13-07-2010 22:05:49 25.9 C 8.47 g/m*3 25.9 C 0 km/h
711 13-07-2010 22:17:49 25.5 C 8.52 g/m*3 25.5 C 0 km/h
712 13-07-2010 22:29:49 25.4 C 8.48 g/m*3 25.4 C 0 km/h
713 13-07-2010 22:41:49 25.4 C 8.71 g/m*3 25.4 C 0 km/h
714 13-07-2010 22:53:49 25.1 C 8.8 g/m*3 25.1 C 0 km/h
715 13-07-2010 23:05:49 24.7 C 9.05 g/m*3 24.7 C 0 km/h
716 13-07-2010 23:17:49 24.6 C 9 g/m*3 24.6 C 0 km/h
717 13-07-2010 23:29:49 24.4 C 9.12 g/m*3 24.4 C 0 km/h
718 13-07-2010 23:41:49 24.1 C 9.19 g/m*3 24.1 C 0 km/h
719 13-07-2010 23:53:49 24.3 C 9.29 g/m*3 24.3 C 0 km/h
720 14-07-2010 00:05:49 24.1 C 9.19 g/m*3 24.1 C 0 km/h
721 14-07-2010 00:17:49 23.8 C 9.68 g/m*3 23.8 C 0 km/h
722 14-07-2010 00:29:49 23.6 C 9.57 g/m*3 23.6 C 0 km/h
723 14-07-2010 00:41:49 23.4 C 9.67 g/m*3 23.4 C 0 km/h
724 14-07-2010 00:53:49 23.5 C 9.94 g/m*3 23.5 C 0 km/h
725 14-07-2010 01:05:49 23.6 C 10 g/m*3 23.6 C 0 km/h
Sensor: Nr:Datum:Temp:Abs-Feuchte:Windchill:Wind:
Aussen-T/F 726 14-07-2010 01:17:49 23.6 C 10 g/m*3 23.6 C 0 km/h
727 14-07-2010 01:29:49 23.1 C 9.92 g/m*3 23.1 C 0 km/h
728 14-07-2010 01:41:50 22.9 C 10.01 g/m*3 22.9 C 0 km/h
729 14-07-2010 01:53:50 22.6 C 10.04 g/m*3 22.6 C 0 km/h
730 14-07-2010 02:05:50 22.7 C 10.3 g/m*3 22.7 C 0 km/h
731 14-07-2010 02:17:50 22.7 C 10.1 g/m*3 22.7 C 0 km/h
732 14-07-2010 02:29:50 22.7 C 10.51 g/m*3 22.7 C 0 km/h
733 14-07-2010 02:41:50 22.5 C 10.39 g/m*3 22.5 C 0 km/h
734 14-07-2010 02:53:50 22.1 C 10.35 g/m*3 22.1 C 0 km/h
735 14-07-2010 03:05:50 22 C 10.29 g/m*3 22 C 0 km/h
736 14-07-2010 03:17:50 21.8 C 10.55 g/m*3 21.8 C 0 km/h
737 14-07-2010 03:29:50 21.5 C 10.75 g/m*3 21.5 C 0 km/h
738 14-07-2010 03:41:50 21.3 C 10.62 g/m*3 21.3 C 0 km/h
739 14-07-2010 03:53:50 21.3 C 10.81 g/m*3 21.3 C 0 km/h
740 14-07-2010 04:05:50 21.2 C 10.93 g/m*3 21.2 C 0 km/h
741 14-07-2010 04:17:50 20.8 C 11.05 g/m*3 20.8 C 0 km/h
742 14-07-2010 04:29:50 20.7 C 11.16 g/m*3 20.7 C 0 km/h
743 14-07-2010 04:41:50 20.5 C 11.03 g/m*3 20.5 C 0 km/h
744 14-07-2010 04:53:50 20.4 C 10.97 g/m*3 20.4 C 0 km/h
745 14-07-2010 05:05:50 20.2 C 11.02 g/m*3 20.2 C 0 km/h
746 14-07-2010 05:17:50 20.1 C 11.13 g/m*3 20.1 C 0 km/h
747 14-07-2010 05:29:50 20.1 C 11.13 g/m*3 20.1 C 0 km/h
748 14-07-2010 05:41:50 20.1 C 11.13 g/m*3 20.1 C 0 km/h
749 14-07-2010 05:53:51 20 C 11.23 g/m*3 20 C 0 km/h
750 14-07-2010 06:05:51 20 C 11.06 g/m*3 20 C 0 km/h
Sensor: Nr:Datum:Temp:Abs-Feuchte:Windchill:Wind:
Aussen-T/F 751 14-07-2010 06:17:51 20.3 C 11.43 g/m*3 20.3 C 0 km/h
752 14-07-2010 06:29:51 20.3 C 11.26 g/m*3 20.3 C 0 km/h
753 14-07-2010 06:41:51 20.5 C 11.39 g/m*3 20.5 C 0 km/h
754 14-07-2010 06:53:51 20.4 C 11.32 g/m*3 20.4 C 0 km/h
755 14-07-2010 07:05:51 20.3 C 11.43 g/m*3 20.3 C 0 km/h
756 14-07-2010 07:17:51 20.3 C 11.43 g/m*3 20.3 C 0 km/h
757 14-07-2010 07:29:51 20.4 C 11.68 g/m*3 20.4 C 0 km/h
758 14-07-2010 07:41:51 20.7 C 11.7 g/m*3 20.7 C 0 km/h
759 14-07-2010 07:53:51 21.2 C 11.68 g/m*3 21.2 C 0 km/h
760 14-07-2010 08:05:51 21.5 C 11.69 g/m*3 21.5 C 0 km/h
761 14-07-2010 08:17:51 21.5 C 11.69 g/m*3 21.5 C 0 km/h
762 14-07-2010 08:29:51 21.7 C 11.83 g/m*3 21.7 C 0 km/h
763 14-07-2010 08:41:51 22 C 11.65 g/m*3 22 C 0 km/h
764 14-07-2010 08:53:51 22.4 C 11.92 g/m*3 22.4 C 0 km/h
765 14-07-2010 09:05:51 22.9 C 12.06 g/m*3 22.9 C 0 km/h
766 14-07-2010 09:17:51 24 C 12.18 g/m*3 24 C 0 km/h
767 14-07-2010 09:29:51 25.2 C 11.64 g/m*3 25.2 C 0 km/h
768 14-07-2010 09:41:51 25.3 C 11.71 g/m*3 25.3 C 0 km/h
769 14-07-2010 09:53:52 25.9 C 11.86 g/m*3 25.9 C 0 km/h
770 14-07-2010 10:05:52 26.5 C 11.51 g/m*3 26.5 C 0 km/h
771 14-07-2010 10:17:52 27.1 C 10.61 g/m*3 27.1 C 0 km/h
772 14-07-2010 10:29:52 27.8 C 10.22 g/m*3 27.8 C 0 km/h
773 14-07-2010 10:41:52 28.7 C 10.17 g/m*3 28.7 C 0 km/h
774 14-07-2010 10:53:52 29.3 C 9.63 g/m*3 29.3 C 0 km/h
775 14-07-2010 11:05:52 30 C 9.4 g/m*3 30 C 0 km/h
Sensor: Nr:Datum:Temp:Abs-Feuchte:Windchill:Wind:
Aussen-T/F 776 14-07-2010 11:17:52 30.3 C 9.25 g/m*3 30.3 C 0 km/h
777 14-07-2010 11:29:52 30.4 C 9.3 g/m*3 30.4 C 0 km/h
778 14-07-2010 11:41:52 30.5 C 9.03 g/m*3 30.5 C 0 km/h
779 14-07-2010 11:53:52 30.8 C 9.18 g/m*3 30.8 C 0 km/h
780 14-07-2010 12:05:52 31.2 C 8.41 g/m*3 31.2 C 0 km/h
781 14-07-2010 12:17:52 31.5 C 8.22 g/m*3 31.5 C 0 km/h
782 14-07-2010 12:29:52 31.3 C 8.13 g/m*3 31.3 C 0 km/h
783 14-07-2010 12:41:52 31.5 C 7.89 g/m*3 31.5 C 0 km/h
784 14-07-2010 12:53:52 31.7 C 8.31 g/m*3 31.7 C 0 km/h
785 14-07-2010 13:05:52 31.7 C 7.64 g/m*3 31.7 C 0 km/h
786 14-07-2010 13:17:52 32.3 C 7.2 g/m*3 32.3 C 0 km/h
787 14-07-2010 13:29:52 33.5 C 7.31 g/m*3 33.5 C 0 km/h
788 14-07-2010 13:41:52 32.6 C 7.32 g/m*3 32.6 C 0 km/h
789 14-07-2010 13:53:52 32 C 7.43 g/m*3 32 C 0 km/h
790 14-07-2010 14:05:53 32.5 C 6.93 g/m*3 32.5 C 0 km/h
791 14-07-2010 14:17:53 33.3 C 7.23 g/m*3 33.3 C 0 km/h
792 14-07-2010 14:29:53 32.8 C 7.04 g/m*3 32.8 C 0 km/h
793 14-07-2010 14:41:53 32.8 C 7.04 g/m*3 32.8 C 0 km/h
794 14-07-2010 14:53:53 33.3 C 7.23 g/m*3 33.3 C 0 km/h
795 14-07-2010 15:05:53 33 C 7.12 g/m*3 33 C 0 km/h
796 14-07-2010 15:17:53 32.9 C 7.08 g/m*3 32.9 C 0 km/h
797 14-07-2010 15:29:53 33.1 C 7.16 g/m*3 33.1 C 0 km/h
798 14-07-2010 15:41:53 33.5 C 7.31 g/m*3 33.5 C 0 km/h
799 14-07-2010 15:53:53 33.8 C 7.43 g/m*3 33.8 C 0 km/h
800 14-07-2010 16:05:53 33.9 C 7.46 g/m*3 33.9 C 0 km/h
Sensor: Nr:Datum:Temp:Abs-Feuchte:Windchill:Wind:
Aussen-T/F 801 14-07-2010 16:17:53 34.1 C 7.54 g/m*3 34.1 C 0 km/h
802 14-07-2010 16:29:53 34.6 C 7.74 g/m*3 34.6 C 0 km/h
803 14-07-2010 16:41:53 34.6 C 7.74 g/m*3 34.6 C 0 km/h
804 14-07-2010 16:53:53 34.8 C 7.82 g/m*3 34.8 C 0 km/h
805 14-07-2010 17:05:53 34.8 C 7.82 g/m*3 34.8 C 0 km/h
806 14-07-2010 17:17:53 34.6 C 7.74 g/m*3 34.6 C 0 km/h
807 14-07-2010 17:29:53 34.6 C 7.74 g/m*3 34.6 C 0 km/h
808 14-07-2010 17:41:53 34.1 C 7.54 g/m*3 34.1 C 0 km/h
809 14-07-2010 17:53:53 34.4 C 7.66 g/m*3 34.4 C 0 km/h
810 14-07-2010 18:05:54 34.4 C 7.66 g/m*3 34.4 C 0 km/h
811 14-07-2010 18:17:54 34.8 C 7.82 g/m*3 34.8 C 0 km/h
812 14-07-2010 18:29:54 35 C 7.91 g/m*3 35 C 0 km/h
813 14-07-2010 18:41:54 34.8 C 7.82 g/m*3 34.8 C 0 km/h
814 14-07-2010 18:53:54 34.3 C 7.62 g/m*3 34.3 C 0 km/h
815 14-07-2010 19:05:54 33.5 C 7.31 g/m*3 33.5 C 0 km/h
816 14-07-2010 19:17:54 27.6 C 9.31 g/m*3 27.6 C 0 km/h
817 14-07-2010 19:29:54 24.1 C 14 g/m*3 24.1 C 0 km/h
818 14-07-2010 19:41:54 22.2 C 15.51 g/m*3 22.2 C 0 km/h
819 14-07-2010 19:53:54 21.8 C 16.12 g/m*3 21.8 C 0 km/h
820 14-07-2010 20:05:54 21.8 C 16.12 g/m*3 21.8 C 0 km/h
821 14-07-2010 20:17:54 22.5 C 17.18 g/m*3 22.5 C 0 km/h
822 14-07-2010 20:29:54 22.6 C 16.87 g/m*3 22.6 C 0 km/h
823 14-07-2010 20:41:54 22.5 C 16.38 g/m*3 22.5 C 0 km/h
824 14-07-2010 20:53:54 22.3 C 15.99 g/m*3 22.3 C 0 km/h
825 14-07-2010 21:05:54 22 C 15.53 g/m*3 22 C 0 km/h
Sensor: Nr:Datum:Temp:Abs-Feuchte:Windchill:Wind:
Aussen-T/F 826 14-07-2010 21:17:54 22 C 15.53 g/m*3 22 C 0 km/h
827 14-07-2010 21:29:54 21.8 C 15.35 g/m*3 21.8 C 0 km/h
828 14-07-2010 21:41:54 21.4 C 15.19 g/m*3 21.4 C 0 km/h
829 14-07-2010 21:53:54 21.5 C 15.46 g/m*3 21.5 C 0 km/h
830 14-07-2010 22:05:54 21.6 C 15.36 g/m*3 21.6 C 0 km/h
831 14-07-2010 22:17:55 21.6 C 14.98 g/m*3 21.6 C 0 km/h
832 14-07-2010 22:29:55 21.4 C 14.44 g/m*3 21.4 C 0 km/h
833 14-07-2010 22:41:55 21.5 C 14.33 g/m*3 21.5 C 0 km/h
834 14-07-2010 22:53:55 21.4 C 14.25 g/m*3 21.4 C 0 km/h
835 14-07-2010 23:05:55 21.5 C 14.14 g/m*3 21.5 C 0 km/h
836 14-07-2010 23:17:55 21.4 C 14.06 g/m*3 21.4 C 0 km/h
837 14-07-2010 23:29:55 21.4 C 14.06 g/m*3 21.4 C 0 km/h
838 14-07-2010 23:41:55 21.2 C 13.9 g/m*3 21.2 C 0 km/h
839 14-07-2010 23:53:55 20.9 C 13.84 g/m*3 20.9 C 0 km/h
840 15-07-2010 00:05:55 21 C 13.92 g/m*3 21 C 0 km/h
841 15-07-2010 00:17:55 21 C 13.56 g/m*3 21 C 0 km/h
842 15-07-2010 00:29:55 21.2 C 13.53 g/m*3 21.2 C 0 km/h
843 15-07-2010 00:41:55 21.1 C 13.45 g/m*3 21.1 C 0 km/h
844 15-07-2010 00:53:55 20.9 C 12.75 g/m*3 20.9 C 0 km/h
845 15-07-2010 01:05:55 20.6 C 12.35 g/m*3 20.6 C 0 km/h
846 15-07-2010 01:17:55 20.2 C 11.89 g/m*3 20.2 C 0 km/h
847 15-07-2010 01:29:55 20.1 C 11.65 g/m*3 20.1 C 0 km/h
848 15-07-2010 01:41:55 20 C 11.41 g/m*3 20 C 0 km/h
849 15-07-2010 01:53:55 19.9 C 11.51 g/m*3 19.9 C 0 km/h
850 15-07-2010 02:05:55 19.7 C 11.55 g/m*3 19.7 C 0 km/h
Sensor: Nr:Datum:Temp:Abs-Feuchte:Windchill:Wind:
Aussen-T/F 851 15-07-2010 02:17:55 19.7 C 11.55 g/m*3 19.7 C 0 km/h
852 15-07-2010 02:29:56 19.5 C 11.58 g/m*3 19.5 C 0 km/h
853 15-07-2010 02:41:56 19.5 C 11.75 g/m*3 19.5 C 0 km/h
854 15-07-2010 02:53:56 19.5 C 11.75 g/m*3 19.5 C 0 km/h
855 15-07-2010 03:05:56 19.4 C 11.35 g/m*3 19.4 C 0 km/h
856 15-07-2010 03:17:56 19.3 C 10.95 g/m*3 19.3 C 0 km/h
857 15-07-2010 03:29:56 19.3 C 10.95 g/m*3 19.3 C 0 km/h
858 15-07-2010 03:41:56 19.3 C 10.95 g/m*3 19.3 C 0 km/h
859 15-07-2010 03:53:56 19.3 C 11.11 g/m*3 19.3 C 0 km/h
860 15-07-2010 04:05:56 19.2 C 11.05 g/m*3 19.2 C 0 km/h
861 15-07-2010 04:17:56 19.1 C 10.98 g/m*3 19.1 C 0 km/h
862 15-07-2010 04:29:56 19 C 10.92 g/m*3 19 C 0 km/h
863 15-07-2010 04:41:56 18.8 C 11.11 g/m*3 18.8 C 0 km/h
864 15-07-2010 04:53:56 18.6 C 11.14 g/m*3 18.6 C 0 km/h
865 15-07-2010 05:05:56 18.6 C 11.14 g/m*3 18.6 C 0 km/h
866 15-07-2010 05:17:56 18.6 C 11.14 g/m*3 18.6 C 0 km/h
867 15-07-2010 05:29:56 18.7 C 11.21 g/m*3 18.7 C 0 km/h
868 15-07-2010 05:41:56 18.9 C 11.34 g/m*3 18.9 C 0 km/h
869 15-07-2010 05:53:56 19 C 11.08 g/m*3 19 C 0 km/h
870 15-07-2010 06:05:56 19 C 11.08 g/m*3 19 C 0 km/h
871 15-07-2010 06:17:56 19 C 10.76 g/m*3 19 C 0 km/h
872 15-07-2010 06:29:56 18.9 C 11.02 g/m*3 18.9 C 0 km/h
873 15-07-2010 06:41:56 18.8 C 11.11 g/m*3 18.8 C 0 km/h
874 15-07-2010 06:53:57 18.8 C 10.95 g/m*3 18.8 C 0 km/h
875 15-07-2010 07:05:57 19.4 C 11.01 g/m*3 19.4 C 0 km/h
Sensor: Nr:Datum:Temp:Abs-Feuchte:Windchill:Wind:
Aussen-T/F 876 15-07-2010 07:17:57 18.7 C 11.53 g/m*3 18.7 C 0 km/h
877 15-07-2010 07:29:57 18.4 C 12.11 g/m*3 18.4 C 0 km/h
878 15-07-2010 07:41:57 18.1 C 12.36 g/m*3 18.1 C 0 km/h
879 15-07-2010 07:53:57 17.9 C 12.37 g/m*3 17.9 C 0 km/h
880 15-07-2010 08:05:57 18.2 C 12.28 g/m*3 18.2 C 0 km/h
881 15-07-2010 08:17:57 18.4 C 12.11 g/m*3 18.4 C 0 km/h
882 15-07-2010 08:29:57 18.3 C 11.57 g/m*3 18.3 C 0 km/h
883 15-07-2010 08:41:57 18.5 C 11.23 g/m*3 18.5 C 0 km/h
884 15-07-2010 08:53:57 18.7 C 11.21 g/m*3 18.7 C 0 km/h
885 15-07-2010 09:05:57 19 C 10.27 g/m*3 19 C 0 km/h
886 15-07-2010 09:17:57 19.2 C 9.4 g/m*3 19.2 C 0 km/h
887 15-07-2010 09:29:57 19.5 C 8.89 g/m*3 19.5 C 0 km/h
888 15-07-2010 09:41:57 19.9 C 8.42 g/m*3 19.9 C 0 km/h
889 15-07-2010 09:53:57 20.3 C 8.27 g/m*3 20.3 C 0 km/h
890 15-07-2010 10:05:57 20.5 C 7.65 g/m*3 20.5 C 0 km/h
891 15-07-2010 10:17:57 20.9 C 7.83 g/m*3 20.9 C 0 km/h
892 15-07-2010 10:29:57 21.3 C 7.64 g/m*3 21.3 C 0 km/h
893 15-07-2010 10:41:57 21.6 C 7.59 g/m*3 21.6 C 0 km/h
894 15-07-2010 10:53:57 21.8 C 7.1 g/m*3 21.8 C 0 km/h
895 15-07-2010 11:05:57 21.9 C 6.95 g/m*3 21.9 C 0 km/h
896 15-07-2010 11:17:57 21.9 C 6.95 g/m*3 21.9 C 0 km/h
897 15-07-2010 11:29:58 22.5 C 6.99 g/m*3 22.5 C 0 km/h
898 15-07-2010 11:41:58 22.8 C 6.71 g/m*3 22.8 C 0 km/h
899 15-07-2010 11:53:58 22.5 C 6.19 g/m*3 22.5 C 0 km/h
900 15-07-2010 12:05:58 23.7 C 6.2 g/m*3 23.7 C 0 km/h
Sensor: Nr:Datum:Temp:Abs-Feuchte:Windchill:Wind:
Aussen-T/F 901 15-07-2010 12:17:58 24.4 C 5.56 g/m*3 24.4 C 0 km/h
902 15-07-2010 12:29:58 24.7 C 5.88 g/m*3 24.7 C 0 km/h
903 15-07-2010 12:41:58 24.7 C 5.88 g/m*3 24.7 C 0 km/h
904 15-07-2010 12:53:58 24.6 C 5.63 g/m*3 24.6 C 0 km/h
905 15-07-2010 13:05:58 25.2 C 5.12 g/m*3 25.2 C 0 km/h
906 15-07-2010 13:17:58 26.1 C 5.14 g/m*3 26.1 C 0 km/h
907 15-07-2010 13:29:58 26.4 C 5.23 g/m*3 26.4 C 0 km/h
908 15-07-2010 13:41:58 26.3 C 4.95 g/m*3 26.3 C 0 km/h
909 15-07-2010 13:53:58 26.7 C 5.06 g/m*3 26.7 C 0 km/h
910 15-07-2010 14:05:58 26.2 C 4.92 g/m*3 26.2 C 0 km/h
911 15-07-2010 14:17:58 25.6 C 4.76 g/m*3 25.6 C 0 km/h
912 15-07-2010 14:29:58 26.3 C 4.95 g/m*3 26.3 C 0 km/h
913 15-07-2010 14:41:58 26.6 C 5.03 g/m*3 26.6 C 0 km/h
914 15-07-2010 14:53:58 26.4 C 4.98 g/m*3 26.4 C 0 km/h
915 15-07-2010 15:05:58 26.4 C 4.98 g/m*3 26.4 C 0 km/h
916 15-07-2010 15:17:58 27.7 C 5.35 g/m*3 27.7 C 0 km/h
917 15-07-2010 15:29:58 26 C 4.87 g/m*3 26 C 0 km/h
918 15-07-2010 15:41:59 27.2 C 5.2 g/m*3 27.2 C 0 km/h
919 15-07-2010 15:53:59 27.2 C 5.2 g/m*3 27.2 C 0 km/h
920 15-07-2010 16:05:59 27.6 C 5.32 g/m*3 27.6 C 0 km/h
921 15-07-2010 16:17:59 27.5 C 5.29 g/m*3 27.5 C 0 km/h
922 15-07-2010 16:29:59 27.9 C 5.41 g/m*3 27.9 C 0 km/h
923 15-07-2010 16:41:59 27.9 C 5.41 g/m*3 27.9 C 0 km/h
924 15-07-2010 16:53:59 28.2 C 5.5 g/m*3 28.2 C 0 km/h
925 15-07-2010 17:05:59 28.6 C 5.62 g/m*3 28.6 C 0 km/h
Sensor: Nr:Datum:Temp:Abs-Feuchte:Windchill:Wind:
Aussen-T/F 926 15-07-2010 17:17:59 27.9 C 5.41 g/m*3 27.9 C 0 km/h
927 15-07-2010 17:29:59 28.3 C 5.53 g/m*3 28.3 C 0 km/h
928 15-07-2010 17:41:59 28.8 C 5.68 g/m*3 28.8 C 0 km/h
929 15-07-2010 17:53:59 28.7 C 5.65 g/m*3 28.7 C 0 km/h
930 15-07-2010 18:05:59 28.5 C 5.59 g/m*3 28.5 C 0 km/h
931 15-07-2010 18:17:59 29.1 C 5.78 g/m*3 29.1 C 0 km/h
932 15-07-2010 18:29:59 27.9 C 5.41 g/m*3 27.9 C 0 km/h
933 15-07-2010 18:41:59 26.5 C 5.01 g/m*3 26.5 C 0 km/h
934 15-07-2010 18:52:59 27.9 C 5.41 g/m*3 27.9 C 0 km/h
935 15-07-2010 19:04:59 27.7 C 5.35 g/m*3 27.7 C 0 km/h
936 15-07-2010 19:16:59 27.3 C 5.23 g/m*3 27.3 C 0 km/h
937 15-07-2010 19:28:59 28.1 C 5.47 g/m*3 28.1 C 0 km/h
938 15-07-2010 19:40:59 26.4 C 4.98 g/m*3 26.4 C 0 km/h
939 15-07-2010 19:53:00 26.8 C 5.09 g/m*3 26.8 C 0 km/h
940 15-07-2010 20:05:00 26.9 C 5.12 g/m*3 26.9 C 0 km/h
941 15-07-2010 20:17:00 26.8 C 5.09 g/m*3 26.8 C 0 km/h
942 15-07-2010 20:29:00 26.5 C 5.01 g/m*3 26.5 C 0 km/h
943 15-07-2010 20:41:00 26.4 C 5.23 g/m*3 26.4 C 0 km/h
944 15-07-2010 20:53:00 26.4 C 5.73 g/m*3 26.4 C 0 km/h
945 15-07-2010 21:05:00 25.4 C 5.89 g/m*3 25.4 C 0 km/h
946 15-07-2010 21:17:00 24.5 C 6.04 g/m*3 24.5 C 0 km/h
947 15-07-2010 21:29:00 23.5 C 5.92 g/m*3 23.5 C 0 km/h
948 15-07-2010 21:41:00 22.8 C 6.3 g/m*3 22.8 C 0 km/h
949 15-07-2010 21:53:00 22.5 C 6.19 g/m*3 22.5 C 0 km/h
950 15-07-2010 22:05:00 22 C 6.02 g/m*3 22 C 0 km/h
Sensor: Nr:Datum:Temp:Abs-Feuchte:Windchill:Wind:
Aussen-T/F 951 15-07-2010 22:17:00 21.8 C 6.33 g/m*3 21.8 C 0 km/h
952 15-07-2010 22:29:00 21.5 C 6.41 g/m*3 21.5 C 0 km/h
953 15-07-2010 22:41:00 21.1 C 6.45 g/m*3 21.1 C 0 km/h
954 15-07-2010 22:53:00 20.9 C 6.74 g/m*3 20.9 C 0 km/h
955 15-07-2010 23:05:00 20.5 C 6.58 g/m*3 20.5 C 0 km/h
956 15-07-2010 23:17:00 20.2 C 6.82 g/m*3 20.2 C 0 km/h
957 15-07-2010 23:29:00 19.9 C 6.87 g/m*3 19.9 C 0 km/h
958 15-07-2010 23:41:00 19.7 C 6.79 g/m*3 19.7 C 0 km/h
959 15-07-2010 23:53:00 19.3 C 6.8 g/m*3 19.3 C 0 km/h
960 16-07-2010 00:05:01 19.1 C 6.72 g/m*3 19.1 C 0 km/h
961 16-07-2010 00:17:01 18.8 C 6.93 g/m*3 18.8 C 0 km/h
962 16-07-2010 00:29:01 18.6 C 6.84 g/m*3 18.6 C 0 km/h
963 16-07-2010 00:41:01 18.3 C 7.04 g/m*3 18.3 C 0 km/h
964 16-07-2010 00:53:01 18.2 C 6.99 g/m*3 18.2 C 0 km/h
965 16-07-2010 01:05:01 18.1 C 7.11 g/m*3 18.1 C 0 km/h
966 16-07-2010 01:17:01 17.9 C 7.18 g/m*3 17.9 C 0 km/h
967 16-07-2010 01:29:01 17.7 C 7.24 g/m*3 17.7 C 0 km/h
968 16-07-2010 01:41:01 17.6 C 7.5 g/m*3 17.6 C 0 km/h
969 16-07-2010 01:53:01 17.5 C 7.45 g/m*3 17.5 C 0 km/h
970 16-07-2010 02:05:01 17.1 C 7.57 g/m*3 17.1 C 0 km/h
971 16-07-2010 02:17:01 16.9 C 7.77 g/m*3 16.9 C 0 km/h
972 16-07-2010 02:29:01 16.8 C 8.01 g/m*3 16.8 C 0 km/h
973 16-07-2010 02:41:01 16.5 C 8 g/m*3 16.5 C 0 km/h
974 16-07-2010 02:53:01 16.4 C 8.1 g/m*3 16.4 C 0 km/h
975 16-07-2010 03:05:01 16.3 C 8.05 g/m*3 16.3 C 0 km/h
Sensor: Nr:Datum:Temp:Abs-Feuchte:Windchill:Wind:
Aussen-T/F 976 16-07-2010 03:17:01 16.1 C 8.09 g/m*3 16.1 C 0 km/h
977 16-07-2010 03:29:01 16 C 8.17 g/m*3 16 C 0 km/h
978 16-07-2010 03:41:01 15.8 C 8.21 g/m*3 15.8 C 0 km/h
979 16-07-2010 03:53:01 15.6 C 7.98 g/m*3 15.6 C 0 km/h
980 16-07-2010 04:05:01 15.5 C 8.06 g/m*3 15.5 C 0 km/h
981 16-07-2010 04:17:01 15.4 C 8.15 g/m*3 15.4 C 0 km/h
982 16-07-2010 04:29:02 15.2 C 8.31 g/m*3 15.2 C 0 km/h
983 16-07-2010 04:41:02 15 C 8.08 g/m*3 15 C 0 km/h
984 16-07-2010 04:53:02 15 C 8.21 g/m*3 15 C 0 km/h
985 16-07-2010 05:05:02 14.8 C 8.36 g/m*3 14.8 C 0 km/h
986 16-07-2010 05:17:02 14.7 C 8.31 g/m*3 14.7 C 0 km/h
987 16-07-2010 05:29:02 14.6 C 8.13 g/m*3 14.6 C 0 km/h
988 16-07-2010 05:41:02 14.6 C 8.26 g/m*3 14.6 C 0 km/h
989 16-07-2010 05:53:02 14.5 C 8.46 g/m*3 14.5 C 0 km/h
990 16-07-2010 06:05:02 14.4 C 8.41 g/m*3 14.4 C 0 km/h
991 16-07-2010 06:17:02 14.3 C 8.48 g/m*3 14.3 C 0 km/h
992 16-07-2010 06:29:02 14.4 C 8.65 g/m*3 14.4 C 0 km/h
993 16-07-2010 06:41:02 14.5 C 8.71 g/m*3 14.5 C 0 km/h
994 16-07-2010 06:53:02 14.7 C 8.81 g/m*3 14.7 C 0 km/h
995 16-07-2010 07:05:02 14.8 C 8.87 g/m*3 14.8 C 0 km/h
996 16-07-2010 07:17:02 14.9 C 8.92 g/m*3 14.9 C 0 km/h
997 16-07-2010 07:29:02 15.2 C 8.83 g/m*3 15.2 C 0 km/h
998 16-07-2010 07:41:02 15.3 C 8.88 g/m*3 15.3 C 0 km/h
999 16-07-2010 07:53:02 15.6 C 8.91 g/m*3 15.6 C 0 km/h
1000 16-07-2010 08:05:02 15.9 C 8.94 g/m*3 15.9 C 0 km/h
Sensor: Nr:Datum:Temp:Abs-Feuchte:Windchill:Wind:
Aussen-T/F 1001 16-07-2010 08:17:02 16.2 C 8.83 g/m*3 16.2 C 0 km/h
1002 16-07-2010 08:29:02 16.6 C 9.04 g/m*3 16.6 C 0 km/h
1003 16-07-2010 08:41:03 17 C 8.97 g/m*3 17 C 0 km/h
1004 16-07-2010 08:53:03 17.4 C 9.19 g/m*3 17.4 C 0 km/h
1005 16-07-2010 09:05:03 18.1 C 9.27 g/m*3 18.1 C 0 km/h
1006 16-07-2010 09:17:03 19 C 9.45 g/m*3 19 C 0 km/h
1007 16-07-2010 09:29:03 19.6 C 9.45 g/m*3 19.6 C 0 km/h
1008 16-07-2010 09:41:03 20.4 C 9.2 g/m*3 20.4 C 0 km/h
1009 16-07-2010 09:53:03 21.3 C 9.32 g/m*3 21.3 C 0 km/h
1010 16-07-2010 10:05:03 22.1 C 9.17 g/m*3 22.1 C 0 km/h
1011 16-07-2010 10:17:03 23 C 9.25 g/m*3 23 C 0 km/h
1012 16-07-2010 10:29:03 23.8 C 9.25 g/m*3 23.8 C 0 km/h
1013 16-07-2010 10:41:03 24.2 C 8.14 g/m*3 24.2 C 0 km/h
1014 16-07-2010 10:53:03 24.9 C 7.55 g/m*3 24.9 C 0 km/h
1015 16-07-2010 11:05:03 25.6 C 7.14 g/m*3 25.6 C 0 km/h
1016 16-07-2010 11:17:03 26 C 5.11 g/m*3 26 C 0 km/h
1017 16-07-2010 11:29:03 26.3 C 5.69 g/m*3 26.3 C 0 km/h
1018 16-07-2010 11:41:03 26.5 C 5.51 g/m*3 26.5 C 0 km/h
1019 16-07-2010 11:53:03 26.9 C 5.63 g/m*3 26.9 C 0 km/h
1020 16-07-2010 12:05:03 27.3 C 5.49 g/m*3 27.3 C 0 km/h
1021 16-07-2010 12:17:03 27.9 C 5.41 g/m*3 27.9 C 0 km/h
1022 16-07-2010 12:29:03 28.6 C 5.62 g/m*3 28.6 C 0 km/h
1023 16-07-2010 12:41:03 29.2 C 5.81 g/m*3 29.2 C 0 km/h
1024 16-07-2010 12:53:04 29.7 C 5.97 g/m*3 29.7 C 0 km/h
1025 16-07-2010 13:05:04 30 C 6.06 g/m*3 30 C 0 km/h
Sensor: Nr:Datum:Temp:Abs-Feuchte:Windchill:Wind:
Aussen-T/F 1026 16-07-2010 13:17:04 30.6 C 6.26 g/m*3 30.6 C 0 km/h
1027 16-07-2010 13:29:04 30.5 C 6.23 g/m*3 30.5 C 0 km/h
1028 16-07-2010 13:41:04 31.4 C 6.54 g/m*3 31.4 C 0 km/h
1029 16-07-2010 13:53:04 30.9 C 6.37 g/m*3 30.9 C 0 km/h
1030 16-07-2010 14:05:04 31.1 C 6.43 g/m*3 31.1 C 0 km/h
1031 16-07-2010 14:17:04 30.7 C 6.3 g/m*3 30.7 C 0 km/h
1032 16-07-2010 14:29:04 31.1 C 6.43 g/m*3 31.1 C 0 km/h
1033 16-07-2010 14:41:04 31.2 C 6.47 g/m*3 31.2 C 0 km/h
1034 16-07-2010 14:53:04 31.2 C 6.47 g/m*3 31.2 C 0 km/h
1035 16-07-2010 15:05:04 31.5 C 6.57 g/m*3 31.5 C 0 km/h
1036 16-07-2010 15:17:04 31.5 C 6.57 g/m*3 31.5 C 0 km/h
1037 16-07-2010 15:29:04 31.9 C 6.72 g/m*3 31.9 C 0 km/h
1038 16-07-2010 15:41:04 32.1 C 6.79 g/m*3 32.1 C 0 km/h
1039 16-07-2010 15:53:04 32.3 C 6.86 g/m*3 32.3 C 0 km/h
1040 16-07-2010 16:05:04 32.4 C 6.9 g/m*3 32.4 C 0 km/h
1041 16-07-2010 16:17:04 32.3 C 6.86 g/m*3 32.3 C 0 km/h
1042 16-07-2010 16:29:04 32.6 C 6.97 g/m*3 32.6 C 0 km/h
1043 16-07-2010 16:41:04 32.4 C 6.9 g/m*3 32.4 C 0 km/h
1044 16-07-2010 16:53:05 32.5 C 6.93 g/m*3 32.5 C 0 km/h
1045 16-07-2010 17:05:05 32.5 C 6.93 g/m*3 32.5 C 0 km/h
1046 16-07-2010 17:17:05 32.5 C 6.93 g/m*3 32.5 C 0 km/h
1047 16-07-2010 17:29:05 32.5 C 6.93 g/m*3 32.5 C 0 km/h
1048 16-07-2010 17:41:05 32.8 C 7.04 g/m*3 32.8 C 0 km/h
1049 16-07-2010 17:53:05 32.5 C 6.93 g/m*3 32.5 C 0 km/h
1050 16-07-2010 18:05:05 32.8 C 7.04 g/m*3 32.8 C 0 km/h
Sensor: Nr:Datum:Temp:Abs-Feuchte:Windchill:Wind:
Aussen-T/F 1051 16-07-2010 18:17:05 32.7 C 7.01 g/m*3 32.7 C 0 km/h
1052 16-07-2010 18:29:05 32.7 C 7.01 g/m*3 32.7 C 0 km/h
1053 16-07-2010 18:41:05 32.7 C 7.01 g/m*3 32.7 C 0 km/h
1054 16-07-2010 18:53:05 32.7 C 7.01 g/m*3 32.7 C 0 km/h
1055 16-07-2010 19:05:05 32 C 6.75 g/m*3 32 C 0 km/h
1056 16-07-2010 19:17:05 31.7 C 6.64 g/m*3 31.7 C 0 km/h
1057 16-07-2010 19:29:05 31.3 C 6.5 g/m*3 31.3 C 0 km/h
1058 16-07-2010 19:41:05 30.8 C 6.33 g/m*3 30.8 C 0 km/h
1059 16-07-2010 19:53:05 30.4 C 6.51 g/m*3 30.4 C 0 km/h
1060 16-07-2010 20:05:05 30 C 6.67 g/m*3 30 C 0 km/h
1061 16-07-2010 20:17:05 29.6 C 7.42 g/m*3 29.6 C 0 km/h
1062 16-07-2010 20:29:05 29.1 C 7.22 g/m*3 29.1 C 0 km/h
1063 16-07-2010 20:41:05 29.2 C 7.26 g/m*3 29.2 C 0 km/h
1064 16-07-2010 20:53:05 29.1 C 7.51 g/m*3 29.1 C 0 km/h
1065 16-07-2010 21:05:06 28.9 C 7.43 g/m*3 28.9 C 0 km/h
1066 16-07-2010 21:17:06 28.8 C 7.39 g/m*3 28.8 C 0 km/h
1067 16-07-2010 21:29:06 28.4 C 7.51 g/m*3 28.4 C 0 km/h
1068 16-07-2010 21:41:06 28 C 7.34 g/m*3 28 C 0 km/h
1069 16-07-2010 21:53:06 27.4 C 7.63 g/m*3 27.4 C 0 km/h
1070 16-07-2010 22:05:06 27.2 C 7.81 g/m*3 27.2 C 0 km/h
1071 16-07-2010 22:17:06 26.8 C 7.64 g/m*3 26.8 C 0 km/h
1072 16-07-2010 22:29:01 26.3 C 7.43 g/m*3 26.3 C 0 km/h
1073 16-07-2010 22:41:01 25.8 C 7.7 g/m*3 25.8 C 0 km/h
1074 16-07-2010 22:53:01 25.8 C 7.94 g/m*3 25.8 C 0 km/h
1075 16-07-2010 23:05:01 25.9 C 8.23 g/m*3 25.9 C 0 km/h
Sensor: Nr:Datum:Temp:Abs-Feuchte:Windchill:Wind:
Aussen-T/F 1076 16-07-2010 23:17:02 25.8 C 8.43 g/m*3 25.8 C 0 km/h
1077 16-07-2010 23:29:02 25.6 C 8.33 g/m*3 25.6 C 0 km/h
1078 16-07-2010 23:41:01 25.5 C 8.52 g/m*3 25.5 C 0 km/h
1079 16-07-2010 23:53:03 25 C 8.75 g/m*3 25 C 0 km/h
1080 17-07-2010 00:06:04 24.5 C 8.28 g/m*3 24.5 C 0 km/h
1081 17-07-2010 00:18:04 23.8 C 8.6 g/m*3 23.8 C 0 km/h
1082 17-07-2010 00:30:04 23.5 C 8.88 g/m*3 23.5 C 0 km/h
1083 17-07-2010 00:42:04 22.5 C 10.19 g/m*3 22.5 C 0 km/h
1084 17-07-2010 00:54:04 22.2 C 9.42 g/m*3 22.2 C 0 km/h
1085 17-07-2010 01:06:04 22.3 C 9.87 g/m*3 22.3 C 0 km/h
1086 17-07-2010 01:18:04 21.4 C 11.25 g/m*3 21.4 C 0 km/h
1087 17-07-2010 01:30:04 19.9 C 11.68 g/m*3 19.9 C 0 km/h
1088 17-07-2010 01:42:04 19.8 C 11.44 g/m*3 19.8 C 0 km/h
1089 17-07-2010 01:54:04 20.1 C 11.47 g/m*3 20.1 C 0 km/h
1090 17-07-2010 02:06:04 20.3 C 11.43 g/m*3 20.3 C 0 km/h
1091 17-07-2010 02:18:04 20.3 C 11.08 g/m*3 20.3 C 0 km/h
1092 17-07-2010 02:30:04 20.1 C 10.95 g/m*3 20.1 C 0 km/h
1093 17-07-2010 02:42:04 20.1 C 10.95 g/m*3 20.1 C 0 km/h
1094 17-07-2010 02:54:04 20.1 C 11.13 g/m*3 20.1 C 0 km/h
1095 17-07-2010 03:06:04 20.1 C 11.3 g/m*3 20.1 C 0 km/h
1096 17-07-2010 03:18:04 19.8 C 11.96 g/m*3 19.8 C 0 km/h
1097 17-07-2010 03:30:04 19.7 C 11.89 g/m*3 19.7 C 0 km/h
1098 17-07-2010 03:42:04 20 C 11.92 g/m*3 20 C 0 km/h
1099 17-07-2010 03:54:04 19.8 C 12.3 g/m*3 19.8 C 0 km/h
1100 17-07-2010 04:06:05 19.7 C 11.89 g/m*3 19.7 C 0 km/h
Sensor: Nr:Datum:Temp:Abs-Feuchte:Windchill:Wind:
Aussen-T/F 1101 17-07-2010 04:18:05 19.9 C 11.85 g/m*3 19.9 C 0 km/h
1102 17-07-2010 04:30:05 19.2 C 12.37 g/m*3 19.2 C 0 km/h
1103 17-07-2010 04:42:05 18.7 C 13.13 g/m*3 18.7 C 0 km/h
1104 17-07-2010 04:54:05 18.3 C 13.13 g/m*3 18.3 C 0 km/h
1105 17-07-2010 05:06:05 18.4 C 13.37 g/m*3 18.4 C 0 km/h
1106 17-07-2010 05:18:05 18.3 C 13.45 g/m*3 18.3 C 0 km/h
1107 17-07-2010 05:30:05 18.1 C 13.29 g/m*3 18.1 C 0 km/h
1108 17-07-2010 05:42:05 17.9 C 13.44 g/m*3 17.9 C 0 km/h
1109 17-07-2010 05:54:05 17.7 C 13.28 g/m*3 17.7 C 0 km/h
1110 17-07-2010 06:06:05 17.6 C 13.2 g/m*3 17.6 C 0 km/h
1111 17-07-2010 06:18:05 17.5 C 13.12 g/m*3 17.5 C 0 km/h
1112 17-07-2010 06:30:05 17.7 C 13.43 g/m*3 17.7 C 0 km/h
1113 17-07-2010 06:42:05 17.8 C 13.51 g/m*3 17.8 C 0 km/h
1114 17-07-2010 06:54:05 17.8 C 13.66 g/m*3 17.8 C 0 km/h
1115 17-07-2010 07:06:05 17.8 C 13.66 g/m*3 17.8 C 0 km/h
1116 17-07-2010 07:18:05 17.8 C 13.66 g/m*3 17.8 C 0 km/h
1117 17-07-2010 07:30:05 17.9 C 13.59 g/m*3 17.9 C 0 km/h
1118 17-07-2010 07:42:05 18 C 13.36 g/m*3 18 C 0 km/h
1119 17-07-2010 07:54:05 17.9 C 13.44 g/m*3 17.9 C 0 km/h
1120 17-07-2010 08:06:04 17.8 C 13.36 g/m*3 17.8 C 0 km/h
1121 17-07-2010 08:18:04 17.7 C 13.43 g/m*3 17.7 C 0 km/h
1122 17-07-2010 08:30:04 17.5 C 13.27 g/m*3 17.5 C 0 km/h
1123 17-07-2010 08:42:03 17.5 C 13.27 g/m*3 17.5 C 0 km/h
1124 17-07-2010 08:54:01 17.7 C 13.58 g/m*3 17.7 C 0 km/h
1125 17-07-2010 09:06:02 17.8 C 13.66 g/m*3 17.8 C 0 km/h
Sensor: Nr:Datum:Temp:Abs-Feuchte:Windchill:Wind:
Aussen-T/F 1126 17-07-2010 09:18:03 18.1 C 13.75 g/m*3 18.1 C 0 km/h
1127 17-07-2010 09:30:03 18.8 C 13.85 g/m*3 18.8 C 0 km/h
1128 17-07-2010 09:42:02 18.9 C 13.28 g/m*3 18.9 C 0 km/h
1129 17-07-2010 09:54:02 19.1 C 12.95 g/m*3 19.1 C 0 km/h
1130 17-07-2010 10:06:01 19 C 12.71 g/m*3 19 C 0 km/h
1131 17-07-2010 10:18:02 19.2 C 12.53 g/m*3 19.2 C 0 km/h
1132 17-07-2010 10:30:03 19.7 C 12.74 g/m*3 19.7 C 0 km/h
1133 17-07-2010 10:42:01 20 C 12.44 g/m*3 20 C 0 km/h
1134 17-07-2010 10:54:02 20.1 C 12.34 g/m*3 20.1 C 0 km/h
1135 17-07-2010 11:06:01 21 C 12.46 g/m*3 21 C 0 km/h
1136 17-07-2010 11:18:02 21.2 C 11.86 g/m*3 21.2 C 0 km/h
1137 17-07-2010 11:30:02 21.8 C 11.13 g/m*3 21.8 C 0 km/h
1138 17-07-2010 11:42:02 23.3 C 11.08 g/m*3 23.3 C 0 km/h
1139 17-07-2010 11:54:02 23.7 C 10.69 g/m*3 23.7 C 0 km/h
1140 17-07-2010 12:06:01 23.7 C 10.27 g/m*3 23.7 C 0 km/h
1141 17-07-2010 12:18:02 23.7 C 9.84 g/m*3 23.7 C 0 km/h
1142 17-07-2010 12:30:02 24.6 C 8.55 g/m*3 24.6 C 0 km/h
1143 17-07-2010 12:42:02 25.3 C 8.66 g/m*3 25.3 C 0 km/h
1144 17-07-2010 12:54:01 26 C 7.79 g/m*3 26 C 0 km/h
1145 17-07-2010 13:06:02 26.5 C 8.01 g/m*3 26.5 C 0 km/h
1146 17-07-2010 13:18:01 25 C 7.37 g/m*3 25 C 0 km/h
1147 17-07-2010 13:30:01 26.3 C 7.67 g/m*3 26.3 C 0 km/h
1148 17-07-2010 13:42:02 25.7 C 7.66 g/m*3 25.7 C 0 km/h
1149 17-07-2010 13:54:02 26.6 C 7.05 g/m*3 26.6 C 0 km/h
1150 17-07-2010 14:06:02 26 C 7.55 g/m*3 26 C 0 km/h
Sensor: Nr:Datum:Temp:Abs-Feuchte:Windchill:Wind:
Aussen-T/F 1151 17-07-2010 14:18:02 25.9 C 7.51 g/m*3 25.9 C 0 km/h
1152 17-07-2010 14:30:02 26.3 C 7.43 g/m*3 26.3 C 0 km/h
1153 17-07-2010 14:42:02 26 C 6.82 g/m*3 26 C 0 km/h
1154 17-07-2010 14:54:01 26.5 C 7.01 g/m*3 26.5 C 0 km/h
1155 17-07-2010 15:06:02 27 C 6.69 g/m*3 27 C 0 km/h
1156 17-07-2010 15:18:01 27.5 C 6.35 g/m*3 27.5 C 0 km/h
1157 17-07-2010 15:30:01 27.3 C 6.54 g/m*3 27.3 C 0 km/h
1158 17-07-2010 15:42:02 27.5 C 6.61 g/m*3 27.5 C 0 km/h
1159 17-07-2010 15:54:01 26.6 C 6.29 g/m*3 26.6 C 0 km/h
1160 17-07-2010 16:06:02 27.3 C 6.54 g/m*3 27.3 C 0 km/h
1161 17-07-2010 16:18:02 26.4 C 6.22 g/m*3 26.4 C 0 km/h
1162 17-07-2010 16:30:02 26 C 5.84 g/m*3 26 C 0 km/h
1163 17-07-2010 16:42:02 26.9 C 5.89 g/m*3 26.9 C 0 km/h
1164 17-07-2010 16:54:02 27 C 5.92 g/m*3 27 C 0 km/h
1165 17-07-2010 17:06:02 26.6 C 6.29 g/m*3 26.6 C 0 km/h
1166 17-07-2010 17:18:03 25.7 C 7.42 g/m*3 25.7 C 0 km/h
1167 17-07-2010 17:30:03 26 C 7.79 g/m*3 26 C 0 km/h
1168 17-07-2010 17:42:02 26.1 C 7.59 g/m*3 26.1 C 0 km/h
1169 17-07-2010 17:54:02 24.6 C 7.88 g/m*3 24.6 C 0 km/h
1170 17-07-2010 18:06:01 24.2 C 7.7 g/m*3 24.2 C 0 km/h
1171 17-07-2010 18:18:02 23.7 C 7.7 g/m*3 23.7 C 0 km/h
1172 17-07-2010 18:30:02 24 C 7.61 g/m*3 24 C 0 km/h
1173 17-07-2010 18:42:01 24.1 C 7.44 g/m*3 24.1 C 0 km/h
1174 17-07-2010 18:54:02 24 C 7.4 g/m*3 24 C 0 km/h
1175 17-07-2010 19:06:02 24.6 C 7.43 g/m*3 24.6 C 0 km/h
Sensor: Nr:Datum:Temp:Abs-Feuchte:Windchill:Wind:
Aussen-T/F 1176 17-07-2010 19:18:02 24.6 C 7.2 g/m*3 24.6 C 0 km/h
1177 17-07-2010 19:30:03 24.2 C 7.26 g/m*3 24.2 C 0 km/h
1178 17-07-2010 19:42:02 23.8 C 7.1 g/m*3 23.8 C 0 km/h
1179 17-07-2010 19:54:02 23.6 C 6.59 g/m*3 23.6 C 0 km/h
1180 17-07-2010 20:06:02 23.7 C 6.84 g/m*3 23.7 C 0 km/h
1181 17-07-2010 20:18:02 24.7 C 6.11 g/m*3 24.7 C 0 km/h
1182 17-07-2010 20:30:02 25.4 C 5.41 g/m*3 25.4 C 0 km/h
1183 17-07-2010 20:42:03 24.7 C 5.21 g/m*3 24.7 C 0 km/h
1184 17-07-2010 20:54:02 23.8 C 5.38 g/m*3 23.8 C 0 km/h
1185 17-07-2010 21:06:01 22.9 C 5.72 g/m*3 22.9 C 0 km/h
1186 17-07-2010 21:18:02 22.4 C 5.96 g/m*3 22.4 C 0 km/h
1187 17-07-2010 21:30:02 22.1 C 6.44 g/m*3 22.1 C 0 km/h
1188 17-07-2010 21:42:02 22 C 6.21 g/m*3 22 C 0 km/h
1189 17-07-2010 21:54:01 21.9 C 6.37 g/m*3 21.9 C 0 km/h
1190 17-07-2010 22:06:02 21.6 C 6.26 g/m*3 21.6 C 0 km/h
1191 17-07-2010 22:18:01 21.7 C 6.49 g/m*3 21.7 C 0 km/h
1192 17-07-2010 22:30:01 21.6 C 6.26 g/m*3 21.6 C 0 km/h
1193 17-07-2010 22:42:02 21.3 C 6.15 g/m*3 21.3 C 0 km/h
1194 17-07-2010 22:54:02 21 C 6.23 g/m*3 21 C 0 km/h
1195 17-07-2010 23:06:02 20.4 C 6.19 g/m*3 20.4 C 0 km/h
1196 17-07-2010 23:18:02 20.3 C 6.16 g/m*3 20.3 C 0 km/h
1197 17-07-2010 23:30:02 20.2 C 6.12 g/m*3 20.2 C 0 km/h
1198 17-07-2010 23:42:02 19.9 C 6.01 g/m*3 19.9 C 0 km/h
1199 17-07-2010 23:54:01 19.8 C 6.15 g/m*3 19.8 C 0 km/h
1200 18-07-2010 00:06:02 19.3 C 5.97 g/m*3 19.3 C 0 km/h
Sensor: Nr:Datum:Temp:Abs-Feuchte:Windchill:Wind:
Aussen-T/F 1201 18-07-2010 00:18:02 19 C 5.87 g/m*3 19 C 0 km/h
1202 18-07-2010 00:30:02 18.6 C 6.21 g/m*3 18.6 C 0 km/h
1203 18-07-2010 00:42:01 18.3 C 6.1 g/m*3 18.3 C 0 km/h
1204 18-07-2010 00:54:02 18 C 6.14 g/m*3 18 C 0 km/h
1205 18-07-2010 01:06:01 17.7 C 6.19 g/m*3 17.7 C 0 km/h
1206 18-07-2010 01:18:02 17.4 C 6.22 g/m*3 17.4 C 0 km/h
1207 18-07-2010 01:30:02 17.2 C 6.3 g/m*3 17.2 C 0 km/h
1208 18-07-2010 01:42:01 16.8 C 6.43 g/m*3 16.8 C 0 km/h
1209 18-07-2010 01:54:03 16.7 C 6.54 g/m*3 16.7 C 0 km/h
1210 18-07-2010 02:06:02 16.5 C 6.6 g/m*3 16.5 C 0 km/h
1211 18-07-2010 02:18:02 16.3 C 6.38 g/m*3 16.3 C 0 km/h
1212 18-07-2010 02:30:02 16 C 6.95 g/m*3 16 C 0 km/h
1213 18-07-2010 02:42:02 15.6 C 7.18 g/m*3 15.6 C 0 km/h
1214 18-07-2010 02:55:04 15.4 C 7.23 g/m*3 15.4 C 0 km/h
1215 18-07-2010 03:07:04 15.2 C 7.14 g/m*3 15.2 C 0 km/h
1216 18-07-2010 03:19:04 15 C 6.92 g/m*3 15 C 0 km/h
1217 18-07-2010 03:31:02 14.8 C 7.22 g/m*3 14.8 C 0 km/h
1218 18-07-2010 03:43:02 14.6 C 7.26 g/m*3 14.6 C 0 km/h
1219 18-07-2010 03:55:02 14.4 C 7.17 g/m*3 14.4 C 0 km/h
1220 18-07-2010 04:07:02 14.1 C 7.28 g/m*3 14.1 C 0 km/h
1221 18-07-2010 04:19:01 14.1 C 7.52 g/m*3 14.1 C 0 km/h
1222 18-07-2010 04:31:02 14 C 7.48 g/m*3 14 C 0 km/h
1223 18-07-2010 04:43:02 13.7 C 7.46 g/m*3 13.7 C 0 km/h
1224 18-07-2010 04:55:02 13.6 C 7.65 g/m*3 13.6 C 0 km/h
1225 18-07-2010 05:07:02 13.4 C 7.9 g/m*3 13.4 C 0 km/h
Sensor: Nr:Datum:Temp:Abs-Feuchte:Windchill:Wind:
Aussen-T/F 1226 18-07-2010 05:19:01 13.1 C 7.76 g/m*3 13.1 C 0 km/h
1227 18-07-2010 05:31:02 13 C 7.71 g/m*3 13 C 0 km/h
1228 18-07-2010 05:43:02 12.8 C 7.84 g/m*3 12.8 C 0 km/h
1229 18-07-2010 05:55:02 12.7 C 7.9 g/m*3 12.7 C 0 km/h
1230 18-07-2010 06:07:02 12.6 C 8.08 g/m*3 12.6 C 0 km/h
1231 18-07-2010 06:19:02 12.5 C 8.03 g/m*3 12.5 C 0 km/h
1232 18-07-2010 06:31:02 12.5 C 8.03 g/m*3 12.5 C 0 km/h
1233 18-07-2010 06:43:02 12.6 C 8.19 g/m*3 12.6 C 0 km/h
1234 18-07-2010 06:55:02 12.6 C 8.19 g/m*3 12.6 C 0 km/h
1235 18-07-2010 07:07:02 12.7 C 8.13 g/m*3 12.7 C 0 km/h
1236 18-07-2010 07:19:02 12.8 C 8.06 g/m*3 12.8 C 0 km/h
1237 18-07-2010 07:31:01 12.9 C 8 g/m*3 12.9 C 0 km/h
1238 18-07-2010 07:43:01 13.1 C 7.99 g/m*3 13.1 C 0 km/h
1239 18-07-2010 07:55:02 13.3 C 8.09 g/m*3 13.3 C 0 km/h
1240 18-07-2010 08:07:01 13.8 C 8.22 g/m*3 13.8 C 0 km/h
1241 18-07-2010 08:19:01 14.1 C 8.01 g/m*3 14.1 C 0 km/h
1242 18-07-2010 08:31:01 14.4 C 8.16 g/m*3 14.4 C 0 km/h
1243 18-07-2010 08:43:01 15 C 7.44 g/m*3 15 C 0 km/h
1244 18-07-2010 08:55:02 15.4 C 7.62 g/m*3 15.4 C 0 km/h
1245 18-07-2010 09:07:01 15.9 C 7.58 g/m*3 15.9 C 0 km/h
1246 18-07-2010 09:19:02 16.5 C 7.58 g/m*3 16.5 C 0 km/h
1247 18-07-2010 09:31:02 17.1 C 7.57 g/m*3 17.1 C 0 km/h
1248 18-07-2010 09:43:02 17.8 C 7.89 g/m*3 17.8 C 0 km/h
1249 18-07-2010 09:55:02 18.5 C 7.75 g/m*3 18.5 C 0 km/h
1250 18-07-2010 10:07:02 19 C 7.5 g/m*3 19 C 0 km/h
Sensor: Nr:Datum:Temp:Abs-Feuchte:Windchill:Wind:
Aussen-T/F 1251 18-07-2010 10:19:02 19.7 C 7.47 g/m*3 19.7 C 0 km/h
1252 18-07-2010 10:31:02 20.1 C 7.3 g/m*3 20.1 C 0 km/h
1253 18-07-2010 10:43:02 20.8 C 7.24 g/m*3 20.8 C 0 km/h
1254 18-07-2010 10:55:02 21.3 C 5.78 g/m*3 21.3 C 0 km/h
1255 18-07-2010 11:07:01 20.8 C 5.61 g/m*3 20.8 C 0 km/h
1256 18-07-2010 11:19:02 21.6 C 5.69 g/m*3 21.6 C 0 km/h
1257 18-07-2010 11:31:02 21.7 C 5.72 g/m*3 21.7 C 0 km/h
1258 18-07-2010 11:43:02 22.7 C 6.06 g/m*3 22.7 C 0 km/h
1259 18-07-2010 11:55:02 23.8 C 5.59 g/m*3 23.8 C 0 km/h
1260 18-07-2010 12:07:01 24.3 C 5.53 g/m*3 24.3 C 0 km/h
1261 18-07-2010 12:19:02 25.3 C 4.68 g/m*3 25.3 C 0 km/h
1262 18-07-2010 12:31:02 25.3 C 4.68 g/m*3 25.3 C 0 km/h
1263 18-07-2010 12:43:02 26.1 C 4.9 g/m*3 26.1 C 0 km/h
1264 18-07-2010 12:55:02 24.8 C 4.55 g/m*3 24.8 C 0 km/h
1265 18-07-2010 13:07:03 25.8 C 4.82 g/m*3 25.8 C 0 km/h
1266 18-07-2010 13:19:02 27.6 C 5.32 g/m*3 27.6 C 0 km/h
1267 18-07-2010 13:31:02 28.3 C 5.53 g/m*3 28.3 C 0 km/h
1268 18-07-2010 13:43:03 28 C 5.44 g/m*3 28 C 0 km/h
1269 18-07-2010 13:55:01 28.4 C 5.56 g/m*3 28.4 C 0 km/h
1270 18-07-2010 14:07:02 27.7 C 5.35 g/m*3 27.7 C 0 km/h
1271 18-07-2010 14:19:01 27.1 C 5.18 g/m*3 27.1 C 0 km/h
1272 18-07-2010 14:31:01 27.9 C 5.41 g/m*3 27.9 C 0 km/h
1273 18-07-2010 14:43:01 26.7 C 5.06 g/m*3 26.7 C 0 km/h
1274 18-07-2010 14:55:01 27.3 C 5.23 g/m*3 27.3 C 0 km/h
1275 18-07-2010 15:07:02 28.1 C 5.47 g/m*3 28.1 C 0 km/h
Sensor: Nr:Datum:Temp:Abs-Feuchte:Windchill:Wind:
Aussen-T/F 1276 18-07-2010 15:19:01 29.4 C 5.87 g/m*3 29.4 C 0 km/h
1277 18-07-2010 15:31:01 30 C 6.06 g/m*3 30 C 0 km/h
1278 18-07-2010 15:43:01 30.1 C 6.1 g/m*3 30.1 C 0 km/h
1279 18-07-2010 15:55:01 30.3 C 6.16 g/m*3 30.3 C 0 km/h
1280 18-07-2010 16:07:01 30.6 C 6.26 g/m*3 30.6 C 0 km/h
1281 18-07-2010 16:19:02 30.7 C 6.3 g/m*3 30.7 C 0 km/h
1282 18-07-2010 16:31:01 31 C 6.4 g/m*3 31 C 0 km/h
1283 18-07-2010 16:43:01 30.8 C 6.33 g/m*3 30.8 C 0 km/h
1284 18-07-2010 16:55:01 30.7 C 6.3 g/m*3 30.7 C 0 km/h
1285 18-07-2010 17:07:01 30.9 C 6.37 g/m*3 30.9 C 0 km/h
1286 18-07-2010 17:19:02 30.4 C 6.2 g/m*3 30.4 C 0 km/h
1287 18-07-2010 17:31:01 31.4 C 6.54 g/m*3 31.4 C 0 km/h
1288 18-07-2010 17:43:01 31.8 C 6.68 g/m*3 31.8 C 0 km/h
1289 18-07-2010 17:55:02 31.8 C 6.68 g/m*3 31.8 C 0 km/h
1290 18-07-2010 18:07:02 31.3 C 6.5 g/m*3 31.3 C 0 km/h
1291 18-07-2010 18:19:02 31.3 C 6.5 g/m*3 31.3 C 0 km/h
1292 18-07-2010 18:31:02 31.1 C 6.43 g/m*3 31.1 C 0 km/h
1293 18-07-2010 18:43:02 31.1 C 6.43 g/m*3 31.1 C 0 km/h
1294 18-07-2010 18:55:02 31.5 C 6.57 g/m*3 31.5 C 0 km/h
1295 18-07-2010 19:07:01 31.2 C 6.47 g/m*3 31.2 C 0 km/h
1296 18-07-2010 19:19:02 30.7 C 6.3 g/m*3 30.7 C 0 km/h
1297 18-07-2010 19:31:02 30 C 6.06 g/m*3 30 C 0 km/h
1298 18-07-2010 19:43:02 30.1 C 6.1 g/m*3 30.1 C 0 km/h
1299 18-07-2010 19:55:01 30.4 C 6.2 g/m*3 30.4 C 0 km/h
1300 18-07-2010 20:07:01 30.2 C 6.13 g/m*3 30.2 C 0 km/h
Sensor: Nr:Datum:Temp:Abs-Feuchte:Windchill:Wind:
Aussen-T/F 1301 18-07-2010 20:19:01 29.8 C 6 g/m*3 29.8 C 0 km/h
1302 18-07-2010 20:31:02 29.1 C 5.78 g/m*3 29.1 C 0 km/h
1303 18-07-2010 20:43:02 28.8 C 5.68 g/m*3 28.8 C 0 km/h
1304 18-07-2010 20:55:02 27.6 C 5.32 g/m*3 27.6 C 0 km/h
1305 18-07-2010 21:07:02 25.9 C 5.08 g/m*3 25.9 C 0 km/h
1306 18-07-2010 21:19:02 24.8 C 5.24 g/m*3 24.8 C 0 km/h
1307 18-07-2010 21:31:02 23.9 C 5.41 g/m*3 23.9 C 0 km/h
1308 18-07-2010 21:43:02 23.3 C 5.44 g/m*3 23.3 C 0 km/h
1309 18-07-2010 21:55:02 22.7 C 5.66 g/m*3 22.7 C 0 km/h
1310 18-07-2010 22:08:02 22.2 C 5.89 g/m*3 22.2 C 0 km/h
1311 18-07-2010 22:20:02 21.9 C 5.79 g/m*3 21.9 C 0 km/h
1312 18-07-2010 22:32:02 21.8 C 5.95 g/m*3 21.8 C 0 km/h
1313 18-07-2010 22:44:02 21.5 C 5.85 g/m*3 21.5 C 0 km/h
1314 18-07-2010 22:56:02 21.2 C 6.12 g/m*3 21.2 C 0 km/h
1315 18-07-2010 23:08:02 21 C 6.05 g/m*3 21 C 0 km/h
1316 18-07-2010 23:20:02 20.6 C 6.26 g/m*3 20.6 C 0 km/h
1317 18-07-2010 23:32:02 20.3 C 6.16 g/m*3 20.3 C 0 km/h
1318 18-07-2010 23:44:02 20.1 C 6.43 g/m*3 20.1 C 0 km/h
1319 18-07-2010 23:56:02 19.7 C 6.45 g/m*3 19.7 C 0 km/h
1320 19-07-2010 00:08:02 19.5 C 6.38 g/m*3 19.5 C 0 km/h
1321 19-07-2010 00:20:02 19.2 C 6.27 g/m*3 19.2 C 0 km/h
1322 19-07-2010 00:32:02 18.8 C 6.28 g/m*3 18.8 C 0 km/h
1323 19-07-2010 00:44:03 18.6 C 6.37 g/m*3 18.6 C 0 km/h
1324 19-07-2010 00:56:03 18.5 C 6.49 g/m*3 18.5 C 0 km/h
1325 19-07-2010 01:08:03 18.2 C 6.53 g/m*3 18.2 C 0 km/h
Sensor: Nr:Datum:Temp:Abs-Feuchte:Windchill:Wind:
Aussen-T/F 1326 19-07-2010 01:20:03 17.9 C 6.57 g/m*3 17.9 C 0 km/h
1327 19-07-2010 01:32:03 17.7 C 6.64 g/m*3 17.7 C 0 km/h
1328 19-07-2010 01:44:03 17.5 C 6.71 g/m*3 17.5 C 0 km/h
1329 19-07-2010 01:56:03 17.1 C 6.84 g/m*3 17.1 C 0 km/h
1330 19-07-2010 02:08:03 16.8 C 6.86 g/m*3 16.8 C 0 km/h
1331 19-07-2010 02:20:03 16.7 C 7.11 g/m*3 16.7 C 0 km/h
1332 19-07-2010 02:32:03 16.5 C 6.88 g/m*3 16.5 C 0 km/h
1333 19-07-2010 02:44:04 16.3 C 6.66 g/m*3 16.3 C 0 km/h
1334 19-07-2010 02:56:04 16 C 6.81 g/m*3 16 C 0 km/h
1335 19-07-2010 03:08:04 15.8 C 7 g/m*3 15.8 C 0 km/h
1336 19-07-2010 03:20:04 15.7 C 6.96 g/m*3 15.7 C 0 km/h
1337 19-07-2010 03:32:04 15.5 C 7.14 g/m*3 15.5 C 0 km/h
1338 19-07-2010 03:44:04 15.3 C 7.31 g/m*3 15.3 C 0 km/h
1339 19-07-2010 03:56:04 15.1 C 7.1 g/m*3 15.1 C 0 km/h
1340 19-07-2010 04:08:04 14.9 C 7.14 g/m*3 14.9 C 0 km/h
1341 19-07-2010 04:20:04 14.7 C 7.18 g/m*3 14.7 C 0 km/h
1342 19-07-2010 04:32:04 14.6 C 7.38 g/m*3 14.6 C 0 km/h
1343 19-07-2010 04:44:04 14.7 C 7.43 g/m*3 14.7 C 0 km/h
1344 19-07-2010 04:56:04 14.2 C 7.45 g/m*3 14.2 C 0 km/h
1345 19-07-2010 05:08:04 14.1 C 7.28 g/m*3 14.1 C 0 km/h
1346 19-07-2010 05:20:04 13.9 C 7.55 g/m*3 13.9 C 0 km/h
1347 19-07-2010 05:32:04 13.8 C 7.63 g/m*3 13.8 C 0 km/h
1348 19-07-2010 05:44:04 13.6 C 7.53 g/m*3 13.6 C 0 km/h
1349 19-07-2010 05:56:04 13.6 C 7.53 g/m*3 13.6 C 0 km/h
1350 19-07-2010 06:08:04 13.6 C 7.53 g/m*3 13.6 C 0 km/h
Sensor: Nr:Datum:Temp:Abs-Feuchte:Windchill:Wind:
Aussen-T/F 1351 19-07-2010 06:20:04 13.5 C 7.6 g/m*3 13.5 C 0 km/h
1352 19-07-2010 06:32:04 13.7 C 7.93 g/m*3 13.7 C 0 km/h
1353 19-07-2010 06:44:05 13.5 C 8.07 g/m*3 13.5 C 0 km/h
1354 19-07-2010 06:56:02 13.6 C 8.24 g/m*3 13.6 C 0 km/h
1355 19-07-2010 07:08:02 13.7 C 8.29 g/m*3 13.7 C 0 km/h
1356 19-07-2010 07:20:02 13.8 C 8.22 g/m*3 13.8 C 0 km/h
1357 19-07-2010 07:32:01 14 C 8.2 g/m*3 14 C 0 km/h
1358 19-07-2010 07:44:01 14.2 C 8.18 g/m*3 14.2 C 0 km/h
1359 19-07-2010 07:56:02 14.4 C 8.16 g/m*3 14.4 C 0 km/h
1360 19-07-2010 08:08:01 14.5 C 8.21 g/m*3 14.5 C 0 km/h
1361 19-07-2010 08:20:02 14.8 C 8.23 g/m*3 14.8 C 0 km/h
1362 19-07-2010 08:32:02 15.2 C 8.18 g/m*3 15.2 C 0 km/h
1363 19-07-2010 08:44:02 15.7 C 8.3 g/m*3 15.7 C 0 km/h
1364 19-07-2010 08:56:02 16.3 C 8.46 g/m*3 16.3 C 0 km/h
1365 19-07-2010 09:08:02 16.9 C 8.63 g/m*3 16.9 C 0 km/h
1366 19-07-2010 09:20:02 17.7 C 8.6 g/m*3 17.7 C 0 km/h
1367 19-07-2010 09:32:02 18.4 C 8.49 g/m*3 18.4 C 0 km/h
1368 19-07-2010 09:44:02 19.4 C 8.51 g/m*3 19.4 C 0 km/h
1369 19-07-2010 09:56:02 20.2 C 8.39 g/m*3 20.2 C 0 km/h
1370 19-07-2010 10:08:02 20.8 C 8.33 g/m*3 20.8 C 0 km/h
1371 19-07-2010 10:20:01 21.7 C 8.39 g/m*3 21.7 C 0 km/h
1372 19-07-2010 10:32:02 22.6 C 8.24 g/m*3 22.6 C 0 km/h
1373 19-07-2010 10:44:03 23.3 C 7.74 g/m*3 23.3 C 0 km/h
1374 19-07-2010 10:56:02 23.9 C 7.14 g/m*3 23.9 C 0 km/h
1375 19-07-2010 11:08:02 24.7 C 7.02 g/m*3 24.7 C 0 km/h
Sensor: Nr:Datum:Temp:Abs-Feuchte:Windchill:Wind:
Aussen-T/F 1376 19-07-2010 11:20:02 25.2 C 6.98 g/m*3 25.2 C 0 km/h
1377 19-07-2010 11:32:02 25.9 C 6.29 g/m*3 25.9 C 0 km/h
1378 19-07-2010 11:44:02 26.5 C 6.51 g/m*3 26.5 C 0 km/h
1379 19-07-2010 11:56:02 26.6 C 5.79 g/m*3 26.6 C 0 km/h
1380 19-07-2010 12:08:02 27.1 C 5.69 g/m*3 27.1 C 0 km/h
1381 19-07-2010 12:20:02 28.2 C 5.5 g/m*3 28.2 C 0 km/h
1382 19-07-2010 12:32:02 28.9 C 5.71 g/m*3 28.9 C 0 km/h
1383 19-07-2010 12:44:02 29.7 C 5.97 g/m*3 29.7 C 0 km/h
1384 19-07-2010 12:56:02 30.2 C 6.13 g/m*3 30.2 C 0 km/h
1385 19-07-2010 13:08:02 30.4 C 6.2 g/m*3 30.4 C 0 km/h
1386 19-07-2010 13:20:03 31.2 C 6.47 g/m*3 31.2 C 0 km/h
1387 19-07-2010 13:32:02 31.6 C 6.61 g/m*3 31.6 C 0 km/h
1388 19-07-2010 13:44:02 31.5 C 6.57 g/m*3 31.5 C 0 km/h
1389 19-07-2010 13:56:03 31.3 C 6.5 g/m*3 31.3 C 0 km/h
1390 19-07-2010 14:08:02 30.9 C 6.37 g/m*3 30.9 C 0 km/h
1391 19-07-2010 14:20:03 30.8 C 6.33 g/m*3 30.8 C 0 km/h
1392 19-07-2010 14:32:02 31 C 6.4 g/m*3 31 C 0 km/h
1393 19-07-2010 14:44:02 30.6 C 6.26 g/m*3 30.6 C 0 km/h
1394 19-07-2010 14:56:02 30.9 C 6.37 g/m*3 30.9 C 0 km/h
1395 19-07-2010 15:08:02 30.6 C 6.26 g/m*3 30.6 C 0 km/h
1396 19-07-2010 15:20:02 31.4 C 6.54 g/m*3 31.4 C 0 km/h
1397 19-07-2010 15:32:02 31.9 C 6.72 g/m*3 31.9 C 0 km/h
1398 19-07-2010 15:44:02 32.2 C 6.82 g/m*3 32.2 C 0 km/h
1399 19-07-2010 15:56:02 32.4 C 6.9 g/m*3 32.4 C 0 km/h
1400 19-07-2010 16:08:02 32.5 C 6.93 g/m*3 32.5 C 0 km/h
Sensor: Nr:Datum:Temp:Abs-Feuchte:Windchill:Wind:
Aussen-T/F 1401 19-07-2010 16:20:02 32.8 C 7.04 g/m*3 32.8 C 0 km/h
1402 19-07-2010 16:32:02 32.9 C 7.08 g/m*3 32.9 C 0 km/h
1403 19-07-2010 16:44:02 32.8 C 7.04 g/m*3 32.8 C 0 km/h
1404 19-07-2010 16:56:02 33.1 C 7.16 g/m*3 33.1 C 0 km/h
1405 19-07-2010 17:08:01 33.3 C 7.23 g/m*3 33.3 C 0 km/h
1406 19-07-2010 17:20:01 33.6 C 7.35 g/m*3 33.6 C 0 km/h
1407 19-07-2010 17:32:02 33.5 C 7.31 g/m*3 33.5 C 0 km/h
1408 19-07-2010 17:44:02 33.7 C 7.39 g/m*3 33.7 C 0 km/h
1409 19-07-2010 17:56:02 33.8 C 7.43 g/m*3 33.8 C 0 km/h
1410 19-07-2010 18:08:02 33.7 C 7.39 g/m*3 33.7 C 0 km/h
1411 19-07-2010 18:20:02 33.5 C 7.31 g/m*3 33.5 C 0 km/h
1412 19-07-2010 18:32:02 33.6 C 7.35 g/m*3 33.6 C 0 km/h
1413 19-07-2010 18:44:03 33.5 C 7.31 g/m*3 33.5 C 0 km/h
1414 19-07-2010 18:56:01 33.2 C 7.2 g/m*3 33.2 C 0 km/h
1415 19-07-2010 19:08:02 33.3 C 7.23 g/m*3 33.3 C 0 km/h
1416 19-07-2010 19:20:01 33 C 7.12 g/m*3 33 C 0 km/h
1417 19-07-2010 19:32:01 32.8 C 7.04 g/m*3 32.8 C 0 km/h
1418 19-07-2010 19:44:02 32.7 C 7.01 g/m*3 32.7 C 0 km/h
1419 19-07-2010 19:56:02 32.4 C 6.9 g/m*3 32.4 C 0 km/h
1420 19-07-2010 20:08:02 32 C 6.75 g/m*3 32 C 0 km/h
1421 19-07-2010 20:20:02 31.9 C 6.72 g/m*3 31.9 C 0 km/h
1422 19-07-2010 20:32:01 31.5 C 6.57 g/m*3 31.5 C 0 km/h
1423 19-07-2010 20:44:01 31.1 C 6.43 g/m*3 31.1 C 0 km/h
1424 19-07-2010 20:56:01 30.4 C 6.2 g/m*3 30.4 C 0 km/h
1425 19-07-2010 21:08:02 29.1 C 6.06 g/m*3 29.1 C 0 km/h
Sensor: Nr:Datum:Temp:Abs-Feuchte:Windchill:Wind:
Aussen-T/F 1426 19-07-2010 21:20:02 27.8 C 6.46 g/m*3 27.8 C 0 km/h
1427 19-07-2010 21:32:02 26.3 C 6.93 g/m*3 26.3 C 0 km/h
1428 19-07-2010 21:44:02 25.6 C 7.14 g/m*3 25.6 C 0 km/h
1429 19-07-2010 21:56:01 25.4 C 7.06 g/m*3 25.4 C 0 km/h
1430 19-07-2010 22:08:01 24.6 C 6.98 g/m*3 24.6 C 0 km/h
1431 19-07-2010 22:20:02 24.4 C 7.12 g/m*3 24.4 C 0 km/h
1432 19-07-2010 22:32:02 24 C 6.96 g/m*3 24 C 0 km/h
1433 19-07-2010 22:44:02 23.9 C 7.14 g/m*3 23.9 C 0 km/h
1434 19-07-2010 22:56:02 23.7 C 7.06 g/m*3 23.7 C 0 km/h
1435 19-07-2010 23:08:01 23.5 C 7.19 g/m*3 23.5 C 0 km/h
1436 19-07-2010 23:20:02 23.1 C 7.03 g/m*3 23.1 C 0 km/h
1437 19-07-2010 23:32:02 22.7 C 7.27 g/m*3 22.7 C 0 km/h
1438 19-07-2010 23:44:02 22.7 C 7.48 g/m*3 22.7 C 0 km/h
1439 19-07-2010 23:56:03 22.5 C 7.59 g/m*3 22.5 C 0 km/h
1440 20-07-2010 00:08:02 22.3 C 7.7 g/m*3 22.3 C 0 km/h
1441 20-07-2010 00:20:03 22 C 7.76 g/m*3 22 C 0 km/h
1442 20-07-2010 00:32:02 21.7 C 7.82 g/m*3 21.7 C 0 km/h
1443 20-07-2010 00:44:02 21.5 C 7.92 g/m*3 21.5 C 0 km/h
1444 20-07-2010 00:56:01 21.2 C 7.97 g/m*3 21.2 C 0 km/h
1445 20-07-2010 01:08:01 20.9 C 8.2 g/m*3 20.9 C 0 km/h
1446 20-07-2010 01:20:02 20.7 C 8.1 g/m*3 20.7 C 0 km/h
1447 20-07-2010 01:32:01 20.4 C 8.14 g/m*3 20.4 C 0 km/h
1448 20-07-2010 01:44:01 20.2 C 7.87 g/m*3 20.2 C 0 km/h
1449 20-07-2010 01:56:01 19.9 C 8.08 g/m*3 19.9 C 0 km/h
1450 20-07-2010 02:08:02 19.7 C 8.15 g/m*3 19.7 C 0 km/h
Sensor: Nr:Datum:Temp:Abs-Feuchte:Windchill:Wind:
Aussen-T/F 1451 20-07-2010 02:20:02 19.6 C 8.1 g/m*3 19.6 C 0 km/h
1452 20-07-2010 02:32:01 19.4 C 8.18 g/m*3 19.4 C 0 km/h
1453 20-07-2010 02:44:01 19.1 C 8.36 g/m*3 19.1 C 0 km/h
1454 20-07-2010 02:56:02 18.8 C 8.37 g/m*3 18.8 C 0 km/h
1455 20-07-2010 03:08:02 18.5 C 8.23 g/m*3 18.5 C 0 km/h
1456 20-07-2010 03:20:01 18.4 C 8.34 g/m*3 18.4 C 0 km/h
1457 20-07-2010 03:32:01 18.1 C 8.19 g/m*3 18.1 C 0 km/h
1458 20-07-2010 03:44:01 18.1 C 8.34 g/m*3 18.1 C 0 km/h
1459 20-07-2010 03:56:01 17.9 C 8.7 g/m*3 17.9 C 0 km/h
1460 20-07-2010 04:08:01 17.7 C 8.45 g/m*3 17.7 C 0 km/h
1461 20-07-2010 04:20:01 17.4 C 8.45 g/m*3 17.4 C 0 km/h
1462 20-07-2010 04:32:01 17.3 C 8.54 g/m*3 17.3 C 0 km/h
1463 20-07-2010 04:44:01 17 C 8.39 g/m*3 17 C 0 km/h
1464 20-07-2010 04:56:01 16.8 C 8.58 g/m*3 16.8 C 0 km/h
1465 20-07-2010 05:08:01 16.7 C 8.53 g/m*3 16.7 C 0 km/h
1466 20-07-2010 05:20:02 16.6 C 8.62 g/m*3 16.6 C 0 km/h
1467 20-07-2010 05:32:01 16.4 C 8.51 g/m*3 16.4 C 0 km/h
1468 20-07-2010 05:44:01 16.4 C 8.65 g/m*3 16.4 C 0 km/h
1469 20-07-2010 05:56:02 16.3 C 8.6 g/m*3 16.3 C 0 km/h
1470 20-07-2010 06:08:01 16.1 C 8.77 g/m*3 16.1 C 0 km/h
1471 20-07-2010 06:20:02 16 C 8.86 g/m*3 16 C 0 km/h
1472 20-07-2010 06:32:01 16.1 C 9.05 g/m*3 16.1 C 0 km/h
1473 20-07-2010 06:44:01 16.1 C 9.05 g/m*3 16.1 C 0 km/h
1474 20-07-2010 06:56:02 16.2 C 9.1 g/m*3 16.2 C 0 km/h
1475 20-07-2010 07:08:01 16.4 C 9.21 g/m*3 16.4 C 0 km/h
Sensor: Nr:Datum:Temp:Abs-Feuchte:Windchill:Wind:
Aussen-T/F 1476 20-07-2010 07:20:01 16.5 C 9.27 g/m*3 16.5 C 0 km/h
1477 20-07-2010 07:32:01 16.8 C 9.29 g/m*3 16.8 C 0 km/h
1478 20-07-2010 07:44:01 17.1 C 9.32 g/m*3 17.1 C 0 km/h
1479 20-07-2010 07:56:02 17.1 C 9.17 g/m*3 17.1 C 0 km/h
1480 20-07-2010 08:08:01 17.3 C 9.13 g/m*3 17.3 C 0 km/h
1481 20-07-2010 08:20:01 17.6 C 9.15 g/m*3 17.6 C 0 km/h
1482 20-07-2010 08:32:02 17.9 C 9.16 g/m*3 17.9 C 0 km/h
1483 20-07-2010 08:44:02 18.5 C 9.33 g/m*3 18.5 C 0 km/h
1484 20-07-2010 08:56:01 18.9 C 9.4 g/m*3 18.9 C 0 km/h
1485 20-07-2010 09:08:02 19.6 C 9.45 g/m*3 19.6 C 0 km/h
1486 20-07-2010 09:20:01 20.3 C 9.32 g/m*3 20.3 C 0 km/h
1487 20-07-2010 09:32:02 20.9 C 9.29 g/m*3 20.9 C 0 km/h
1488 20-07-2010 09:44:02 21.7 C 8.97 g/m*3 21.7 C 0 km/h
1489 20-07-2010 09:56:01 22.3 C 8.89 g/m*3 22.3 C 0 km/h
1490 20-07-2010 10:08:02 23.2 C 8.73 g/m*3 23.2 C 0 km/h
1491 20-07-2010 10:20:01 24.1 C 8.53 g/m*3 24.1 C 0 km/h
1492 20-07-2010 10:32:01 24.8 C 8.19 g/m*3 24.8 C 0 km/h
1493 20-07-2010 10:44:01 25.6 C 8.09 g/m*3 25.6 C 0 km/h
1494 20-07-2010 10:56:01 26.3 C 7.67 g/m*3 26.3 C 0 km/h
1495 20-07-2010 11:08:02 26.9 C 6.91 g/m*3 26.9 C 0 km/h
1496 20-07-2010 11:20:01 27.4 C 6.84 g/m*3 27.4 C 0 km/h
1497 20-07-2010 11:32:01 27.9 C 6.76 g/m*3 27.9 C 0 km/h
1498 20-07-2010 11:44:01 28.2 C 6.6 g/m*3 28.2 C 0 km/h
1499 20-07-2010 11:56:01 28.3 C 6.63 g/m*3 28.3 C 0 km/h
1500 20-07-2010 12:08:01 29 C 6.03 g/m*3 29 C 0 km/h
Sensor: Nr:Datum:Temp:Abs-Feuchte:Windchill:Wind:
Aussen-T/F 1501 20-07-2010 12:20:02 30 C 6.37 g/m*3 30 C 0 km/h
1502 20-07-2010 12:32:01 30.7 C 6.3 g/m*3 30.7 C 0 km/h
1503 20-07-2010 12:44:01 31 C 6.4 g/m*3 31 C 0 km/h
1504 20-07-2010 12:56:01 31.4 C 6.54 g/m*3 31.4 C 0 km/h
1505 20-07-2010 13:08:01 31.7 C 6.64 g/m*3 31.7 C 0 km/h
1506 20-07-2010 13:20:02 32.1 C 6.79 g/m*3 32.1 C 0 km/h
1507 20-07-2010 13:32:01 32.5 C 6.93 g/m*3 32.5 C 0 km/h
1508 20-07-2010 13:44:01 32.5 C 6.93 g/m*3 32.5 C 0 km/h
1509 20-07-2010 13:56:02 32.3 C 6.86 g/m*3 32.3 C 0 km/h
1510 20-07-2010 14:08:01 31.8 C 6.68 g/m*3 31.8 C 0 km/h
1511 20-07-2010 14:20:02 31.8 C 6.68 g/m*3 31.8 C 0 km/h
1512 20-07-2010 14:32:01 31.5 C 6.57 g/m*3 31.5 C 0 km/h
1513 20-07-2010 14:44:01 31.8 C 6.68 g/m*3 31.8 C 0 km/h
1514 20-07-2010 14:56:02 32 C 6.75 g/m*3 32 C 0 km/h
1515 20-07-2010 15:08:01 32 C 6.75 g/m*3 32 C 0 km/h
1516 20-07-2010 15:20:01 32.1 C 6.79 g/m*3 32.1 C 0 km/h
1517 20-07-2010 15:32:02 32.3 C 6.86 g/m*3 32.3 C 0 km/h
1518 20-07-2010 15:44:02 32.8 C 7.04 g/m*3 32.8 C 0 km/h
1519 20-07-2010 15:56:01 32.5 C 6.93 g/m*3 32.5 C 0 km/h
1520 20-07-2010 16:08:02 32.7 C 7.01 g/m*3 32.7 C 0 km/h
1521 20-07-2010 16:20:01 33.1 C 7.16 g/m*3 33.1 C 0 km/h
1522 20-07-2010 16:32:02 33 C 7.12 g/m*3 33 C 0 km/h
1523 20-07-2010 16:44:02 33 C 7.12 g/m*3 33 C 0 km/h
1524 20-07-2010 16:56:01 33.5 C 7.31 g/m*3 33.5 C 0 km/h
1525 20-07-2010 17:08:02 33.3 C 7.23 g/m*3 33.3 C 0 km/h
Sensor: Nr:Datum:Temp:Abs-Feuchte:Windchill:Wind:
Aussen-T/F 1526 20-07-2010 17:20:01 33.3 C 7.23 g/m*3 33.3 C 0 km/h
1527 20-07-2010 17:32:01 33.2 C 7.2 g/m*3 33.2 C 0 km/h
1528 20-07-2010 17:44:02 33.4 C 7.27 g/m*3 33.4 C 0 km/h
1529 20-07-2010 17:56:01 33.1 C 7.16 g/m*3 33.1 C 0 km/h
1530 20-07-2010 18:08:02 33.3 C 7.23 g/m*3 33.3 C 0 km/h
1531 20-07-2010 18:20:02 33.3 C 7.23 g/m*3 33.3 C 0 km/h
1532 20-07-2010 18:32:01 32.7 C 7.01 g/m*3 32.7 C 0 km/h
1533 20-07-2010 18:44:01 32.7 C 7.01 g/m*3 32.7 C 0 km/h
1534 20-07-2010 18:56:01 32.6 C 6.97 g/m*3 32.6 C 0 km/h
1535 20-07-2010 19:08:02 32.3 C 6.86 g/m*3 32.3 C 0 km/h
1536 20-07-2010 19:20:01 31.7 C 6.64 g/m*3 31.7 C 0 km/h
1537 20-07-2010 19:32:02 31.9 C 6.72 g/m*3 31.9 C 0 km/h
1538 20-07-2010 19:44:02 32.1 C 6.79 g/m*3 32.1 C 0 km/h
1539 20-07-2010 19:56:01 32.1 C 6.79 g/m*3 32.1 C 0 km/h
1540 20-07-2010 20:08:02 32 C 6.75 g/m*3 32 C 0 km/h
1541 20-07-2010 20:20:01 31.5 C 6.57 g/m*3 31.5 C 0 km/h
1542 20-07-2010 20:32:01 30.8 C 6.33 g/m*3 30.8 C 0 km/h
1543 20-07-2010 20:44:01 30 C 6.06 g/m*3 30 C 0 km/h
1544 20-07-2010 20:56:01 29.3 C 6.13 g/m*3 29.3 C 0 km/h
1545 20-07-2010 21:08:02 28.1 C 6.56 g/m*3 28.1 C 0 km/h
1546 20-07-2010 21:20:01 26.9 C 6.65 g/m*3 26.9 C 0 km/h
1547 20-07-2010 21:32:01 26.4 C 6.47 g/m*3 26.4 C 0 km/h
1548 20-07-2010 21:44:02 25.7 C 6.22 g/m*3 25.7 C 0 km/h
1549 20-07-2010 21:56:01 25.3 C 6.09 g/m*3 25.3 C 0 km/h
1550 20-07-2010 22:09:02 24.5 C 6.27 g/m*3 24.5 C 0 km/h
Sensor: Nr:Datum:Temp:Abs-Feuchte:Windchill:Wind:
Aussen-T/F 1551 20-07-2010 22:21:02 24.5 C 6.71 g/m*3 24.5 C 0 km/h
1552 20-07-2010 22:33:02 24.5 C 6.71 g/m*3 24.5 C 0 km/h
1553 20-07-2010 22:45:02 24.4 C 6.68 g/m*3 24.4 C 0 km/h
1554 20-07-2010 22:57:02 24.1 C 6.56 g/m*3 24.1 C 0 km/h
1555 20-07-2010 23:09:02 23.8 C 6.67 g/m*3 23.8 C 0 km/h
1556 20-07-2010 23:21:02 23.7 C 6.84 g/m*3 23.7 C 0 km/h
1557 20-07-2010 23:33:02 23.5 C 6.98 g/m*3 23.5 C 0 km/h
1558 20-07-2010 23:45:02 23.4 C 6.94 g/m*3 23.4 C 0 km/h
1559 20-07-2010 23:57:02 23 C 7.19 g/m*3 23 C 0 km/h
1560 21-07-2010 00:09:02 22.5 C 7.39 g/m*3 22.5 C 0 km/h
1561 21-07-2010 00:21:02 22.3 C 7.5 g/m*3 22.3 C 0 km/h
1562 21-07-2010 00:33:02 21.9 C 7.72 g/m*3 21.9 C 0 km/h
1563 21-07-2010 00:45:02 21.7 C 7.63 g/m*3 21.7 C 0 km/h
1564 21-07-2010 00:57:02 21.5 C 7.73 g/m*3 21.5 C 0 km/h
1565 21-07-2010 01:09:03 21.3 C 7.83 g/m*3 21.3 C 0 km/h
1566 21-07-2010 01:21:03 21.1 C 7.92 g/m*3 21.1 C 0 km/h
1567 21-07-2010 01:33:03 20.9 C 8.01 g/m*3 20.9 C 0 km/h
1568 21-07-2010 01:45:03 20.6 C 8.05 g/m*3 20.6 C 0 km/h
1569 21-07-2010 01:57:03 20.4 C 8.31 g/m*3 20.4 C 0 km/h
1570 21-07-2010 02:09:03 20 C 8.12 g/m*3 20 C 0 km/h
1571 21-07-2010 02:21:03 20 C 8.3 g/m*3 20 C 0 km/h
1572 21-07-2010 02:33:03 19.7 C 8.49 g/m*3 19.7 C 0 km/h
1573 21-07-2010 02:45:03 19.4 C 8.34 g/m*3 19.4 C 0 km/h
1574 21-07-2010 02:57:03 19.3 C 8.29 g/m*3 19.3 C 0 km/h
1575 21-07-2010 03:09:03 19.2 C 8.41 g/m*3 19.2 C 0 km/h
Sensor: Nr:Datum:Temp:Abs-Feuchte:Windchill:Wind:
Aussen-T/F 1576 21-07-2010 03:21:03 19 C 8.31 g/m*3 19 C 0 km/h
1577 21-07-2010 03:33:03 18.7 C 8.33 g/m*3 18.7 C 0 km/h
1578 21-07-2010 03:45:03 18.6 C 8.44 g/m*3 18.6 C 0 km/h
1579 21-07-2010 03:57:03 18.4 C 8.49 g/m*3 18.4 C 0 km/h
1580 21-07-2010 04:09:03 18.4 C 8.49 g/m*3 18.4 C 0 km/h
1581 21-07-2010 04:21:03 18.3 C 8.44 g/m*3 18.3 C 0 km/h
1582 21-07-2010 04:33:03 18.1 C 8.65 g/m*3 18.1 C 0 km/h
1583 21-07-2010 04:45:03 17.9 C 8.7 g/m*3 17.9 C 0 km/h
1584 21-07-2010 04:57:03 17.7 C 8.6 g/m*3 17.7 C 0 km/h
1585 21-07-2010 05:09:03 17.6 C 8.55 g/m*3 17.6 C 0 km/h
1586 21-07-2010 05:21:04 17.4 C 8.6 g/m*3 17.4 C 0 km/h
1587 21-07-2010 05:33:04 17.4 C 8.74 g/m*3 17.4 C 0 km/h
1588 21-07-2010 05:45:04 17.2 C 8.93 g/m*3 17.2 C 0 km/h
1589 21-07-2010 05:57:04 17.3 C 8.99 g/m*3 17.3 C 0 km/h
1590 21-07-2010 06:09:04 17.1 C 8.88 g/m*3 17.1 C 0 km/h
1591 21-07-2010 06:21:04 17 C 8.68 g/m*3 17 C 0 km/h
1592 21-07-2010 06:33:04 17.1 C 8.88 g/m*3 17.1 C 0 km/h
1593 21-07-2010 06:45:04 17.2 C 8.93 g/m*3 17.2 C 0 km/h
1594 21-07-2010 06:57:04 17.4 C 9.19 g/m*3 17.4 C 0 km/h
1595 21-07-2010 07:09:02 17.4 C 9.19 g/m*3 17.4 C 0 km/h
1596 21-07-2010 07:21:01 17.6 C 9.45 g/m*3 17.6 C 0 km/h
1597 21-07-2010 07:33:02 17.7 C 9.35 g/m*3 17.7 C 0 km/h
1598 21-07-2010 07:45:02 18 C 9.22 g/m*3 18 C 0 km/h
1599 21-07-2010 07:57:02 18.3 C 9.38 g/m*3 18.3 C 0 km/h
1600 21-07-2010 08:09:02 18.5 C 9.18 g/m*3 18.5 C 0 km/h
Sensor: Nr:Datum:Temp:Abs-Feuchte:Windchill:Wind:
Aussen-T/F 1601 21-07-2010 08:21:01 18.8 C 9.18 g/m*3 18.8 C 0 km/h
1602 21-07-2010 08:33:02 19.2 C 9.07 g/m*3 19.2 C 0 km/h
1603 21-07-2010 08:45:01 19.4 C 9.01 g/m*3 19.4 C 0 km/h
1604 21-07-2010 08:57:01 20.1 C 8.87 g/m*3 20.1 C 0 km/h
1605 21-07-2010 09:09:02 20.6 C 9.31 g/m*3 20.6 C 0 km/h
1606 21-07-2010 09:21:02 21.4 C 9.37 g/m*3 21.4 C 0 km/h
1607 21-07-2010 09:33:02 22.4 C 9.53 g/m*3 22.4 C 0 km/h
1608 21-07-2010 09:45:01 23.3 C 9.41 g/m*3 23.3 C 0 km/h
1609 21-07-2010 09:57:01 23.9 C 9.3 g/m*3 23.9 C 0 km/h
1610 21-07-2010 10:09:02 24.7 C 9.28 g/m*3 24.7 C 0 km/h
1611 21-07-2010 10:21:02 25.7 C 9.1 g/m*3 25.7 C 0 km/h
1612 21-07-2010 10:33:01 26.6 C 8.56 g/m*3 26.6 C 0 km/h
1613 21-07-2010 10:45:02 27.3 C 8.11 g/m*3 27.3 C 0 km/h
1614 21-07-2010 10:57:02 28.4 C 7.78 g/m*3 28.4 C 0 km/h
1615 21-07-2010 11:09:01 28.9 C 7.43 g/m*3 28.9 C 0 km/h
1616 21-07-2010 11:21:02 29.3 C 7.3 g/m*3 29.3 C 0 km/h
1617 21-07-2010 11:33:01 29.7 C 7.46 g/m*3 29.7 C 0 km/h
1618 21-07-2010 11:45:02 30 C 7.58 g/m*3 30 C 0 km/h
1619 21-07-2010 11:57:02 30.4 C 7.13 g/m*3 30.4 C 0 km/h
1620 21-07-2010 12:09:02 30.7 C 6.61 g/m*3 30.7 C 0 km/h
1621 21-07-2010 12:21:02 31.2 C 6.47 g/m*3 31.2 C 0 km/h
1622 21-07-2010 12:33:02 31.6 C 6.61 g/m*3 31.6 C 0 km/h
1623 21-07-2010 12:45:02 31.6 C 6.61 g/m*3 31.6 C 0 km/h
1624 21-07-2010 12:57:02 31.7 C 6.64 g/m*3 31.7 C 0 km/h
1625 21-07-2010 13:09:01 32.1 C 6.79 g/m*3 32.1 C 0 km/h
Sensor: Nr:Datum:Temp:Abs-Feuchte:Windchill:Wind:
Aussen-T/F 1626 21-07-2010 13:21:02 32.5 C 6.93 g/m*3 32.5 C 0 km/h
1627 21-07-2010 13:33:02 32.6 C 6.97 g/m*3 32.6 C 0 km/h
1628 21-07-2010 13:45:02 32.6 C 6.97 g/m*3 32.6 C 0 km/h
1629 21-07-2010 13:57:02 32.8 C 7.04 g/m*3 32.8 C 0 km/h
1630 21-07-2010 14:09:02 32.6 C 6.97 g/m*3 32.6 C 0 km/h
1631 21-07-2010 14:21:02 32.4 C 6.9 g/m*3 32.4 C 0 km/h
1632 21-07-2010 14:33:02 32.5 C 6.93 g/m*3 32.5 C 0 km/h
1633 21-07-2010 14:45:01 32.6 C 6.97 g/m*3 32.6 C 0 km/h
1634 21-07-2010 14:57:01 32.8 C 7.04 g/m*3 32.8 C 0 km/h
1635 21-07-2010 15:09:02 32.6 C 6.97 g/m*3 32.6 C 0 km/h
1636 21-07-2010 15:21:01 32.6 C 6.97 g/m*3 32.6 C 0 km/h
1637 21-07-2010 15:33:01 32.4 C 6.9 g/m*3 32.4 C 0 km/h
1638 21-07-2010 15:45:01 32.8 C 7.04 g/m*3 32.8 C 0 km/h
1639 21-07-2010 15:57:01 32.4 C 6.9 g/m*3 32.4 C 0 km/h
1640 21-07-2010 16:09:02 32.3 C 6.86 g/m*3 32.3 C 0 km/h
1641 21-07-2010 16:21:01 32.3 C 6.86 g/m*3 32.3 C 0 km/h
1642 21-07-2010 16:33:02 32.3 C 6.86 g/m*3 32.3 C 0 km/h
1643 21-07-2010 16:45:02 32.8 C 7.04 g/m*3 32.8 C 0 km/h
1644 21-07-2010 16:57:02 32.5 C 6.93 g/m*3 32.5 C 0 km/h
1645 21-07-2010 17:09:02 32.1 C 6.79 g/m*3 32.1 C 0 km/h
1646 21-07-2010 17:21:02 31.9 C 6.72 g/m*3 31.9 C 0 km/h
1647 21-07-2010 17:33:02 31.7 C 6.64 g/m*3 31.7 C 0 km/h
1648 21-07-2010 17:45:02 31.1 C 6.76 g/m*3 31.1 C 0 km/h
1649 21-07-2010 17:57:02 30.7 C 6.93 g/m*3 30.7 C 0 km/h
1650 21-07-2010 18:09:02 30.4 C 7.13 g/m*3 30.4 C 0 km/h
Sensor: Nr:Datum:Temp:Abs-Feuchte:Windchill:Wind:
Aussen-T/F 1651 21-07-2010 18:21:02 30.3 C 7.4 g/m*3 30.3 C 0 km/h
1652 21-07-2010 18:33:02 30.3 C 7.4 g/m*3 30.3 C 0 km/h
1653 21-07-2010 18:45:02 30 C 7.28 g/m*3 30 C 0 km/h
1654 21-07-2010 18:57:02 29.6 C 7.42 g/m*3 29.6 C 0 km/h
1655 21-07-2010 19:09:02 29.5 C 7.67 g/m*3 29.5 C 0 km/h
1656 21-07-2010 19:21:02 29.4 C 7.63 g/m*3 29.4 C 0 km/h
1657 21-07-2010 19:33:02 28.9 C 7.71 g/m*3 28.9 C 0 km/h
1658 21-07-2010 19:45:01 28.5 C 7.83 g/m*3 28.5 C 0 km/h
1659 21-07-2010 19:57:01 27.3 C 9.16 g/m*3 27.3 C 0 km/h
1660 21-07-2010 20:09:02 23.7 C 11.55 g/m*3 23.7 C 0 km/h
1661 21-07-2010 20:21:01 23.4 C 12.41 g/m*3 23.4 C 0 km/h
1662 21-07-2010 20:33:01 23.7 C 12.62 g/m*3 23.7 C 0 km/h
1663 21-07-2010 20:45:01 23.9 C 12.33 g/m*3 23.9 C 0 km/h
1664 21-07-2010 20:57:01 23.2 C 11.85 g/m*3 23.2 C 0 km/h
1665 21-07-2010 21:09:01 23.3 C 11.71 g/m*3 23.3 C 0 km/h
1666 21-07-2010 21:21:02 23.1 C 11.78 g/m*3 23.1 C 0 km/h
1667 21-07-2010 21:33:01 22.6 C 12.05 g/m*3 22.6 C 0 km/h
1668 21-07-2010 21:45:01 23 C 11.92 g/m*3 23 C 0 km/h
1669 21-07-2010 21:57:01 23.1 C 11.78 g/m*3 23.1 C 0 km/h
1670 21-07-2010 22:10:03 23.3 C 11.92 g/m*3 23.3 C 0 km/h
1671 21-07-2010 22:22:03 23 C 11.51 g/m*3 23 C 0 km/h
1672 21-07-2010 22:34:03 22.9 C 11.85 g/m*3 22.9 C 0 km/h
1673 21-07-2010 22:46:03 22.9 C 11.85 g/m*3 22.9 C 0 km/h
1674 21-07-2010 22:58:03 22.9 C 11.65 g/m*3 22.9 C 0 km/h
1675 21-07-2010 23:10:03 23 C 11.51 g/m*3 23 C 0 km/h
Sensor: Nr:Datum:Temp:Abs-Feuchte:Windchill:Wind:
Aussen-T/F 1676 21-07-2010 23:22:03 23 C 11.3 g/m*3 23 C 0 km/h
1677 21-07-2010 23:34:03 22.9 C 11.44 g/m*3 22.9 C 0 km/h
1678 21-07-2010 23:46:03 22.7 C 11.52 g/m*3 22.7 C 0 km/h
1679 21-07-2010 23:58:03 22.8 C 11.58 g/m*3 22.8 C 0 km/h
1680 22-07-2010 00:10:03 22.7 C 11.52 g/m*3 22.7 C 0 km/h
1681 22-07-2010 00:22:03 22.6 C 11.65 g/m*3 22.6 C 0 km/h
1682 22-07-2010 00:34:03 22.5 C 11.58 g/m*3 22.5 C 0 km/h
1683 22-07-2010 00:46:04 22.5 C 11.58 g/m*3 22.5 C 0 km/h
1684 22-07-2010 00:58:04 22.5 C 11.58 g/m*3 22.5 C 0 km/h
1685 22-07-2010 01:10:04 22.4 C 11.72 g/m*3 22.4 C 0 km/h
1686 22-07-2010 01:22:04 22.4 C 11.72 g/m*3 22.4 C 0 km/h
1687 22-07-2010 01:34:04 22.3 C 11.65 g/m*3 22.3 C 0 km/h
1688 22-07-2010 01:46:04 22 C 11.45 g/m*3 22 C 0 km/h
1689 22-07-2010 01:58:04 21.7 C 11.64 g/m*3 21.7 C 0 km/h
1690 22-07-2010 02:10:04 21.5 C 11.69 g/m*3 21.5 C 0 km/h
1691 22-07-2010 02:22:04 21.3 C 11.56 g/m*3 21.3 C 0 km/h
1692 22-07-2010 02:34:04 21.2 C 11.49 g/m*3 21.2 C 0 km/h
1693 22-07-2010 02:46:04 21.2 C 11.49 g/m*3 21.2 C 0 km/h
1694 22-07-2010 02:58:04 21.2 C 11.3 g/m*3 21.2 C 0 km/h
1695 22-07-2010 03:10:04 21.1 C 11.42 g/m*3 21.1 C 0 km/h
1696 22-07-2010 03:22:04 21.1 C 11.42 g/m*3 21.1 C 0 km/h
1697 22-07-2010 03:34:04 20.9 C 11.29 g/m*3 20.9 C 0 km/h
1698 22-07-2010 03:46:04 20.8 C 11.05 g/m*3 20.8 C 0 km/h
1699 22-07-2010 03:58:04 20.7 C 10.62 g/m*3 20.7 C 0 km/h
1700 22-07-2010 04:10:04 20.7 C 10.62 g/m*3 20.7 C 0 km/h
Sensor: Nr:Datum:Temp:Abs-Feuchte:Windchill:Wind:
Aussen-T/F 1701 22-07-2010 04:22:04 20.8 C 10.5 g/m*3 20.8 C 0 km/h
1702 22-07-2010 04:34:04 20.5 C 10.5 g/m*3 20.5 C 0 km/h
1703 22-07-2010 04:46:04 20.3 C 10.2 g/m*3 20.3 C 0 km/h
1704 22-07-2010 04:58:05 20.2 C 9.97 g/m*3 20.2 C 0 km/h
1705 22-07-2010 05:10:05 20.1 C 9.73 g/m*3 20.1 C 0 km/h
1706 22-07-2010 05:22:05 20.1 C 9.73 g/m*3 20.1 C 0 km/h
1707 22-07-2010 05:34:05 20 C 9.68 g/m*3 20 C 0 km/h
1708 22-07-2010 05:46:05 19.9 C 9.79 g/m*3 19.9 C 0 km/h
1709 22-07-2010 05:58:05 19.4 C 10.18 g/m*3 19.4 C 0 km/h
1710 22-07-2010 06:10:05 19.4 C 10.01 g/m*3 19.4 C 0 km/h
1711 22-07-2010 06:22:05 19.1 C 10.33 g/m*3 19.1 C 0 km/h
1712 22-07-2010 06:34:05 18.6 C 11.14 g/m*3 18.6 C 0 km/h
1713 22-07-2010 06:46:01 18.5 C 11.39 g/m*3 18.5 C 0 km/h
1714 22-07-2010 06:58:01 19 C 11.73 g/m*3 19 C 0 km/h
1715 22-07-2010 07:10:02 19 C 11.57 g/m*3 19 C 0 km/h
1716 22-07-2010 07:22:01 18.8 C 11.76 g/m*3 18.8 C 0 km/h
1717 22-07-2010 07:34:01 18.9 C 11.66 g/m*3 18.9 C 0 km/h
1718 22-07-2010 07:46:01 19.5 C 11.58 g/m*3 19.5 C 0 km/h
1719 22-07-2010 07:58:01 20 C 11.06 g/m*3 20 C 0 km/h
1720 22-07-2010 08:10:02 20.3 C 11.08 g/m*3 20.3 C 0 km/h
1721 22-07-2010 08:22:02 20.7 C 11.16 g/m*3 20.7 C 0 km/h
1722 22-07-2010 08:34:01 21 C 10.81 g/m*3 21 C 0 km/h
1723 22-07-2010 08:46:02 21.4 C 10.87 g/m*3 21.4 C 0 km/h
1724 22-07-2010 08:58:02 21.8 C 10.74 g/m*3 21.8 C 0 km/h
1725 22-07-2010 09:10:01 21.6 C 10.62 g/m*3 21.6 C 0 km/h
Sensor: Nr:Datum:Temp:Abs-Feuchte:Windchill:Wind:
Aussen-T/F 1726 22-07-2010 09:22:02 21.5 C 10.56 g/m*3 21.5 C 0 km/h
1727 22-07-2010 09:34:01 22.2 C 10.21 g/m*3 22.2 C 0 km/h
1728 22-07-2010 09:46:02 22.4 C 10.13 g/m*3 22.4 C 0 km/h
1729 22-07-2010 09:58:02 22.6 C 10.04 g/m*3 22.6 C 0 km/h
1730 22-07-2010 10:10:02 22.3 C 10.07 g/m*3 22.3 C 0 km/h
1731 22-07-2010 10:22:02 22.2 C 10.21 g/m*3 22.2 C 0 km/h
1732 22-07-2010 10:34:02 22.1 C 10.15 g/m*3 22.1 C 0 km/h
1733 22-07-2010 10:46:02 20.9 C 11.11 g/m*3 20.9 C 0 km/h
1734 22-07-2010 10:58:03 20.4 C 11.68 g/m*3 20.4 C 0 km/h
1735 22-07-2010 11:10:01 20.4 C 11.85 g/m*3 20.4 C 0 km/h
1736 22-07-2010 11:22:02 21.4 C 12.19 g/m*3 21.4 C 0 km/h
1737 22-07-2010 11:34:02 22 C 11.84 g/m*3 22 C 0 km/h
1738 22-07-2010 11:46:02 22.4 C 11.72 g/m*3 22.4 C 0 km/h
1739 22-07-2010 11:58:02 22.7 C 11.52 g/m*3 22.7 C 0 km/h
1740 22-07-2010 12:10:02 22.9 C 11.24 g/m*3 22.9 C 0 km/h
1741 22-07-2010 12:22:02 22.4 C 11.32 g/m*3 22.4 C 0 km/h
1742 22-07-2010 12:34:02 22.5 C 11.58 g/m*3 22.5 C 0 km/h
1743 22-07-2010 12:46:01 22.4 C 11.32 g/m*3 22.4 C 0 km/h
1744 22-07-2010 12:58:01 21.7 C 11.83 g/m*3 21.7 C 0 km/h
1745 22-07-2010 13:10:02 21.5 C 12.63 g/m*3 21.5 C 0 km/h
1746 22-07-2010 13:22:01 21 C 12.09 g/m*3 21 C 0 km/h
1747 22-07-2010 13:34:01 20.1 C 12.69 g/m*3 20.1 C 0 km/h
1748 22-07-2010 13:46:01 20.4 C 13.44 g/m*3 20.4 C 0 km/h
1749 22-07-2010 13:58:01 21.5 C 13.01 g/m*3 21.5 C 0 km/h
1750 22-07-2010 14:10:02 21.4 C 12.56 g/m*3 21.4 C 0 km/h
Sensor: Nr:Datum:Temp:Abs-Feuchte:Windchill:Wind:
Aussen-T/F 1751 22-07-2010 14:22:01 21.3 C 12.68 g/m*3 21.3 C 0 km/h
1752 22-07-2010 14:34:01 21.8 C 12.28 g/m*3 21.8 C 0 km/h
1753 22-07-2010 14:46:01 20.9 C 12.38 g/m*3 20.9 C 0 km/h
1754 22-07-2010 14:58:01 20.9 C 12.75 g/m*3 20.9 C 0 km/h
1755 22-07-2010 15:10:02 20.8 C 12.86 g/m*3 20.8 C 0 km/h
1756 22-07-2010 15:22:01 20.4 C 12.91 g/m*3 20.4 C 0 km/h
1757 22-07-2010 15:34:01 21.2 C 13.34 g/m*3 21.2 C 0 km/h
1758 22-07-2010 15:46:01 22 C 13 g/m*3 22 C 0 km/h
1759 22-07-2010 15:58:01 22.5 C 12.38 g/m*3 22.5 C 0 km/h
1760 22-07-2010 16:10:01 23.3 C 11.71 g/m*3 23.3 C 0 km/h
1761 22-07-2010 16:22:02 23.4 C 11.57 g/m*3 23.4 C 0 km/h
1762 22-07-2010 16:34:01 23.2 C 11.43 g/m*3 23.2 C 0 km/h
1763 22-07-2010 16:46:03 23.3 C 11.29 g/m*3 23.3 C 0 km/h
1764 22-07-2010 16:58:03 22.8 C 11.79 g/m*3 22.8 C 0 km/h
1765 22-07-2010 17:10:02 21.7 C 12.97 g/m*3 21.7 C 0 km/h
1766 22-07-2010 17:22:02 21.9 C 13.7 g/m*3 21.9 C 0 km/h
1767 22-07-2010 17:34:02 21.8 C 13.43 g/m*3 21.8 C 0 km/h
1768 22-07-2010 17:46:02 22.1 C 13.27 g/m*3 22.1 C 0 km/h
1769 22-07-2010 17:58:03 22.7 C 13.13 g/m*3 22.7 C 0 km/h
1770 22-07-2010 18:10:02 22.5 C 12.78 g/m*3 22.5 C 0 km/h
1771 22-07-2010 18:22:02 23.1 C 12.2 g/m*3 23.1 C 0 km/h
1772 22-07-2010 18:34:01 23.1 C 11.78 g/m*3 23.1 C 0 km/h
1773 22-07-2010 18:46:02 23 C 11.92 g/m*3 23 C 0 km/h
1774 22-07-2010 18:58:02 23.3 C 11.71 g/m*3 23.3 C 0 km/h
1775 22-07-2010 19:10:02 23.1 C 11.58 g/m*3 23.1 C 0 km/h
Sensor: Nr:Datum:Temp:Abs-Feuchte:Windchill:Wind:
Aussen-T/F 1776 22-07-2010 19:22:01 22.8 C 11.99 g/m*3 22.8 C 0 km/h
1777 22-07-2010 19:34:01 22.7 C 11.92 g/m*3 22.7 C 0 km/h
1778 22-07-2010 19:46:02 22.5 C 11.98 g/m*3 22.5 C 0 km/h
1779 22-07-2010 19:58:02 22.3 C 12.05 g/m*3 22.3 C 0 km/h
1780 22-07-2010 20:10:01 22.1 C 11.91 g/m*3 22.1 C 0 km/h
1781 22-07-2010 20:22:01 22 C 12.03 g/m*3 22 C 0 km/h
1782 22-07-2010 20:34:00 21.9 C 12.16 g/m*3 21.9 C 0 km/h
1783 22-07-2010 20:46:02 21.7 C 12.02 g/m*3 21.7 C 0 km/h
1784 22-07-2010 20:58:02 21.6 C 11.95 g/m*3 21.6 C 0 km/h
1785 22-07-2010 21:10:02 21.4 C 12 g/m*3 21.4 C 0 km/h
1786 22-07-2010 21:22:02 21.2 C 11.86 g/m*3 21.2 C 0 km/h
1787 22-07-2010 21:34:03 21 C 11.91 g/m*3 21 C 0 km/h
1788 22-07-2010 21:46:02 20.9 C 11.84 g/m*3 20.9 C 0 km/h
1789 22-07-2010 21:58:02 20.8 C 11.95 g/m*3 20.8 C 0 km/h
1790 22-07-2010 22:10:02 20.7 C 11.88 g/m*3 20.7 C 0 km/h
1791 22-07-2010 22:22:02 20.6 C 11.81 g/m*3 20.6 C 0 km/h
1792 22-07-2010 22:34:02 20.4 C 11.68 g/m*3 20.4 C 0 km/h
1793 22-07-2010 22:46:02 20.4 C 11.85 g/m*3 20.4 C 0 km/h
1794 22-07-2010 22:58:02 20.3 C 11.78 g/m*3 20.3 C 0 km/h
1795 22-07-2010 23:10:02 20.2 C 11.71 g/m*3 20.2 C 0 km/h
1796 22-07-2010 23:22:03 20.3 C 11.78 g/m*3 20.3 C 0 km/h
1797 22-07-2010 23:34:03 20.2 C 11.89 g/m*3 20.2 C 0 km/h
1798 22-07-2010 23:46:02 20.1 C 11.82 g/m*3 20.1 C 0 km/h
1799 22-07-2010 23:58:02 20.2 C 11.89 g/m*3 20.2 C 0 km/h
1800 23-07-2010 00:10:02 20.2 C 11.89 g/m*3 20.2 C 0 km/h
Sensor: Nr:Datum:Temp:Abs-Feuchte:Windchill:Wind:
Aussen-T/F 1801 23-07-2010 00:22:02 20.1 C 11.99 g/m*3 20.1 C 0 km/h
1802 23-07-2010 00:34:02 20 C 12.1 g/m*3 20 C 0 km/h
1803 23-07-2010 00:46:02 20.1 C 12.17 g/m*3 20.1 C 0 km/h
1804 23-07-2010 00:58:02 20.1 C 12.17 g/m*3 20.1 C 0 km/h
1805 23-07-2010 01:10:03 20 C 12.1 g/m*3 20 C 0 km/h
1806 23-07-2010 01:22:02 20 C 12.27 g/m*3 20 C 0 km/h
1807 23-07-2010 01:34:02 20 C 12.27 g/m*3 20 C 0 km/h
1808 23-07-2010 01:46:01 20 C 12.44 g/m*3 20 C 0 km/h
1809 23-07-2010 01:58:01 20 C 12.44 g/m*3 20 C 0 km/h
1810 23-07-2010 02:10:02 19.8 C 12.3 g/m*3 19.8 C 0 km/h
1811 23-07-2010 02:22:01 19.7 C 12.4 g/m*3 19.7 C 0 km/h
1812 23-07-2010 02:34:01 19.4 C 12.68 g/m*3 19.4 C 0 km/h
1813 23-07-2010 02:47:03 19 C 12.39 g/m*3 19 C 0 km/h
1814 23-07-2010 02:59:03 18.2 C 11.35 g/m*3 18.2 C 0 km/h
1815 23-07-2010 03:11:03 16.9 C 11.51 g/m*3 16.9 C 0 km/h
1816 23-07-2010 03:23:03 16.4 C 11.58 g/m*3 16.4 C 0 km/h
1817 23-07-2010 03:35:01 16.2 C 11.72 g/m*3 16.2 C 0 km/h
1818 23-07-2010 03:47:01 16.2 C 11.72 g/m*3 16.2 C 0 km/h
1819 23-07-2010 03:59:01 16 C 11.58 g/m*3 16 C 0 km/h
1820 23-07-2010 04:11:02 15.9 C 11.65 g/m*3 15.9 C 0 km/h
1821 23-07-2010 04:23:02 16 C 11.72 g/m*3 16 C 0 km/h
1822 23-07-2010 04:35:01 16.1 C 11.79 g/m*3 16.1 C 0 km/h
1823 23-07-2010 04:47:02 16.1 C 11.65 g/m*3 16.1 C 0 km/h
1824 23-07-2010 04:59:02 16.1 C 11.65 g/m*3 16.1 C 0 km/h
1825 23-07-2010 05:11:01 16 C 11.58 g/m*3 16 C 0 km/h
Sensor: Nr:Datum:Temp:Abs-Feuchte:Windchill:Wind:
Aussen-T/F 1826 23-07-2010 05:23:01 15.9 C 11.51 g/m*3 15.9 C 0 km/h
1827 23-07-2010 05:35:01 15.9 C 11.51 g/m*3 15.9 C 0 km/h
1828 23-07-2010 05:47:02 15.9 C 11.51 g/m*3 15.9 C 0 km/h
1829 23-07-2010 05:59:02 15.8 C 11.44 g/m*3 15.8 C 0 km/h
1830 23-07-2010 06:11:01 15.6 C 11.3 g/m*3 15.6 C 0 km/h
1831 23-07-2010 06:23:01 15.6 C 11.3 g/m*3 15.6 C 0 km/h
1832 23-07-2010 06:35:02 15.7 C 11.51 g/m*3 15.7 C 0 km/h
1833 23-07-2010 06:47:02 16 C 11.58 g/m*3 16 C 0 km/h
1834 23-07-2010 06:59:02 16.4 C 12 g/m*3 16.4 C 0 km/h
1835 23-07-2010 07:11:02 16.7 C 12.08 g/m*3 16.7 C 0 km/h
1836 23-07-2010 07:23:01 17 C 12.15 g/m*3 17 C 0 km/h
1837 23-07-2010 07:35:00 17.4 C 12.45 g/m*3 17.4 C 0 km/h
1838 23-07-2010 07:47:01 17.5 C 12.37 g/m*3 17.5 C 0 km/h
1839 23-07-2010 07:59:01 17.7 C 12.22 g/m*3 17.7 C 0 km/h
1840 23-07-2010 08:11:01 17.8 C 12.14 g/m*3 17.8 C 0 km/h
1841 23-07-2010 08:23:01 18 C 12.13 g/m*3 18 C 0 km/h
1842 23-07-2010 08:35:00 18 C 11.98 g/m*3 18 C 0 km/h
1843 23-07-2010 08:47:03 18.1 C 12.05 g/m*3 18.1 C 0 km/h
1844 23-07-2010 08:59:03 18.2 C 12.12 g/m*3 18.2 C 0 km/h
1845 23-07-2010 09:11:02 18.4 C 12.27 g/m*3 18.4 C 0 km/h
1846 23-07-2010 09:23:03 18.6 C 12.26 g/m*3 18.6 C 0 km/h
1847 23-07-2010 09:35:02 18.9 C 12.15 g/m*3 18.9 C 0 km/h
1848 23-07-2010 09:47:02 19.5 C 11.41 g/m*3 19.5 C 0 km/h
1849 23-07-2010 09:59:02 20 C 10.89 g/m*3 20 C 0 km/h
1850 23-07-2010 10:11:02 20.4 C 10.44 g/m*3 20.4 C 0 km/h
Sensor: Nr:Datum:Temp:Abs-Feuchte:Windchill:Wind:
Aussen-T/F 1851 23-07-2010 10:23:02 20.9 C 10.56 g/m*3 20.9 C 0 km/h
1852 23-07-2010 10:35:03 21.5 C 10.75 g/m*3 21.5 C 0 km/h
1853 23-07-2010 10:47:02 22 C 10.29 g/m*3 22 C 0 km/h
1854 23-07-2010 10:59:02 22.2 C 10.21 g/m*3 22.2 C 0 km/h
1855 23-07-2010 11:11:03 23.2 C 10.19 g/m*3 23.2 C 0 km/h
1856 23-07-2010 11:23:02 23.7 C 10.05 g/m*3 23.7 C 0 km/h
1857 23-07-2010 11:35:02 24.4 C 9.57 g/m*3 24.4 C 0 km/h
1858 23-07-2010 11:47:01 24.6 C 9.45 g/m*3 24.6 C 0 km/h
1859 23-07-2010 11:59:01 24.8 C 9.1 g/m*3 24.8 C 0 km/h
1860 23-07-2010 12:11:02 25.9 C 9.2 g/m*3 25.9 C 0 km/h
1861 23-07-2010 12:23:01 26.4 C 7.97 g/m*3 26.4 C 0 km/h
1862 23-07-2010 12:35:01 27.2 C 7.81 g/m*3 27.2 C 0 km/h
1863 23-07-2010 12:47:01 26.9 C 7.68 g/m*3 26.9 C 0 km/h
1864 23-07-2010 12:59:01 25.9 C 7.75 g/m*3 25.9 C 0 km/h
1865 23-07-2010 13:11:01 26.4 C 7.22 g/m*3 26.4 C 0 km/h
1866 23-07-2010 13:23:02 28.2 C 6.87 g/m*3 28.2 C 0 km/h
1867 23-07-2010 13:35:01 28.7 C 6.22 g/m*3 28.7 C 0 km/h
1868 23-07-2010 13:47:02 28 C 5.98 g/m*3 28 C 0 km/h
1869 23-07-2010 13:59:02 27.8 C 6.72 g/m*3 27.8 C 0 km/h
1870 23-07-2010 14:11:02 28.8 C 6.82 g/m*3 28.8 C 0 km/h
1871 23-07-2010 14:23:02 28.6 C 6.74 g/m*3 28.6 C 0 km/h
1872 23-07-2010 14:35:02 29.5 C 6.49 g/m*3 29.5 C 0 km/h
1873 23-07-2010 14:47:03 29.7 C 6.56 g/m*3 29.7 C 0 km/h
1874 23-07-2010 14:59:03 30.1 C 6.1 g/m*3 30.1 C 0 km/h
1875 23-07-2010 15:11:02 28.9 C 5.71 g/m*3 28.9 C 0 km/h
Sensor: Nr:Datum:Temp:Abs-Feuchte:Windchill:Wind:
Aussen-T/F 1876 23-07-2010 15:23:02 28.9 C 6.57 g/m*3 28.9 C 0 km/h
1877 23-07-2010 15:35:02 28.5 C 6.43 g/m*3 28.5 C 0 km/h
1878 23-07-2010 15:47:02 27.8 C 6.46 g/m*3 27.8 C 0 km/h
1879 23-07-2010 15:59:02 27.9 C 6.76 g/m*3 27.9 C 0 km/h
1880 23-07-2010 16:11:02 28.8 C 6.25 g/m*3 28.8 C 0 km/h
1881 23-07-2010 16:23:03 29.5 C 6.2 g/m*3 29.5 C 0 km/h
1882 23-07-2010 16:35:02 28.7 C 6.22 g/m*3 28.7 C 0 km/h
1883 23-07-2010 16:47:02 28.2 C 6.32 g/m*3 28.2 C 0 km/h
1884 23-07-2010 16:59:02 27.5 C 6.61 g/m*3 27.5 C 0 km/h
1885 23-07-2010 17:11:02 26.4 C 7.22 g/m*3 26.4 C 0 km/h
1886 23-07-2010 17:23:02 24.5 C 6.94 g/m*3 24.5 C 0 km/h
1887 23-07-2010 17:35:03 21.9 C 8.88 g/m*3 21.9 C 0 km/h
1888 23-07-2010 17:47:02 20.1 C 10.26 g/m*3 20.1 C 0 km/h
1889 23-07-2010 17:59:02 18.7 C 11.37 g/m*3 18.7 C 0 km/h
1890 23-07-2010 18:11:02 18.3 C 11.26 g/m*3 18.3 C 0 km/h
1891 23-07-2010 18:23:02 18 C 11.52 g/m*3 18 C 0 km/h
1892 23-07-2010 18:35:02 18 C 11.67 g/m*3 18 C 0 km/h
1893 23-07-2010 18:47:02 18.2 C 11.66 g/m*3 18.2 C 0 km/h
1894 23-07-2010 18:59:02 18 C 11.52 g/m*3 18 C 0 km/h
1895 23-07-2010 19:11:01 17.3 C 11.79 g/m*3 17.3 C 0 km/h
1896 23-07-2010 19:23:02 17.5 C 12.37 g/m*3 17.5 C 0 km/h
1897 23-07-2010 19:35:01 17 C 12.15 g/m*3 17 C 0 km/h
1898 23-07-2010 19:47:01 16.8 C 12.44 g/m*3 16.8 C 0 km/h
1899 23-07-2010 19:59:01 16.2 C 12.14 g/m*3 16.2 C 0 km/h
1900 23-07-2010 20:11:01 16 C 12.13 g/m*3 16 C 0 km/h
Sensor: Nr:Datum:Temp:Abs-Feuchte:Windchill:Wind:
Aussen-T/F 1901 23-07-2010 20:23:02 15.9 C 12.19 g/m*3 15.9 C 0 km/h
1902 23-07-2010 20:35:01 16 C 12.26 g/m*3 16 C 0 km/h
1903 23-07-2010 20:47:02 16.1 C 12.47 g/m*3 16.1 C 0 km/h
1904 23-07-2010 20:59:02 15.9 C 12.46 g/m*3 15.9 C 0 km/h
1905 23-07-2010 21:11:01 15.9 C 12.46 g/m*3 15.9 C 0 km/h
1906 23-07-2010 21:23:02 15.8 C 12.38 g/m*3 15.8 C 0 km/h
1907 23-07-2010 21:35:01 15.6 C 12.23 g/m*3 15.6 C 0 km/h
1908 23-07-2010 21:47:01 15.4 C 12.09 g/m*3 15.4 C 0 km/h
1909 23-07-2010 21:59:01 15.2 C 12.07 g/m*3 15.2 C 0 km/h
1910 23-07-2010 22:11:01 15.1 C 12 g/m*3 15.1 C 0 km/h
1911 23-07-2010 22:23:02 15.2 C 12.07 g/m*3 15.2 C 0 km/h
1912 23-07-2010 22:35:01 15.1 C 12 g/m*3 15.1 C 0 km/h
1913 23-07-2010 22:48:02 15.1 C 12 g/m*3 15.1 C 0 km/h
1914 23-07-2010 23:00:02 15.3 C 12.14 g/m*3 15.3 C 0 km/h
1915 23-07-2010 23:12:02 15.1 C 12 g/m*3 15.1 C 0 km/h
1916 23-07-2010 23:24:02 15.1 C 12.13 g/m*3 15.1 C 0 km/h
1917 23-07-2010 23:36:02 15 C 12.05 g/m*3 15 C 0 km/h
1918 23-07-2010 23:48:02 15 C 12.05 g/m*3 15 C 0 km/h
1919 24-07-2010 00:00:02 15 C 12.05 g/m*3 15 C 0 km/h
1920 24-07-2010 00:12:02 15 C 12.05 g/m*3 15 C 0 km/h
1921 24-07-2010 00:24:02 15 C 12.05 g/m*3 15 C 0 km/h
1922 24-07-2010 00:36:02 15 C 12.05 g/m*3 15 C 0 km/h
1923 24-07-2010 00:48:03 15.1 C 12.13 g/m*3 15.1 C 0 km/h
1924 24-07-2010 01:00:03 15 C 12.05 g/m*3 15 C 0 km/h
1925 24-07-2010 01:12:03 15 C 12.05 g/m*3 15 C 0 km/h
Sensor: Nr:Datum:Temp:Abs-Feuchte:Windchill:Wind:
Aussen-T/F 1926 24-07-2010 01:24:03 15.2 C 12.2 g/m*3 15.2 C 0 km/h
1927 24-07-2010 01:36:03 15.2 C 12.2 g/m*3 15.2 C 0 km/h
1928 24-07-2010 01:48:03 15.2 C 12.2 g/m*3 15.2 C 0 km/h
1929 24-07-2010 02:00:03 15.2 C 12.33 g/m*3 15.2 C 0 km/h
1930 24-07-2010 02:12:03 15.2 C 12.33 g/m*3 15.2 C 0 km/h
1931 24-07-2010 02:24:03 15.2 C 12.33 g/m*3 15.2 C 0 km/h
1932 24-07-2010 02:36:03 15.3 C 12.41 g/m*3 15.3 C 0 km/h
1933 24-07-2010 02:48:03 15.4 C 12.48 g/m*3 15.4 C 0 km/h
1934 24-07-2010 03:00:03 15.4 C 12.48 g/m*3 15.4 C 0 km/h
1935 24-07-2010 03:12:03 15.4 C 12.48 g/m*3 15.4 C 0 km/h
1936 24-07-2010 03:24:03 15.6 C 12.63 g/m*3 15.6 C 0 km/h
1937 24-07-2010 03:36:03 15.7 C 12.71 g/m*3 15.7 C 0 km/h
1938 24-07-2010 03:48:03 15.7 C 12.71 g/m*3 15.7 C 0 km/h
1939 24-07-2010 04:00:03 15.7 C 12.71 g/m*3 15.7 C 0 km/h
1940 24-07-2010 04:12:03 15.6 C 12.5 g/m*3 15.6 C 0 km/h
1941 24-07-2010 04:24:03 15.7 C 12.44 g/m*3 15.7 C 0 km/h
1942 24-07-2010 04:36:03 15.6 C 12.23 g/m*3 15.6 C 0 km/h
1943 24-07-2010 04:48:03 15.6 C 12.1 g/m*3 15.6 C 0 km/h
1944 24-07-2010 05:00:03 15.6 C 12.1 g/m*3 15.6 C 0 km/h
1945 24-07-2010 05:12:04 15.6 C 11.97 g/m*3 15.6 C 0 km/h
1946 24-07-2010 05:24:04 15.5 C 11.9 g/m*3 15.5 C 0 km/h
1947 24-07-2010 05:36:04 15.5 C 11.9 g/m*3 15.5 C 0 km/h
1948 24-07-2010 05:48:04 15.5 C 11.9 g/m*3 15.5 C 0 km/h
1949 24-07-2010 06:00:04 15.4 C 11.82 g/m*3 15.4 C 0 km/h
1950 24-07-2010 06:12:04 15.4 C 11.69 g/m*3 15.4 C 0 km/h
Sensor: Nr:Datum:Temp:Abs-Feuchte:Windchill:Wind:
Aussen-T/F 1951 24-07-2010 06:24:04 15.4 C 11.56 g/m*3 15.4 C 0 km/h
1952 24-07-2010 06:36:04 15.5 C 11.63 g/m*3 15.5 C 0 km/h
1953 24-07-2010 06:48:04 15.4 C 11.56 g/m*3 15.4 C 0 km/h
1954 24-07-2010 07:00:04 15.4 C 11.56 g/m*3 15.4 C 0 km/h
1955 24-07-2010 07:12:04 15.4 C 11.56 g/m*3 15.4 C 0 km/h
1956 24-07-2010 07:24:04 15.5 C 11.63 g/m*3 15.5 C 0 km/h
1957 24-07-2010 07:36:04 15.6 C 11.57 g/m*3 15.6 C 0 km/h
1958 24-07-2010 07:48:04 15.6 C 11.57 g/m*3 15.6 C 0 km/h
1959 24-07-2010 08:00:04 15.8 C 11.58 g/m*3 15.8 C 0 km/h
1960 24-07-2010 08:12:04 16 C 11.31 g/m*3 16 C 0 km/h
1961 24-07-2010 08:24:04 16.1 C 11.24 g/m*3 16.1 C 0 km/h
1962 24-07-2010 08:36:02 16.4 C 11.31 g/m*3 16.4 C 0 km/h
1963 24-07-2010 08:48:02 16.5 C 11.09 g/m*3 16.5 C 0 km/h
1964 24-07-2010 09:00:02 16.6 C 11.02 g/m*3 16.6 C 0 km/h
1965 24-07-2010 09:12:02 17 C 11 g/m*3 17 C 0 km/h
1966 24-07-2010 09:24:02 17.4 C 11.12 g/m*3 17.4 C 0 km/h
1967 24-07-2010 09:36:03 17.6 C 10.65 g/m*3 17.6 C 0 km/h
1968 24-07-2010 09:48:02 17.6 C 10.2 g/m*3 17.6 C 0 km/h
1969 24-07-2010 10:00:02 17.6 C 9.9 g/m*3 17.6 C 0 km/h
1970 24-07-2010 10:12:02 18.4 C 10.22 g/m*3 18.4 C 0 km/h
1971 24-07-2010 10:24:02 18.9 C 9.88 g/m*3 18.9 C 0 km/h
1972 24-07-2010 10:36:02 19.2 C 9.56 g/m*3 19.2 C 0 km/h
1973 24-07-2010 10:48:02 19 C 8.64 g/m*3 19 C 0 km/h
1974 24-07-2010 11:00:02 19.8 C 9.39 g/m*3 19.8 C 0 km/h
1975 24-07-2010 11:12:02 19.9 C 8.76 g/m*3 19.9 C 0 km/h
Sensor: Nr:Datum:Temp:Abs-Feuchte:Windchill:Wind:
Aussen-T/F 1976 24-07-2010 11:24:02 18.7 C 8.97 g/m*3 18.7 C 0 km/h
1977 24-07-2010 11:36:02 19.4 C 8.51 g/m*3 19.4 C 0 km/h
1978 24-07-2010 11:48:02 19.4 C 8.51 g/m*3 19.4 C 0 km/h
1979 24-07-2010 12:00:02 19.5 C 8.39 g/m*3 19.5 C 0 km/h
1980 24-07-2010 12:12:01 20.5 C 8.36 g/m*3 20.5 C 0 km/h
1981 24-07-2010 12:24:01 20.3 C 8.09 g/m*3 20.3 C 0 km/h
1982 24-07-2010 12:36:01 20.8 C 8.33 g/m*3 20.8 C 0 km/h
1983 24-07-2010 12:48:02 21.5 C 7.73 g/m*3 21.5 C 0 km/h
1984 24-07-2010 13:00:02 20.9 C 7.1 g/m*3 20.9 C 0 km/h
1985 24-07-2010 13:12:02 22.9 C 6.95 g/m*3 22.9 C 0 km/h
1986 24-07-2010 13:24:02 24.3 C 6.2 g/m*3 24.3 C 0 km/h
1987 24-07-2010 13:36:01 23.4 C 6.31 g/m*3 23.4 C 0 km/h
1988 24-07-2010 13:48:02 22.1 C 6.44 g/m*3 22.1 C 0 km/h
1989 24-07-2010 14:00:02 23.8 C 6.02 g/m*3 23.8 C 0 km/h
1990 24-07-2010 14:12:01 23.4 C 5.89 g/m*3 23.4 C 0 km/h
1991 24-07-2010 14:24:02 23.1 C 6.41 g/m*3 23.1 C 0 km/h
1992 24-07-2010 14:36:01 22.8 C 6.3 g/m*3 22.8 C 0 km/h
1993 24-07-2010 14:48:02 24.3 C 6.2 g/m*3 24.3 C 0 km/h
1994 24-07-2010 15:00:02 24 C 5.66 g/m*3 24 C 0 km/h
1995 24-07-2010 15:12:02 23.2 C 5.61 g/m*3 23.2 C 0 km/h
1996 24-07-2010 15:24:02 24.5 C 6.27 g/m*3 24.5 C 0 km/h
1997 24-07-2010 15:36:02 25.1 C 5.32 g/m*3 25.1 C 0 km/h
1998 24-07-2010 15:48:01 23.7 C 4.49 g/m*3 23.7 C 0 km/h
1999 24-07-2010 16:00:01 23.2 C 5.2 g/m*3 23.2 C 0 km/h
2000 24-07-2010 16:12:02 23.6 C 4.68 g/m*3 23.6 C 0 km/h
Sensor: Nr:Datum:Temp:Abs-Feuchte:Windchill:Wind:
Aussen-T/F 2001 24-07-2010 16:24:01 24.8 C 4.55 g/m*3 24.8 C 0 km/h
2002 24-07-2010 16:36:01 23.6 C 4.47 g/m*3 23.6 C 0 km/h
2003 24-07-2010 16:48:01 24.1 C 4.38 g/m*3 24.1 C 0 km/h
2004 24-07-2010 17:00:01 24.2 C 4.4 g/m*3 24.2 C 0 km/h
2005 24-07-2010 17:12:02 25.5 C 4.73 g/m*3 25.5 C 0 km/h
2006 24-07-2010 17:24:02 25.1 C 4.63 g/m*3 25.1 C 0 km/h
2007 24-07-2010 17:36:01 24.1 C 4.38 g/m*3 24.1 C 0 km/h
2008 24-07-2010 17:48:02 22.9 C 4.09 g/m*3 22.9 C 0 km/h
2009 24-07-2010 18:00:02 23 C 4.11 g/m*3 23 C 0 km/h
2010 24-07-2010 18:12:01 23.8 C 4.3 g/m*3 23.8 C 0 km/h
2011 24-07-2010 18:24:02 24.1 C 4.38 g/m*3 24.1 C 0 km/h
2012 24-07-2010 18:36:01 23.4 C 4.21 g/m*3 23.4 C 0 km/h
2013 24-07-2010 18:48:02 23.1 C 4.13 g/m*3 23.1 C 0 km/h
2014 24-07-2010 19:00:02 23.6 C 4.25 g/m*3 23.6 C 0 km/h
2015 24-07-2010 19:12:02 23.5 C 4.23 g/m*3 23.5 C 0 km/h
2016 24-07-2010 19:24:02 23.4 C 4.21 g/m*3 23.4 C 0 km/h
2017 24-07-2010 19:36:02 22.7 C 4.04 g/m*3 22.7 C 0 km/h
2018 24-07-2010 19:48:02 22.9 C 4.09 g/m*3 22.9 C 0 km/h
2019 24-07-2010 20:00:02 23 C 4.11 g/m*3 23 C 0 km/h
2020 24-07-2010 20:12:02 23.1 C 4.13 g/m*3 23.1 C 0 km/h
2021 24-07-2010 20:24:01 22.8 C 4.06 g/m*3 22.8 C 0 km/h
2022 24-07-2010 20:36:02 22.6 C 4.02 g/m*3 22.6 C 0 km/h
2023 24-07-2010 20:48:02 22.1 C 3.9 g/m*3 22.1 C 0 km/h
2024 24-07-2010 21:00:02 21.2 C 3.71 g/m*3 21.2 C 0 km/h
2025 24-07-2010 21:12:02 20.3 C 4.4 g/m*3 20.3 C 0 km/h
Sensor: Nr:Datum:Temp:Abs-Feuchte:Windchill:Wind:
Aussen-T/F 2026 24-07-2010 21:24:01 19.7 C 4.58 g/m*3 19.7 C 0 km/h
2027 24-07-2010 21:36:02 19 C 4.73 g/m*3 19 C 0 km/h
2028 24-07-2010 21:48:01 18.6 C 4.93 g/m*3 18.6 C 0 km/h
2029 24-07-2010 22:00:01 18.1 C 5.1 g/m*3 18.1 C 0 km/h
2030 24-07-2010 22:12:02 17.6 C 5.25 g/m*3 17.6 C 0 km/h
2031 24-07-2010 22:24:01 17.5 C 5.07 g/m*3 17.5 C 0 km/h
2032 24-07-2010 22:36:02 17.2 C 5.13 g/m*3 17.2 C 0 km/h
2033 24-07-2010 22:49:02 17.1 C 5.39 g/m*3 17.1 C 0 km/h
2034 24-07-2010 23:01:02 16.7 C 5.83 g/m*3 16.7 C 0 km/h
2035 24-07-2010 23:13:02 16.3 C 5.83 g/m*3 16.3 C 0 km/h
2036 24-07-2010 23:25:02 15.9 C 6.23 g/m*3 15.9 C 0 km/h
2037 24-07-2010 23:37:02 15.5 C 6.34 g/m*3 15.5 C 0 km/h
2038 24-07-2010 23:49:02 15.2 C 6.23 g/m*3 15.2 C 0 km/h
2039 25-07-2010 00:01:02 15 C 6.41 g/m*3 15 C 0 km/h
2040 25-07-2010 00:13:02 14.8 C 6.71 g/m*3 14.8 C 0 km/h
2041 25-07-2010 00:25:02 14.6 C 6.76 g/m*3 14.6 C 0 km/h
2042 25-07-2010 00:37:02 14.2 C 6.47 g/m*3 14.2 C 0 km/h
2043 25-07-2010 00:49:02 14.1 C 6.55 g/m*3 14.1 C 0 km/h
2044 25-07-2010 01:01:02 13.8 C 6.79 g/m*3 13.8 C 0 km/h
2045 25-07-2010 01:13:03 13.7 C 6.87 g/m*3 13.7 C 0 km/h
2046 25-07-2010 01:25:03 13.5 C 6.78 g/m*3 13.5 C 0 km/h
2047 25-07-2010 01:37:03 13.3 C 6.82 g/m*3 13.3 C 0 km/h
2048 25-07-2010 01:49:03 13.2 C 6.77 g/m*3 13.2 C 0 km/h
2049 25-07-2010 02:01:03 13.1 C 6.96 g/m*3 13.1 C 0 km/h
2050 25-07-2010 02:13:03 12.9 C 6.99 g/m*3 12.9 C 0 km/h
Sensor: Nr:Datum:Temp:Abs-Feuchte:Windchill:Wind:
Aussen-T/F 2051 25-07-2010 02:25:03 12.7 C 7.01 g/m*3 12.7 C 0 km/h
2052 25-07-2010 02:37:03 12.5 C 6.93 g/m*3 12.5 C 0 km/h
2053 25-07-2010 02:49:03 12.3 C 6.95 g/m*3 12.3 C 0 km/h
2054 25-07-2010 03:01:03 12.2 C 7.01 g/m*3 12.2 C 0 km/h
2055 25-07-2010 03:13:03 12 C 7.14 g/m*3 12 C 0 km/h
2056 25-07-2010 03:25:03 11.8 C 7.05 g/m*3 11.8 C 0 km/h
2057 25-07-2010 03:37:03 11.8 C 7.05 g/m*3 11.8 C 0 km/h
2058 25-07-2010 03:49:03 11.5 C 7.02 g/m*3 11.5 C 0 km/h
2059 25-07-2010 04:01:03 11.3 C 7.14 g/m*3 11.3 C 0 km/h
2060 25-07-2010 04:13:03 11.1 C 7.25 g/m*3 11.1 C 0 km/h
2061 25-07-2010 04:25:03 11 C 7.31 g/m*3 11 C 0 km/h
2062 25-07-2010 04:37:03 10.8 C 7.41 g/m*3 10.8 C 0 km/h
2063 25-07-2010 04:49:03 10.6 C 7.42 g/m*3 10.6 C 0 km/h
2064 25-07-2010 05:01:03 10.5 C 7.47 g/m*3 10.5 C 0 km/h
2065 25-07-2010 05:13:03 10.3 C 7.37 g/m*3 10.3 C 0 km/h
2066 25-07-2010 05:25:03 10.1 C 7.38 g/m*3 10.1 C 0 km/h
2067 25-07-2010 05:37:04 10 C 7.33 g/m*3 10 C 0 km/h
2068 25-07-2010 05:49:04 9.9 C 7.38 g/m*3 9.9 C 0 km/h
2069 25-07-2010 06:01:04 10 C 7.33 g/m*3 10 C 0 km/h
2070 25-07-2010 06:13:04 10 C 7.42 g/m*3 10 C 0 km/h
2071 25-07-2010 06:25:04 10 C 7.42 g/m*3 10 C 0 km/h
2072 25-07-2010 06:37:04 10 C 7.42 g/m*3 10 C 0 km/h
2073 25-07-2010 06:49:04 10.2 C 7.42 g/m*3 10.2 C 0 km/h
2074 25-07-2010 07:01:04 10.3 C 7.47 g/m*3 10.3 C 0 km/h
2075 25-07-2010 07:13:04 10.7 C 7.56 g/m*3 10.7 C 0 km/h
Sensor: Nr:Datum:Temp:Abs-Feuchte:Windchill:Wind:
Aussen-T/F 2076 25-07-2010 07:25:04 11 C 7.61 g/m*3 11 C 0 km/h
2077 25-07-2010 07:37:04 11.2 C 7.5 g/m*3 11.2 C 0 km/h
2078 25-07-2010 07:49:04 11.4 C 7.6 g/m*3 11.4 C 0 km/h
2079 25-07-2010 08:01:04 11.5 C 7.75 g/m*3 11.5 C 0 km/h
2080 25-07-2010 08:13:04 11.5 C 7.95 g/m*3 11.5 C 0 km/h
2081 25-07-2010 08:25:04 12 C 7.99 g/m*3 12 C 0 km/h
2082 25-07-2010 08:37:04 12.5 C 7.92 g/m*3 12.5 C 0 km/h
2083 25-07-2010 08:49:04 13.1 C 7.87 g/m*3 13.1 C 0 km/h
2084 25-07-2010 09:01:04 13.8 C 7.86 g/m*3 13.8 C 0 km/h
2085 25-07-2010 09:13:04 14.3 C 7.49 g/m*3 14.3 C 0 km/h
2086 25-07-2010 09:25:04 14.8 C 7.6 g/m*3 14.8 C 0 km/h
2087 25-07-2010 09:37:04 15.6 C 7.58 g/m*3 15.6 C 0 km/h
2088 25-07-2010 09:49:02 16.2 C 7.45 g/m*3 16.2 C 0 km/h
2089 25-07-2010 10:01:02 16.6 C 7.2 g/m*3 16.6 C 0 km/h
2090 25-07-2010 10:13:02 17.5 C 7.01 g/m*3 17.5 C 0 km/h
2091 25-07-2010 10:25:02 17.8 C 6.68 g/m*3 17.8 C 0 km/h
2092 25-07-2010 10:37:02 18.4 C 6.45 g/m*3 18.4 C 0 km/h
2093 25-07-2010 10:49:02 18.7 C 6.4 g/m*3 18.7 C 0 km/h
2094 25-07-2010 11:01:02 19.3 C 6.3 g/m*3 19.3 C 0 km/h
2095 25-07-2010 11:13:02 20.9 C 6.37 g/m*3 20.9 C 0 km/h
2096 25-07-2010 11:25:03 21.2 C 5.93 g/m*3 21.2 C 0 km/h
2097 25-07-2010 11:37:02 21.2 C 5.93 g/m*3 21.2 C 0 km/h
2098 25-07-2010 11:49:03 21.7 C 6.1 g/m*3 21.7 C 0 km/h
2099 25-07-2010 12:01:02 21.5 C 6.03 g/m*3 21.5 C 0 km/h
2100 25-07-2010 12:13:03 22.3 C 6.12 g/m*3 22.3 C 0 km/h
Sensor: Nr:Datum:Temp:Abs-Feuchte:Windchill:Wind:
Aussen-T/F 2101 25-07-2010 12:25:02 23.2 C 5.82 g/m*3 23.2 C 0 km/h
2102 25-07-2010 12:37:02 24.2 C 5.72 g/m*3 24.2 C 0 km/h
2103 25-07-2010 12:49:02 23.5 C 5.71 g/m*3 23.5 C 0 km/h
2104 25-07-2010 13:01:02 23.5 C 6.13 g/m*3 23.5 C 0 km/h
2105 25-07-2010 13:13:02 23.3 C 6.06 g/m*3 23.3 C 0 km/h
2106 25-07-2010 13:25:03 23.2 C 6.24 g/m*3 23.2 C 0 km/h
2107 25-07-2010 13:37:02 23.5 C 6.34 g/m*3 23.5 C 0 km/h
2108 25-07-2010 13:49:03 23.4 C 6.31 g/m*3 23.4 C 0 km/h
2109 25-07-2010 14:01:02 23.2 C 6.44 g/m*3 23.2 C 0 km/h
2110 25-07-2010 14:13:02 22.6 C 7.43 g/m*3 22.6 C 0 km/h
2111 25-07-2010 14:25:02 21.5 C 6.79 g/m*3 21.5 C 0 km/h
2112 25-07-2010 14:37:02 21.6 C 7.21 g/m*3 21.6 C 0 km/h
2113 25-07-2010 14:49:02 22.1 C 6.83 g/m*3 22.1 C 0 km/h
2114 25-07-2010 15:01:02 22.2 C 6.87 g/m*3 22.2 C 0 km/h
2115 25-07-2010 15:13:02 22.2 C 6.68 g/m*3 22.2 C 0 km/h
2116 25-07-2010 15:25:02 21.6 C 6.83 g/m*3 21.6 C 0 km/h
2117 25-07-2010 15:37:01 21 C 7.14 g/m*3 21 C 0 km/h
2118 25-07-2010 15:49:02 20.9 C 7.47 g/m*3 20.9 C 0 km/h
2119 25-07-2010 16:01:01 21.6 C 7.21 g/m*3 21.6 C 0 km/h
2120 25-07-2010 16:13:01 21.9 C 7.14 g/m*3 21.9 C 0 km/h
2121 25-07-2010 16:25:02 22.1 C 6.83 g/m*3 22.1 C 0 km/h
2122 25-07-2010 16:37:02 22.1 C 7.03 g/m*3 22.1 C 0 km/h
2123 25-07-2010 16:49:02 22.2 C 7.46 g/m*3 22.2 C 0 km/h
2124 25-07-2010 17:01:03 23.5 C 6.77 g/m*3 23.5 C 0 km/h
2125 25-07-2010 17:13:03 23.7 C 6.63 g/m*3 23.7 C 0 km/h
Sensor: Nr:Datum:Temp:Abs-Feuchte:Windchill:Wind:
Aussen-T/F 2126 25-07-2010 17:25:02 23.3 C 6.69 g/m*3 23.3 C 0 km/h
2127 25-07-2010 17:37:02 23.4 C 6.31 g/m*3 23.4 C 0 km/h
2128 25-07-2010 17:49:01 23.1 C 6.61 g/m*3 23.1 C 0 km/h
2129 25-07-2010 18:01:02 22.8 C 7.32 g/m*3 22.8 C 0 km/h
2130 25-07-2010 18:13:02 22.5 C 7.39 g/m*3 22.5 C 0 km/h
2131 25-07-2010 18:25:01 22.4 C 7.35 g/m*3 22.4 C 0 km/h
2132 25-07-2010 18:37:01 22 C 7.57 g/m*3 22 C 0 km/h
2133 25-07-2010 18:49:01 21.6 C 7.97 g/m*3 21.6 C 0 km/h
2134 25-07-2010 19:01:02 21.3 C 8.2 g/m*3 21.3 C 0 km/h
2135 25-07-2010 19:13:02 20.9 C 8.2 g/m*3 20.9 C 0 km/h
2136 25-07-2010 19:25:02 20.6 C 8.59 g/m*3 20.6 C 0 km/h
2137 25-07-2010 19:37:01 20.6 C 7.34 g/m*3 20.6 C 0 km/h
2138 25-07-2010 19:49:01 20.6 C 7.16 g/m*3 20.6 C 0 km/h
2139 25-07-2010 20:01:01 20.6 C 7.34 g/m*3 20.6 C 0 km/h
2140 25-07-2010 20:13:01 20.5 C 7.3 g/m*3 20.5 C 0 km/h
2141 25-07-2010 20:25:02 20.4 C 7.43 g/m*3 20.4 C 0 km/h
2142 25-07-2010 20:37:01 19.9 C 8.08 g/m*3 19.9 C 0 km/h
2143 25-07-2010 20:49:02 19.4 C 8.84 g/m*3 19.4 C 0 km/h
2144 25-07-2010 21:01:01 19.1 C 9.18 g/m*3 19.1 C 0 km/h
2145 25-07-2010 21:13:01 19.2 C 9.23 g/m*3 19.2 C 0 km/h
2146 25-07-2010 21:25:02 19.1 C 9.51 g/m*3 19.1 C 0 km/h
2147 25-07-2010 21:37:01 19.1 C 9.51 g/m*3 19.1 C 0 km/h
2148 25-07-2010 21:49:01 18.9 C 9.72 g/m*3 18.9 C 0 km/h
2149 25-07-2010 22:01:01 18.8 C 9.82 g/m*3 18.8 C 0 km/h
2150 25-07-2010 22:13:01 18.5 C 9.97 g/m*3 18.5 C 0 km/h
Sensor: Nr:Datum:Temp:Abs-Feuchte:Windchill:Wind:
Aussen-T/F 2151 25-07-2010 22:26:02 18.3 C 10.16 g/m*3 18.3 C 0 km/h
2152 25-07-2010 22:38:02 18.2 C 10.41 g/m*3 18.2 C 0 km/h
2153 25-07-2010 22:50:02 18.1 C 10.51 g/m*3 18.1 C 0 km/h
2154 25-07-2010 23:02:03 17.9 C 10.54 g/m*3 17.9 C 0 km/h
2155 25-07-2010 23:14:03 18 C 10.29 g/m*3 18 C 0 km/h
2156 25-07-2010 23:26:03 17.9 C 10.23 g/m*3 17.9 C 0 km/h
2157 25-07-2010 23:38:03 17.8 C 10.17 g/m*3 17.8 C 0 km/h
2158 25-07-2010 23:50:03 17.8 C 10.17 g/m*3 17.8 C 0 km/h
2159 26-07-2010 00:02:03 17.6 C 9.9 g/m*3 17.6 C 0 km/h
2160 26-07-2010 00:14:03 17.6 C 9.9 g/m*3 17.6 C 0 km/h
2161 26-07-2010 00:26:03 17.6 C 9.9 g/m*3 17.6 C 0 km/h
2162 26-07-2010 00:38:03 17.6 C 10.05 g/m*3 17.6 C 0 km/h
2163 26-07-2010 00:50:03 17.4 C 9.93 g/m*3 17.4 C 0 km/h
2164 26-07-2010 01:02:03 17.3 C 9.87 g/m*3 17.3 C 0 km/h
2165 26-07-2010 01:14:03 17.2 C 9.96 g/m*3 17.2 C 0 km/h
2166 26-07-2010 01:26:03 17.2 C 9.96 g/m*3 17.2 C 0 km/h
2167 26-07-2010 01:38:03 17.3 C 10.02 g/m*3 17.3 C 0 km/h
2168 26-07-2010 01:50:03 17.3 C 10.16 g/m*3 17.3 C 0 km/h
2169 26-07-2010 02:02:03 17 C 9.98 g/m*3 17 C 0 km/h
2170 26-07-2010 02:14:03 16.9 C 10.07 g/m*3 16.9 C 0 km/h
2171 26-07-2010 02:26:03 16.8 C 10.01 g/m*3 16.8 C 0 km/h
2172 26-07-2010 02:38:03 16.8 C 10.15 g/m*3 16.8 C 0 km/h
2173 26-07-2010 02:50:03 16.5 C 9.97 g/m*3 16.5 C 0 km/h
2174 26-07-2010 03:02:03 16.4 C 10.05 g/m*3 16.4 C 0 km/h
2175 26-07-2010 03:14:03 16.4 C 10.19 g/m*3 16.4 C 0 km/h
Sensor: Nr:Datum:Temp:Abs-Feuchte:Windchill:Wind:
Aussen-T/F 2176 26-07-2010 03:26:03 16.4 C 10.33 g/m*3 16.4 C 0 km/h
2177 26-07-2010 03:38:04 16.4 C 10.33 g/m*3 16.4 C 0 km/h
2178 26-07-2010 03:50:04 16.5 C 10.11 g/m*3 16.5 C 0 km/h
2179 26-07-2010 04:02:04 16.6 C 10.17 g/m*3 16.6 C 0 km/h
2180 26-07-2010 04:14:04 16.4 C 10.47 g/m*3 16.4 C 0 km/h
2181 26-07-2010 04:26:04 16.4 C 10.61 g/m*3 16.4 C 0 km/h
2182 26-07-2010 04:38:04 16.1 C 10.69 g/m*3 16.1 C 0 km/h
2183 26-07-2010 04:50:04 15.7 C 10.97 g/m*3 15.7 C 0 km/h
2184 26-07-2010 05:02:04 15.6 C 11.04 g/m*3 15.6 C 0 km/h
2185 26-07-2010 05:14:04 15.6 C 11.3 g/m*3 15.6 C 0 km/h
2186 26-07-2010 05:26:04 15.5 C 11.37 g/m*3 15.5 C 0 km/h
2187 26-07-2010 05:38:04 15.6 C 11.44 g/m*3 15.6 C 0 km/h
2188 26-07-2010 05:50:04 15.3 C 11.23 g/m*3 15.3 C 0 km/h
2189 26-07-2010 06:02:04 15.4 C 11.3 g/m*3 15.4 C 0 km/h
2190 26-07-2010 06:14:04 15.4 C 11.43 g/m*3 15.4 C 0 km/h
2191 26-07-2010 06:26:04 15.4 C 11.43 g/m*3 15.4 C 0 km/h
2192 26-07-2010 06:38:04 15.4 C 11.56 g/m*3 15.4 C 0 km/h
2193 26-07-2010 06:50:04 15.4 C 11.56 g/m*3 15.4 C 0 km/h
2194 26-07-2010 07:02:02 15.7 C 11.91 g/m*3 15.7 C 0 km/h
2195 26-07-2010 07:14:02 16 C 11.99 g/m*3 16 C 0 km/h
2196 26-07-2010 07:26:03 16 C 11.99 g/m*3 16 C 0 km/h
2197 26-07-2010 07:38:02 16.1 C 11.93 g/m*3 16.1 C 0 km/h
2198 26-07-2010 07:50:02 16.3 C 11.93 g/m*3 16.3 C 0 km/h
2199 26-07-2010 08:02:02 16.5 C 11.94 g/m*3 16.5 C 0 km/h
2200 26-07-2010 08:14:02 16.6 C 11.87 g/m*3 16.6 C 0 km/h
Sensor: Nr:Datum:Temp:Abs-Feuchte:Windchill:Wind:
Aussen-T/F 2201 26-07-2010 08:26:02 16.9 C 11.94 g/m*3 16.9 C 0 km/h
2202 26-07-2010 08:38:02 17.5 C 12.08 g/m*3 17.5 C 0 km/h
2203 26-07-2010 08:50:01 17.4 C 11.71 g/m*3 17.4 C 0 km/h
2204 26-07-2010 09:02:02 17.8 C 11.84 g/m*3 17.8 C 0 km/h
2205 26-07-2010 09:14:02 18.2 C 11.81 g/m*3 18.2 C 0 km/h
2206 26-07-2010 09:26:01 18.3 C 11.57 g/m*3 18.3 C 0 km/h
2207 26-07-2010 09:38:01 18.8 C 11.92 g/m*3 18.8 C 0 km/h
2208 26-07-2010 09:50:02 18.8 C 11.43 g/m*3 18.8 C 0 km/h
2209 26-07-2010 10:02:02 18.7 C 11.37 g/m*3 18.7 C 0 km/h
2210 26-07-2010 10:14:02 19.1 C 10.98 g/m*3 19.1 C 0 km/h
2211 26-07-2010 10:26:02 20.2 C 11.02 g/m*3 20.2 C 0 km/h
2212 26-07-2010 10:38:02 21.1 C 10.32 g/m*3 21.1 C 0 km/h
2213 26-07-2010 10:50:02 22.1 C 9.76 g/m*3 22.1 C 0 km/h
2214 26-07-2010 11:02:01 21.8 C 9.78 g/m*3 21.8 C 0 km/h
2215 26-07-2010 11:14:01 22.6 C 10.04 g/m*3 22.6 C 0 km/h
2216 26-07-2010 11:26:02 22.5 C 9.59 g/m*3 22.5 C 0 km/h
2217 26-07-2010 11:38:02 19.4 C 10.68 g/m*3 19.4 C 0 km/h
2218 26-07-2010 11:50:02 18.4 C 12.11 g/m*3 18.4 C 0 km/h
2219 26-07-2010 12:02:02 19.1 C 13.11 g/m*3 19.1 C 0 km/h
2220 26-07-2010 12:14:02 19.5 C 12.59 g/m*3 19.5 C 0 km/h
2221 26-07-2010 12:26:02 19.5 C 12.25 g/m*3 19.5 C 0 km/h
2222 26-07-2010 12:38:02 18.5 C 12.18 g/m*3 18.5 C 0 km/h
2223 26-07-2010 12:50:01 18.6 C 12.57 g/m*3 18.6 C 0 km/h
2224 26-07-2010 13:02:01 19 C 13.04 g/m*3 19 C 0 km/h
2225 26-07-2010 13:14:01 18.5 C 12.34 g/m*3 18.5 C 0 km/h
Sensor: Nr:Datum:Temp:Abs-Feuchte:Windchill:Wind:
Aussen-T/F 2226 26-07-2010 13:26:01 18 C 12.44 g/m*3 18 C 0 km/h
2227 26-07-2010 13:38:01 17.8 C 12.9 g/m*3 17.8 C 0 km/h
2228 26-07-2010 13:50:01 17.5 C 12.82 g/m*3 17.5 C 0 km/h
2229 26-07-2010 14:02:01 17.5 C 12.97 g/m*3 17.5 C 0 km/h
2230 26-07-2010 14:14:01 17.7 C 13.43 g/m*3 17.7 C 0 km/h
2231 26-07-2010 14:26:02 17.3 C 13.11 g/m*3 17.3 C 0 km/h
2232 26-07-2010 14:38:01 17.1 C 13.1 g/m*3 17.1 C 0 km/h
2233 26-07-2010 14:50:02 17.2 C 13.18 g/m*3 17.2 C 0 km/h
2234 26-07-2010 15:02:02 17.4 C 13.49 g/m*3 17.4 C 0 km/h
2235 26-07-2010 15:14:02 17.3 C 13.41 g/m*3 17.3 C 0 km/h
2236 26-07-2010 15:26:02 17.6 C 13.65 g/m*3 17.6 C 0 km/h
2237 26-07-2010 15:38:03 18.2 C 13.83 g/m*3 18.2 C 0 km/h
2238 26-07-2010 15:50:02 19.1 C 14.1 g/m*3 19.1 C 0 km/h
2239 26-07-2010 16:02:02 19.1 C 13.77 g/m*3 19.1 C 0 km/h
2240 26-07-2010 16:14:02 19.5 C 13.26 g/m*3 19.5 C 0 km/h
2241 26-07-2010 16:26:02 19.1 C 12.79 g/m*3 19.1 C 0 km/h
2242 26-07-2010 16:38:02 19.5 C 13.43 g/m*3 19.5 C 0 km/h
2243 26-07-2010 16:50:02 21.2 C 13.71 g/m*3 21.2 C 0 km/h
2244 26-07-2010 17:02:02 21 C 12.64 g/m*3 21 C 0 km/h
2245 26-07-2010 17:14:02 19.5 C 10.74 g/m*3 19.5 C 0 km/h
2246 26-07-2010 17:26:02 18.7 C 10.73 g/m*3 18.7 C 0 km/h
2247 26-07-2010 17:38:02 18.1 C 11.28 g/m*3 18.1 C 0 km/h
2248 26-07-2010 17:50:02 18.1 C 11.28 g/m*3 18.1 C 0 km/h
2249 26-07-2010 18:02:02 18.2 C 11.19 g/m*3 18.2 C 0 km/h
2250 26-07-2010 18:14:02 17.3 C 11.05 g/m*3 17.3 C 0 km/h
Sensor: Nr:Datum:Temp:Abs-Feuchte:Windchill:Wind:
Aussen-T/F 2251 26-07-2010 18:26:03 16.8 C 11.29 g/m*3 16.8 C 0 km/h
2252 26-07-2010 18:38:02 16.8 C 11.44 g/m*3 16.8 C 0 km/h
2253 26-07-2010 18:50:03 16.7 C 11.65 g/m*3 16.7 C 0 km/h
2254 26-07-2010 19:02:02 16.8 C 11.72 g/m*3 16.8 C 0 km/h
2255 26-07-2010 19:14:02 17.1 C 11.79 g/m*3 17.1 C 0 km/h
2256 26-07-2010 19:26:02 17.1 C 11.65 g/m*3 17.1 C 0 km/h
2257 26-07-2010 19:38:02 16.8 C 11.58 g/m*3 16.8 C 0 km/h
2258 26-07-2010 19:50:02 16.8 C 11.29 g/m*3 16.8 C 0 km/h
2259 26-07-2010 20:02:01 16.7 C 10.94 g/m*3 16.7 C 0 km/h
2260 26-07-2010 20:14:01 16.4 C 11.03 g/m*3 16.4 C 0 km/h
2261 26-07-2010 20:26:02 16.2 C 11.17 g/m*3 16.2 C 0 km/h
2262 26-07-2010 20:38:02 15.9 C 11.24 g/m*3 15.9 C 0 km/h
2263 26-07-2010 20:50:01 15.6 C 11.17 g/m*3 15.6 C 0 km/h
2264 26-07-2010 21:02:02 15.4 C 11.04 g/m*3 15.4 C 0 km/h
2265 26-07-2010 21:14:02 15.4 C 11.3 g/m*3 15.4 C 0 km/h
2266 26-07-2010 21:26:01 15.3 C 11.36 g/m*3 15.3 C 0 km/h
2267 26-07-2010 21:38:01 15.2 C 11.29 g/m*3 15.2 C 0 km/h
2268 26-07-2010 21:50:01 15.2 C 11.42 g/m*3 15.2 C 0 km/h
2269 26-07-2010 22:02:02 15.3 C 11.36 g/m*3 15.3 C 0 km/h
2270 26-07-2010 22:14:02 15.3 C 10.97 g/m*3 15.3 C 0 km/h
2271 26-07-2010 22:27:04 15.2 C 10.77 g/m*3 15.2 C 0 km/h
2272 26-07-2010 22:39:04 15.2 C 10.64 g/m*3 15.2 C 0 km/h
2273 26-07-2010 22:51:04 15.1 C 10.58 g/m*3 15.1 C 0 km/h
2274 26-07-2010 23:03:04 15.1 C 10.58 g/m*3 15.1 C 0 km/h
2275 26-07-2010 23:15:04 15.1 C 10.71 g/m*3 15.1 C 0 km/h
Sensor: Nr:Datum:Temp:Abs-Feuchte:Windchill:Wind:
Aussen-T/F 2276 26-07-2010 23:27:04 15.3 C 10.84 g/m*3 15.3 C 0 km/h
2277 26-07-2010 23:39:04 15.4 C 11.04 g/m*3 15.4 C 0 km/h
2278 26-07-2010 23:51:04 15.4 C 11.04 g/m*3 15.4 C 0 km/h
2279 27-07-2010 00:03:04 15.4 C 11.04 g/m*3 15.4 C 0 km/h
2280 27-07-2010 00:15:04 15.4 C 11.04 g/m*3 15.4 C 0 km/h
2281 27-07-2010 00:27:04 15.3 C 11.1 g/m*3 15.3 C 0 km/h
2282 27-07-2010 00:39:05 15.4 C 11.3 g/m*3 15.4 C 0 km/h
2283 27-07-2010 00:51:05 15.2 C 11.16 g/m*3 15.2 C 0 km/h
2284 27-07-2010 01:03:05 15.3 C 11.23 g/m*3 15.3 C 0 km/h
2285 27-07-2010 01:15:05 15.3 C 11.23 g/m*3 15.3 C 0 km/h
2286 27-07-2010 01:27:05 15.6 C 11.3 g/m*3 15.6 C 0 km/h
2287 27-07-2010 01:39:05 15.6 C 11.17 g/m*3 15.6 C 0 km/h
2288 27-07-2010 01:51:05 15.6 C 11.04 g/m*3 15.6 C 0 km/h
2289 27-07-2010 02:03:05 15.6 C 11.04 g/m*3 15.6 C 0 km/h
2290 27-07-2010 02:15:05 15.6 C 11.04 g/m*3 15.6 C 0 km/h
2291 27-07-2010 02:27:05 15.6 C 11.04 g/m*3 15.6 C 0 km/h
2292 27-07-2010 02:39:05 15.6 C 11.04 g/m*3 15.6 C 0 km/h
2293 27-07-2010 02:51:05 15.6 C 11.04 g/m*3 15.6 C 0 km/h
2294 27-07-2010 03:03:05 15.6 C 11.04 g/m*3 15.6 C 0 km/h
2295 27-07-2010 03:15:05 15.5 C 10.97 g/m*3 15.5 C 0 km/h
2296 27-07-2010 03:27:05 15.4 C 10.9 g/m*3 15.4 C 0 km/h
2297 27-07-2010 03:39:05 15.3 C 10.84 g/m*3 15.3 C 0 km/h
2298 27-07-2010 03:51:05 15.3 C 11.1 g/m*3 15.3 C 0 km/h
2299 27-07-2010 04:03:05 15.4 C 11.04 g/m*3 15.4 C 0 km/h
2300 27-07-2010 04:15:05 15.3 C 10.84 g/m*3 15.3 C 0 km/h
Sensor: Nr:Datum:Temp:Abs-Feuchte:Windchill:Wind:
Aussen-T/F 2301 27-07-2010 04:27:05 15.4 C 10.9 g/m*3 15.4 C 0 km/h
2302 27-07-2010 04:39:06 15.2 C 10.77 g/m*3 15.2 C 0 km/h
2303 27-07-2010 04:51:06 15 C 10.64 g/m*3 15 C 0 km/h
2304 27-07-2010 05:03:06 15.2 C 10.9 g/m*3 15.2 C 0 km/h
2305 27-07-2010 05:15:06 15.2 C 10.9 g/m*3 15.2 C 0 km/h
2306 27-07-2010 05:27:06 15.2 C 10.9 g/m*3 15.2 C 0 km/h
2307 27-07-2010 05:39:06 15 C 10.77 g/m*3 15 C 0 km/h
2308 27-07-2010 05:51:06 15.1 C 10.71 g/m*3 15.1 C 0 km/h
2309 27-07-2010 06:03:06 15.2 C 10.77 g/m*3 15.2 C 0 km/h
2310 27-07-2010 06:15:06 15.3 C 10.84 g/m*3 15.3 C 0 km/h
2311 27-07-2010 06:27:06 15.3 C 10.84 g/m*3 15.3 C 0 km/h
2312 27-07-2010 06:39:06 15.3 C 10.71 g/m*3 15.3 C 0 km/h
2313 27-07-2010 06:51:02 15.3 C 10.71 g/m*3 15.3 C 0 km/h
2314 27-07-2010 07:03:01 15.4 C 10.64 g/m*3 15.4 C 0 km/h
2315 27-07-2010 07:15:01 15.6 C 10.77 g/m*3 15.6 C 0 km/h
2316 27-07-2010 07:27:01 15.6 C 10.51 g/m*3 15.6 C 0 km/h
2317 27-07-2010 07:39:02 15.8 C 10.63 g/m*3 15.8 C 0 km/h
2318 27-07-2010 07:51:02 16 C 10.63 g/m*3 16 C 0 km/h
2319 27-07-2010 08:03:02 16.1 C 10.55 g/m*3 16.1 C 0 km/h
2320 27-07-2010 08:15:02 16.1 C 10.55 g/m*3 16.1 C 0 km/h
2321 27-07-2010 08:27:02 16.4 C 10.75 g/m*3 16.4 C 0 km/h
2322 27-07-2010 08:39:02 16.3 C 10.54 g/m*3 16.3 C 0 km/h
2323 27-07-2010 08:51:02 16.2 C 10.62 g/m*3 16.2 C 0 km/h
2324 27-07-2010 09:03:02 16.5 C 10.67 g/m*3 16.5 C 0 km/h
2325 27-07-2010 09:15:03 16.6 C 10.59 g/m*3 16.6 C 0 km/h
Sensor: Nr:Datum:Temp:Abs-Feuchte:Windchill:Wind:
Aussen-T/F 2326 27-07-2010 09:27:03 16.6 C 10.45 g/m*3 16.6 C 0 km/h
2327 27-07-2010 09:39:02 17.3 C 10.61 g/m*3 17.3 C 0 km/h
2328 27-07-2010 09:51:01 17.4 C 10.37 g/m*3 17.4 C 0 km/h
2329 27-07-2010 10:03:01 18 C 10.29 g/m*3 18 C 0 km/h
2330 27-07-2010 10:15:02 17.9 C 10.23 g/m*3 17.9 C 0 km/h
2331 27-07-2010 10:27:02 18.5 C 10.28 g/m*3 18.5 C 0 km/h
2332 27-07-2010 10:39:01 19.2 C 9.89 g/m*3 19.2 C 0 km/h
2333 27-07-2010 10:51:01 19 C 9.61 g/m*3 19 C 0 km/h
2334 27-07-2010 11:03:01 19.2 C 9.73 g/m*3 19.2 C 0 km/h
2335 27-07-2010 11:15:02 19.8 C 9.74 g/m*3 19.8 C 0 km/h
2336 27-07-2010 11:27:02 20.4 C 9.73 g/m*3 20.4 C 0 km/h
2337 27-07-2010 11:39:01 20.5 C 9.25 g/m*3 20.5 C 0 km/h
2338 27-07-2010 11:51:02 21 C 9.34 g/m*3 21 C 0 km/h
2339 27-07-2010 12:03:02 21.8 C 9.4 g/m*3 21.8 C 0 km/h
2340 27-07-2010 12:15:02 22.5 C 8.99 g/m*3 22.5 C 0 km/h
2341 27-07-2010 12:27:02 21.8 C 8.83 g/m*3 21.8 C 0 km/h
2342 27-07-2010 12:39:02 21.6 C 9.29 g/m*3 21.6 C 0 km/h
2343 27-07-2010 12:51:02 22.7 C 8.89 g/m*3 22.7 C 0 km/h
2344 27-07-2010 13:03:02 23.5 C 8.46 g/m*3 23.5 C 0 km/h
2345 27-07-2010 13:15:01 22.7 C 7.88 g/m*3 22.7 C 0 km/h
2346 27-07-2010 13:27:01 23.1 C 8.27 g/m*3 23.1 C 0 km/h
2347 27-07-2010 13:39:02 25.5 C 7.1 g/m*3 25.5 C 0 km/h
2348 27-07-2010 13:51:02 25 C 7.6 g/m*3 25 C 0 km/h
2349 27-07-2010 14:03:02 23.8 C 7.53 g/m*3 23.8 C 0 km/h
2350 27-07-2010 14:15:01 24.4 C 7.79 g/m*3 24.4 C 0 km/h
Sensor: Nr:Datum:Temp:Abs-Feuchte:Windchill:Wind:
Aussen-T/F 2351 27-07-2010 14:27:01 25.2 C 7.68 g/m*3 25.2 C 0 km/h
2352 27-07-2010 14:39:02 24.4 C 7.57 g/m*3 24.4 C 0 km/h
2353 27-07-2010 14:51:01 24.3 C 7.75 g/m*3 24.3 C 0 km/h
2354 27-07-2010 15:03:02 24.3 C 7.75 g/m*3 24.3 C 0 km/h
2355 27-07-2010 15:15:02 25.6 C 7.86 g/m*3 25.6 C 0 km/h
2356 27-07-2010 15:27:02 25.4 C 7.53 g/m*3 25.4 C 0 km/h
2357 27-07-2010 15:39:01 25.7 C 7.42 g/m*3 25.7 C 0 km/h
2358 27-07-2010 15:51:02 25.9 C 7.26 g/m*3 25.9 C 0 km/h
2359 27-07-2010 16:03:01 26.6 C 7.05 g/m*3 26.6 C 0 km/h
2360 27-07-2010 16:15:02 28.5 C 7.27 g/m*3 28.5 C 0 km/h
2361 27-07-2010 16:27:03 28.2 C 6.87 g/m*3 28.2 C 0 km/h
2362 27-07-2010 16:39:01 28 C 6.8 g/m*3 28 C 0 km/h
2363 27-07-2010 16:51:02 28.2 C 6.05 g/m*3 28.2 C 0 km/h
2364 27-07-2010 17:03:02 28.7 C 5.93 g/m*3 28.7 C 0 km/h
2365 27-07-2010 17:15:02 29.4 C 6.16 g/m*3 29.4 C 0 km/h
2366 27-07-2010 17:27:02 28 C 5.71 g/m*3 28 C 0 km/h
2367 27-07-2010 17:39:03 28.2 C 5.77 g/m*3 28.2 C 0 km/h
2368 27-07-2010 17:51:02 27.3 C 7.33 g/m*3 27.3 C 0 km/h
2369 27-07-2010 18:03:02 26.1 C 6.37 g/m*3 26.1 C 0 km/h
2370 27-07-2010 18:15:01 25.8 C 7.46 g/m*3 25.8 C 0 km/h
2371 27-07-2010 18:27:01 24.8 C 8.19 g/m*3 24.8 C 0 km/h
2372 27-07-2010 18:39:02 24.3 C 7.97 g/m*3 24.3 C 0 km/h
2373 27-07-2010 18:51:02 24.3 C 8.19 g/m*3 24.3 C 0 km/h
2374 27-07-2010 19:03:02 24.2 C 8.58 g/m*3 24.2 C 0 km/h
2375 27-07-2010 19:15:01 23.6 C 8.72 g/m*3 23.6 C 0 km/h
Sensor: Nr:Datum:Temp:Abs-Feuchte:Windchill:Wind:
Aussen-T/F 2376 27-07-2010 19:27:01 23.3 C 8.78 g/m*3 23.3 C 0 km/h
2377 27-07-2010 19:39:02 23 C 8.63 g/m*3 23 C 0 km/h
2378 27-07-2010 19:51:01 23 C 8.43 g/m*3 23 C 0 km/h
2379 27-07-2010 20:03:02 22.9 C 8.38 g/m*3 22.9 C 0 km/h
2380 27-07-2010 20:15:02 22.2 C 8.25 g/m*3 22.2 C 0 km/h
2381 27-07-2010 20:27:02 21.7 C 8.2 g/m*3 21.7 C 0 km/h
2382 27-07-2010 20:39:01 21.7 C 8.58 g/m*3 21.7 C 0 km/h
2383 27-07-2010 20:51:02 21.5 C 8.49 g/m*3 21.5 C 0 km/h
2384 27-07-2010 21:03:01 21.2 C 8.52 g/m*3 21.2 C 0 km/h
2385 27-07-2010 21:15:02 21 C 8.79 g/m*3 21 C 0 km/h
2386 27-07-2010 21:27:03 20.4 C 8.49 g/m*3 20.4 C 0 km/h
2387 27-07-2010 21:39:01 20 C 8.47 g/m*3 20 C 0 km/h
2388 27-07-2010 21:51:03 19.7 C 9.17 g/m*3 19.7 C 0 km/h
2389 27-07-2010 22:04:04 19.7 C 9.34 g/m*3 19.7 C 0 km/h
2390 27-07-2010 22:16:04 19.3 C 9.12 g/m*3 19.3 C 0 km/h
2391 27-07-2010 22:28:04 19 C 8.8 g/m*3 19 C 0 km/h
2392 27-07-2010 22:40:05 18.8 C 9.18 g/m*3 18.8 C 0 km/h
2393 27-07-2010 22:52:05 18.8 C 9.34 g/m*3 18.8 C 0 km/h
2394 27-07-2010 23:04:05 18.6 C 9.39 g/m*3 18.6 C 0 km/h
2395 27-07-2010 23:16:05 18.4 C 9.28 g/m*3 18.4 C 0 km/h
2396 27-07-2010 23:28:05 18.4 C 9.44 g/m*3 18.4 C 0 km/h
2397 27-07-2010 23:40:05 18.4 C 9.12 g/m*3 18.4 C 0 km/h
2398 27-07-2010 23:52:05 18.4 C 9.44 g/m*3 18.4 C 0 km/h
2399 28-07-2010 00:04:05 18.5 C 9.65 g/m*3 18.5 C 0 km/h
2400 28-07-2010 00:16:05 18.5 C 9.81 g/m*3 18.5 C 0 km/h
Sensor: Nr:Datum:Temp:Abs-Feuchte:Windchill:Wind:
Aussen-T/F 2401 28-07-2010 00:28:05 18.3 C 9.85 g/m*3 18.3 C 0 km/h
2402 28-07-2010 00:40:05 18 C 9.83 g/m*3 18 C 0 km/h
2403 28-07-2010 00:52:05 17.7 C 9.81 g/m*3 17.7 C 0 km/h
2404 28-07-2010 01:04:05 17.5 C 9.69 g/m*3 17.5 C 0 km/h
2405 28-07-2010 01:16:05 17.3 C 9.58 g/m*3 17.3 C 0 km/h
2406 28-07-2010 01:28:05 17.2 C 9.81 g/m*3 17.2 C 0 km/h
2407 28-07-2010 01:40:05 17.1 C 10.04 g/m*3 17.1 C 0 km/h
2408 28-07-2010 01:52:05 16.7 C 10.09 g/m*3 16.7 C 0 km/h
2409 28-07-2010 02:04:05 16.9 C 10.21 g/m*3 16.9 C 0 km/h
2410 28-07-2010 02:16:05 17 C 9.98 g/m*3 17 C 0 km/h
2411 28-07-2010 02:28:05 16.9 C 10.36 g/m*3 16.9 C 0 km/h
2412 28-07-2010 02:40:05 17 C 10.27 g/m*3 17 C 0 km/h
2413 28-07-2010 02:52:06 17 C 10.27 g/m*3 17 C 0 km/h
2414 28-07-2010 03:04:06 17 C 10.27 g/m*3 17 C 0 km/h
2415 28-07-2010 03:16:06 17 C 10.13 g/m*3 17 C 0 km/h
2416 28-07-2010 03:28:06 17 C 10.27 g/m*3 17 C 0 km/h
2417 28-07-2010 03:40:06 17.1 C 10.48 g/m*3 17.1 C 0 km/h
2418 28-07-2010 03:52:06 17.1 C 10.48 g/m*3 17.1 C 0 km/h
2419 28-07-2010 04:04:06 17 C 10.42 g/m*3 17 C 0 km/h
2420 28-07-2010 04:16:06 17.1 C 10.48 g/m*3 17.1 C 0 km/h
2421 28-07-2010 04:28:06 17 C 10.42 g/m*3 17 C 0 km/h
2422 28-07-2010 04:40:06 16.9 C 10.5 g/m*3 16.9 C 0 km/h
2423 28-07-2010 04:52:06 16.8 C 10.58 g/m*3 16.8 C 0 km/h
2424 28-07-2010 05:04:06 16.8 C 10.58 g/m*3 16.8 C 0 km/h
2425 28-07-2010 05:16:06 16.8 C 10.58 g/m*3 16.8 C 0 km/h
Sensor: Nr:Datum:Temp:Abs-Feuchte:Windchill:Wind:
Aussen-T/F 2426 28-07-2010 05:28:06 16.8 C 10.58 g/m*3 16.8 C 0 km/h
2427 28-07-2010 05:40:06 16.8 C 10.58 g/m*3 16.8 C 0 km/h
2428 28-07-2010 05:52:06 17 C 10.56 g/m*3 17 C 0 km/h
2429 28-07-2010 06:04:06 17.1 C 10.48 g/m*3 17.1 C 0 km/h
2430 28-07-2010 06:16:06 17.2 C 10.54 g/m*3 17.2 C 0 km/h
2431 28-07-2010 06:28:06 17.2 C 10.54 g/m*3 17.2 C 0 km/h
2432 28-07-2010 06:40:06 16.9 C 11.08 g/m*3 16.9 C 0 km/h
2433 28-07-2010 06:52:07 16.7 C 11.37 g/m*3 16.7 C 0 km/h
2434 28-07-2010 07:04:04 16.4 C 11.58 g/m*3 16.4 C 0 km/h
2435 28-07-2010 07:16:03 16.2 C 11.86 g/m*3 16.2 C 0 km/h
2436 28-07-2010 07:28:03 16.3 C 12.21 g/m*3 16.3 C 0 km/h
2437 28-07-2010 07:40:04 16.3 C 12.35 g/m*3 16.3 C 0 km/h
2438 28-07-2010 07:52:01 16.4 C 12.56 g/m*3 16.4 C 0 km/h
2439 28-07-2010 08:04:02 16.5 C 12.64 g/m*3 16.5 C 0 km/h
2440 28-07-2010 08:16:02 16.6 C 12.71 g/m*3 16.6 C 0 km/h
2441 28-07-2010 08:28:02 17 C 13.02 g/m*3 17 C 0 km/h
2442 28-07-2010 08:40:01 17.6 C 13.5 g/m*3 17.6 C 0 km/h
2443 28-07-2010 08:52:02 17.8 C 13.2 g/m*3 17.8 C 0 km/h
2444 28-07-2010 09:04:01 18.1 C 12.98 g/m*3 18.1 C 0 km/h
2445 28-07-2010 09:16:02 17.9 C 12.83 g/m*3 17.9 C 0 km/h
2446 28-07-2010 09:28:02 17.4 C 12.6 g/m*3 17.4 C 0 km/h
2447 28-07-2010 09:40:01 17.1 C 12.66 g/m*3 17.1 C 0 km/h
2448 28-07-2010 09:52:02 17.3 C 12.82 g/m*3 17.3 C 0 km/h
2449 28-07-2010 10:04:02 17.3 C 12.96 g/m*3 17.3 C 0 km/h
2450 28-07-2010 10:16:02 17.6 C 13.2 g/m*3 17.6 C 0 km/h
Sensor: Nr:Datum:Temp:Abs-Feuchte:Windchill:Wind:
Aussen-T/F 2451 28-07-2010 10:28:02 17.6 C 13.05 g/m*3 17.6 C 0 km/h
2452 28-07-2010 10:40:02 17.9 C 13.59 g/m*3 17.9 C 0 km/h
2453 28-07-2010 10:52:01 18.1 C 13.44 g/m*3 18.1 C 0 km/h
2454 28-07-2010 11:04:02 18.8 C 14.01 g/m*3 18.8 C 0 km/h
2455 28-07-2010 11:16:01 19.7 C 13.92 g/m*3 19.7 C 0 km/h
2456 28-07-2010 11:28:01 20.6 C 13.24 g/m*3 20.6 C 0 km/h
2457 28-07-2010 11:40:01 20.7 C 13.14 g/m*3 20.7 C 0 km/h
2458 28-07-2010 11:52:01 21.5 C 13.39 g/m*3 21.5 C 0 km/h
2459 28-07-2010 12:04:01 21.3 C 13.23 g/m*3 21.3 C 0 km/h
2460 28-07-2010 12:16:02 20.8 C 12.86 g/m*3 20.8 C 0 km/h
2461 28-07-2010 12:28:02 21.5 C 12.82 g/m*3 21.5 C 0 km/h
2462 28-07-2010 12:40:01 21.4 C 13.12 g/m*3 21.4 C 0 km/h
2463 28-07-2010 12:52:02 21.1 C 13.08 g/m*3 21.1 C 0 km/h
2464 28-07-2010 13:04:02 21 C 12.82 g/m*3 21 C 0 km/h
2465 28-07-2010 13:16:02 21.5 C 13.39 g/m*3 21.5 C 0 km/h
2466 28-07-2010 13:28:02 24.7 C 12.9 g/m*3 24.7 C 0 km/h
2467 28-07-2010 13:40:02 25.7 C 11.25 g/m*3 25.7 C 0 km/h
2468 28-07-2010 13:52:02 25.8 C 9.87 g/m*3 25.8 C 0 km/h
2469 28-07-2010 14:04:02 24.7 C 10.41 g/m*3 24.7 C 0 km/h
2470 28-07-2010 14:16:02 25.4 C 9.89 g/m*3 25.4 C 0 km/h
2471 28-07-2010 14:28:02 25.8 C 9.15 g/m*3 25.8 C 0 km/h
2472 28-07-2010 14:40:02 26.3 C 8.66 g/m*3 26.3 C 0 km/h
2473 28-07-2010 14:52:02 26.5 C 8.26 g/m*3 26.5 C 0 km/h
2474 28-07-2010 15:04:02 26.4 C 8.21 g/m*3 26.4 C 0 km/h
2475 28-07-2010 15:16:02 26.4 C 8.46 g/m*3 26.4 C 0 km/h
Sensor: Nr:Datum:Temp:Abs-Feuchte:Windchill:Wind:
Aussen-T/F 2476 28-07-2010 15:28:02 25.8 C 7.46 g/m*3 25.8 C 0 km/h
2477 28-07-2010 15:40:02 25.2 C 7.22 g/m*3 25.2 C 0 km/h
2478 28-07-2010 15:52:02 26.2 C 7.14 g/m*3 26.2 C 0 km/h
2479 28-07-2010 16:04:02 27.1 C 6.73 g/m*3 27.1 C 0 km/h
2480 28-07-2010 16:16:03 27.2 C 7.29 g/m*3 27.2 C 0 km/h
2481 28-07-2010 16:28:03 27.7 C 7.22 g/m*3 27.7 C 0 km/h
2482 28-07-2010 16:40:02 28.2 C 6.87 g/m*3 28.2 C 0 km/h
2483 28-07-2010 16:52:03 28.7 C 7.06 g/m*3 28.7 C 0 km/h
2484 28-07-2010 17:04:02 28.7 C 6.78 g/m*3 28.7 C 0 km/h
2485 28-07-2010 17:16:02 29.6 C 7.12 g/m*3 29.6 C 0 km/h
2486 28-07-2010 17:28:02 29 C 6.61 g/m*3 29 C 0 km/h
2487 28-07-2010 17:40:02 28.9 C 6.57 g/m*3 28.9 C 0 km/h
2488 28-07-2010 17:52:02 27.8 C 6.19 g/m*3 27.8 C 0 km/h
2489 28-07-2010 18:04:01 28.4 C 6.67 g/m*3 28.4 C 0 km/h
2490 28-07-2010 18:16:02 28.2 C 6.6 g/m*3 28.2 C 0 km/h
2491 28-07-2010 18:28:02 26.2 C 6.4 g/m*3 26.2 C 0 km/h
2492 28-07-2010 18:40:02 25.6 C 6.67 g/m*3 25.6 C 0 km/h
2493 28-07-2010 18:52:01 25.3 C 7.02 g/m*3 25.3 C 0 km/h
2494 28-07-2010 19:04:02 24.5 C 8.73 g/m*3 24.5 C 0 km/h
2495 28-07-2010 19:16:01 22.6 C 9.44 g/m*3 22.6 C 0 km/h
2496 28-07-2010 19:28:01 21.7 C 10.87 g/m*3 21.7 C 0 km/h
2497 28-07-2010 19:40:01 21.8 C 10.55 g/m*3 21.8 C 0 km/h
2498 28-07-2010 19:52:01 21.9 C 10.42 g/m*3 21.9 C 0 km/h
2499 28-07-2010 20:04:02 21.9 C 10.23 g/m*3 21.9 C 0 km/h
2500 28-07-2010 20:16:01 22 C 9.9 g/m*3 22 C 0 km/h
Sensor: Nr:Datum:Temp:Abs-Feuchte:Windchill:Wind:
Aussen-T/F 2501 28-07-2010 20:28:01 22.1 C 9.96 g/m*3 22.1 C 0 km/h
2502 28-07-2010 20:40:02 21.6 C 10.24 g/m*3 21.6 C 0 km/h
2503 28-07-2010 20:52:02 21.3 C 10.62 g/m*3 21.3 C 0 km/h
2504 28-07-2010 21:04:02 21 C 10.44 g/m*3 21 C 0 km/h
2505 28-07-2010 21:16:02 20.8 C 10.5 g/m*3 20.8 C 0 km/h
2506 28-07-2010 21:28:02 20.7 C 10.62 g/m*3 20.7 C 0 km/h
2507 28-07-2010 21:40:02 20.4 C 10.79 g/m*3 20.4 C 0 km/h
2508 28-07-2010 21:52:02 20.1 C 10.78 g/m*3 20.1 C 0 km/h
2509 28-07-2010 22:04:02 20 C 11.06 g/m*3 20 C 0 km/h
2510 28-07-2010 22:17:02 19.8 C 11.44 g/m*3 19.8 C 0 km/h
2511 28-07-2010 22:29:02 19.8 C 11.1 g/m*3 19.8 C 0 km/h
2512 28-07-2010 22:41:02 19.7 C 11.38 g/m*3 19.7 C 0 km/h
2513 28-07-2010 22:53:02 19.6 C 11.31 g/m*3 19.6 C 0 km/h
2514 28-07-2010 23:05:02 19.3 C 11.78 g/m*3 19.3 C 0 km/h
2515 28-07-2010 23:17:02 18.3 C 12.98 g/m*3 18.3 C 0 km/h
2516 28-07-2010 23:29:02 18.2 C 13.37 g/m*3 18.2 C 0 km/h
2517 28-07-2010 23:41:02 18.1 C 13.44 g/m*3 18.1 C 0 km/h
2518 28-07-2010 23:53:02 18 C 13.36 g/m*3 18 C 0 km/h
2519 29-07-2010 00:05:02 17.7 C 13.43 g/m*3 17.7 C 0 km/h
2520 29-07-2010 00:17:02 17.5 C 13.27 g/m*3 17.5 C 0 km/h
2521 29-07-2010 00:29:02 17.2 C 13.03 g/m*3 17.2 C 0 km/h
2522 29-07-2010 00:41:02 16.9 C 13.09 g/m*3 16.9 C 0 km/h
2523 29-07-2010 00:53:02 16.5 C 12.78 g/m*3 16.5 C 0 km/h
2524 29-07-2010 01:05:02 16.4 C 12.84 g/m*3 16.4 C 0 km/h
2525 29-07-2010 01:17:02 16.2 C 12.69 g/m*3 16.2 C 0 km/h
Sensor: Nr:Datum:Temp:Abs-Feuchte:Windchill:Wind:
Aussen-T/F 2526 29-07-2010 01:29:02 16.1 C 12.61 g/m*3 16.1 C 0 km/h
2527 29-07-2010 01:41:02 15.9 C 12.59 g/m*3 15.9 C 0 km/h
2528 29-07-2010 01:53:02 15.7 C 12.44 g/m*3 15.7 C 0 km/h
2529 29-07-2010 02:05:02 15.4 C 12.22 g/m*3 15.4 C 0 km/h
2530 29-07-2010 02:17:03 15.2 C 12.07 g/m*3 15.2 C 0 km/h
2531 29-07-2010 02:29:03 15.1 C 12 g/m*3 15.1 C 0 km/h
2532 29-07-2010 02:41:03 15 C 11.93 g/m*3 15 C 0 km/h
2533 29-07-2010 02:53:03 15.1 C 12 g/m*3 15.1 C 0 km/h
2534 29-07-2010 03:05:03 15 C 11.93 g/m*3 15 C 0 km/h
2535 29-07-2010 03:17:03 14.8 C 11.91 g/m*3 14.8 C 0 km/h
2536 29-07-2010 03:29:03 14.7 C 11.83 g/m*3 14.7 C 0 km/h
2537 29-07-2010 03:41:03 14.6 C 11.76 g/m*3 14.6 C 0 km/h
2538 29-07-2010 03:53:03 14.7 C 11.83 g/m*3 14.7 C 0 km/h
2539 29-07-2010 04:05:03 14.6 C 11.76 g/m*3 14.6 C 0 km/h
2540 29-07-2010 04:17:03 14.4 C 11.62 g/m*3 14.4 C 0 km/h
2541 29-07-2010 04:29:03 14.3 C 11.55 g/m*3 14.3 C 0 km/h
2542 29-07-2010 04:41:03 14.6 C 11.76 g/m*3 14.6 C 0 km/h
2543 29-07-2010 04:53:03 14.3 C 11.55 g/m*3 14.3 C 0 km/h
2544 29-07-2010 05:05:03 14.1 C 11.41 g/m*3 14.1 C 0 km/h
2545 29-07-2010 05:17:03 14.1 C 11.41 g/m*3 14.1 C 0 km/h
2546 29-07-2010 05:29:03 14.4 C 11.62 g/m*3 14.4 C 0 km/h
2547 29-07-2010 05:41:03 14.7 C 11.83 g/m*3 14.7 C 0 km/h
2548 29-07-2010 05:53:03 14.4 C 11.74 g/m*3 14.4 C 0 km/h
2549 29-07-2010 06:05:03 14.5 C 11.82 g/m*3 14.5 C 0 km/h
2550 29-07-2010 06:17:03 14.6 C 11.89 g/m*3 14.6 C 0 km/h
Sensor: Nr:Datum:Temp:Abs-Feuchte:Windchill:Wind:
Aussen-T/F 2551 29-07-2010 06:29:04 14.7 C 11.96 g/m*3 14.7 C 0 km/h
2552 29-07-2010 06:41:04 14.7 C 11.96 g/m*3 14.7 C 0 km/h
2553 29-07-2010 06:53:04 14.6 C 11.89 g/m*3 14.6 C 0 km/h
2554 29-07-2010 07:05:02 14.7 C 11.96 g/m*3 14.7 C 0 km/h
2555 29-07-2010 07:17:02 14.8 C 12.03 g/m*3 14.8 C 0 km/h
2556 29-07-2010 07:29:02 15 C 12.05 g/m*3 15 C 0 km/h
2557 29-07-2010 07:41:02 15 C 12.18 g/m*3 15 C 0 km/h
2558 29-07-2010 07:53:02 14.9 C 12.11 g/m*3 14.9 C 0 km/h
2559 29-07-2010 08:05:02 14.8 C 12.03 g/m*3 14.8 C 0 km/h
2560 29-07-2010 08:17:02 15.2 C 12.33 g/m*3 15.2 C 0 km/h
2561 29-07-2010 08:29:02 15.7 C 12.71 g/m*3 15.7 C 0 km/h
2562 29-07-2010 08:41:02 15.6 C 12.63 g/m*3 15.6 C 0 km/h
2563 29-07-2010 08:53:02 15.6 C 12.63 g/m*3 15.6 C 0 km/h
2564 29-07-2010 09:05:02 15.6 C 12.5 g/m*3 15.6 C 0 km/h
2565 29-07-2010 09:17:02 15.3 C 12.14 g/m*3 15.3 C 0 km/h
2566 29-07-2010 09:29:02 15.4 C 12.22 g/m*3 15.4 C 0 km/h
2567 29-07-2010 09:41:02 15.7 C 12.31 g/m*3 15.7 C 0 km/h
2568 29-07-2010 09:53:02 15.4 C 11.96 g/m*3 15.4 C 0 km/h
2569 29-07-2010 10:05:01 15.2 C 11.68 g/m*3 15.2 C 0 km/h
2570 29-07-2010 10:17:02 15.4 C 11.82 g/m*3 15.4 C 0 km/h
2571 29-07-2010 10:29:02 15.7 C 12.04 g/m*3 15.7 C 0 km/h
2572 29-07-2010 10:41:02 15.1 C 11.48 g/m*3 15.1 C 0 km/h
2573 29-07-2010 10:53:02 14.7 C 11.33 g/m*3 14.7 C 0 km/h
2574 29-07-2010 11:05:03 14.8 C 11.53 g/m*3 14.8 C 0 km/h
2575 29-07-2010 11:17:02 13.9 C 10.91 g/m*3 13.9 C 0 km/h
Sensor: Nr:Datum:Temp:Abs-Feuchte:Windchill:Wind:
Aussen-T/F 2576 29-07-2010 11:29:02 14.3 C 11.18 g/m*3 14.3 C 0 km/h
2577 29-07-2010 11:41:02 15.1 C 11.74 g/m*3 15.1 C 0 km/h
2578 29-07-2010 11:53:01 15.1 C 11.74 g/m*3 15.1 C 0 km/h
2579 29-07-2010 12:05:02 16.2 C 12.41 g/m*3 16.2 C 0 km/h
2580 29-07-2010 12:17:01 17.2 C 12.89 g/m*3 17.2 C 0 km/h
2581 29-07-2010 12:29:01 17.5 C 12.82 g/m*3 17.5 C 0 km/h
2582 29-07-2010 12:41:01 17.7 C 12.52 g/m*3 17.7 C 0 km/h
2583 29-07-2010 12:53:01 17.8 C 12.29 g/m*3 17.8 C 0 km/h
2584 29-07-2010 13:05:01 18.1 C 12.05 g/m*3 18.1 C 0 km/h
2585 29-07-2010 13:17:02 19.1 C 11.97 g/m*3 19.1 C 0 km/h
2586 29-07-2010 13:29:02 19.9 C 11 g/m*3 19.9 C 0 km/h
2587 29-07-2010 13:41:01 18.7 C 10.25 g/m*3 18.7 C 0 km/h
2588 29-07-2010 13:53:03 16.4 C 10.19 g/m*3 16.4 C 0 km/h
2589 29-07-2010 14:05:02 16.4 C 11.03 g/m*3 16.4 C 0 km/h
2590 29-07-2010 14:17:02 16.6 C 11.16 g/m*3 16.6 C 0 km/h
2591 29-07-2010 14:29:02 17.4 C 11.12 g/m*3 17.4 C 0 km/h
2592 29-07-2010 14:41:02 19.1 C 11.31 g/m*3 19.1 C 0 km/h
2593 29-07-2010 14:53:02 19.3 C 9.79 g/m*3 19.3 C 0 km/h
2594 29-07-2010 15:05:01 19.2 C 9.73 g/m*3 19.2 C 0 km/h
2595 29-07-2010 15:17:02 19 C 9.94 g/m*3 19 C 0 km/h
2596 29-07-2010 15:29:02 17.5 C 10.59 g/m*3 17.5 C 0 km/h
2597 29-07-2010 15:41:02 17.3 C 11.05 g/m*3 17.3 C 0 km/h
2598 29-07-2010 15:53:02 18.2 C 12.28 g/m*3 18.2 C 0 km/h
2599 29-07-2010 16:05:03 19.7 C 12.57 g/m*3 19.7 C 0 km/h
2600 29-07-2010 16:17:02 21.1 C 11.61 g/m*3 21.1 C 0 km/h
Sensor: Nr:Datum:Temp:Abs-Feuchte:Windchill:Wind:
Aussen-T/F 2601 29-07-2010 16:29:02 21.8 C 11.13 g/m*3 21.8 C 0 km/h
2602 29-07-2010 16:41:02 18.8 C 9.66 g/m*3 18.8 C 0 km/h
2603 29-07-2010 16:53:01 16.8 C 9.72 g/m*3 16.8 C 0 km/h
2604 29-07-2010 17:05:02 16.1 C 10.01 g/m*3 16.1 C 0 km/h
2605 29-07-2010 17:17:01 16.7 C 11.37 g/m*3 16.7 C 0 km/h
2606 29-07-2010 17:29:01 17.7 C 11.92 g/m*3 17.7 C 0 km/h
2607 29-07-2010 17:41:01 17.8 C 11.38 g/m*3 17.8 C 0 km/h
2608 29-07-2010 17:53:01 17.3 C 11.2 g/m*3 17.3 C 0 km/h
2609 29-07-2010 18:05:01 17.3 C 11.05 g/m*3 17.3 C 0 km/h
2610 29-07-2010 18:17:02 17.4 C 11.12 g/m*3 17.4 C 0 km/h
2611 29-07-2010 18:29:02 17.8 C 11.38 g/m*3 17.8 C 0 km/h
2612 29-07-2010 18:41:01 18.1 C 11.59 g/m*3 18.1 C 0 km/h
2613 29-07-2010 18:53:03 18.5 C 11.39 g/m*3 18.5 C 0 km/h
2614 29-07-2010 19:05:02 18.1 C 10.51 g/m*3 18.1 C 0 km/h
2615 29-07-2010 19:17:02 18 C 9.52 g/m*3 18 C 0 km/h
2616 29-07-2010 19:29:02 18.5 C 9.65 g/m*3 18.5 C 0 km/h
2617 29-07-2010 19:41:02 18.7 C 9.45 g/m*3 18.7 C 0 km/h
2618 29-07-2010 19:53:02 18.4 C 9.28 g/m*3 18.4 C 0 km/h
2619 29-07-2010 20:05:02 17.9 C 9.77 g/m*3 17.9 C 0 km/h
2620 29-07-2010 20:17:02 17.7 C 9.66 g/m*3 17.7 C 0 km/h
2621 29-07-2010 20:29:02 17.7 C 9.66 g/m*3 17.7 C 0 km/h
2622 29-07-2010 20:41:02 17.5 C 9.39 g/m*3 17.5 C 0 km/h
2623 29-07-2010 20:53:02 17.2 C 9.08 g/m*3 17.2 C 0 km/h
2624 29-07-2010 21:05:02 16.8 C 9.15 g/m*3 16.8 C 0 km/h
2625 29-07-2010 21:17:02 16.1 C 9.6 g/m*3 16.1 C 0 km/h
Sensor: Nr:Datum:Temp:Abs-Feuchte:Windchill:Wind:
Aussen-T/F 2626 29-07-2010 21:29:02 15.9 C 10.16 g/m*3 15.9 C 0 km/h
2627 29-07-2010 21:41:01 15.8 C 10.36 g/m*3 15.8 C 0 km/h
2628 29-07-2010 21:53:02 15.6 C 10.24 g/m*3 15.6 C 0 km/h
2629 29-07-2010 22:06:03 15.6 C 10.37 g/m*3 15.6 C 0 km/h
2630 29-07-2010 22:18:03 15.6 C 9.97 g/m*3 15.6 C 0 km/h
2631 29-07-2010 22:30:03 15.7 C 9.77 g/m*3 15.7 C 0 km/h
2632 29-07-2010 22:42:03 15.7 C 9.77 g/m*3 15.7 C 0 km/h
2633 29-07-2010 22:54:03 15.7 C 9.63 g/m*3 15.7 C 0 km/h
2634 29-07-2010 23:06:03 15.7 C 9.63 g/m*3 15.7 C 0 km/h
2635 29-07-2010 23:18:03 15.8 C 9.56 g/m*3 15.8 C 0 km/h
2636 29-07-2010 23:30:03 15.8 C 9.56 g/m*3 15.8 C 0 km/h
2637 29-07-2010 23:42:03 15.8 C 9.56 g/m*3 15.8 C 0 km/h
2638 29-07-2010 23:54:03 15.4 C 9.72 g/m*3 15.4 C 0 km/h
2639 30-07-2010 00:06:03 15.2 C 9.73 g/m*3 15.2 C 0 km/h
2640 30-07-2010 00:18:04 15.2 C 9.86 g/m*3 15.2 C 0 km/h
2641 30-07-2010 00:30:04 15.2 C 9.86 g/m*3 15.2 C 0 km/h
2642 30-07-2010 00:42:04 15.2 C 9.86 g/m*3 15.2 C 0 km/h
2643 30-07-2010 00:54:04 15.2 C 9.86 g/m*3 15.2 C 0 km/h
2644 30-07-2010 01:06:04 15.2 C 9.86 g/m*3 15.2 C 0 km/h
2645 30-07-2010 01:18:04 15.3 C 9.92 g/m*3 15.3 C 0 km/h
2646 30-07-2010 01:30:04 15.2 C 9.86 g/m*3 15.2 C 0 km/h
2647 30-07-2010 01:42:04 15.2 C 9.86 g/m*3 15.2 C 0 km/h
2648 30-07-2010 01:54:04 15.1 C 9.8 g/m*3 15.1 C 0 km/h
2649 30-07-2010 02:06:04 15.1 C 9.8 g/m*3 15.1 C 0 km/h
2650 30-07-2010 02:18:04 14.9 C 9.94 g/m*3 14.9 C 0 km/h
Sensor: Nr:Datum:Temp:Abs-Feuchte:Windchill:Wind:
Aussen-T/F 2651 30-07-2010 02:30:04 14.8 C 10.01 g/m*3 14.8 C 0 km/h
2652 30-07-2010 02:42:04 14.5 C 9.83 g/m*3 14.5 C 0 km/h
2653 30-07-2010 02:54:04 14.4 C 9.89 g/m*3 14.4 C 0 km/h
2654 30-07-2010 03:06:04 14.4 C 10.01 g/m*3 14.4 C 0 km/h
2655 30-07-2010 03:18:04 14.6 C 10.26 g/m*3 14.6 C 0 km/h
2656 30-07-2010 03:30:04 14.8 C 10.39 g/m*3 14.8 C 0 km/h
2657 30-07-2010 03:42:04 14.6 C 10.26 g/m*3 14.6 C 0 km/h
2658 30-07-2010 03:54:04 14.6 C 10.26 g/m*3 14.6 C 0 km/h
2659 30-07-2010 04:06:04 14.5 C 10.32 g/m*3 14.5 C 0 km/h
2660 30-07-2010 04:18:05 14.5 C 10.32 g/m*3 14.5 C 0 km/h
2661 30-07-2010 04:30:05 14.4 C 10.38 g/m*3 14.4 C 0 km/h
2662 30-07-2010 04:42:05 14.3 C 10.44 g/m*3 14.3 C 0 km/h
2663 30-07-2010 04:54:05 14.4 C 10.51 g/m*3 14.4 C 0 km/h
2664 30-07-2010 05:06:05 14.6 C 10.64 g/m*3 14.6 C 0 km/h
2665 30-07-2010 05:18:05 14.7 C 10.58 g/m*3 14.7 C 0 km/h
2666 30-07-2010 05:30:05 14.7 C 10.58 g/m*3 14.7 C 0 km/h
2667 30-07-2010 05:42:05 14.7 C 10.58 g/m*3 14.7 C 0 km/h
2668 30-07-2010 05:54:05 14.8 C 10.64 g/m*3 14.8 C 0 km/h
2669 30-07-2010 06:06:05 14.8 C 10.51 g/m*3 14.8 C 0 km/h
2670 30-07-2010 06:18:02 14.7 C 10.45 g/m*3 14.7 C 0 km/h
2671 30-07-2010 06:30:02 14.7 C 10.58 g/m*3 14.7 C 0 km/h
2672 30-07-2010 06:42:03 14.8 C 10.51 g/m*3 14.8 C 0 km/h
2673 30-07-2010 06:54:02 14.8 C 10.51 g/m*3 14.8 C 0 km/h
2674 30-07-2010 07:06:02 14.9 C 10.58 g/m*3 14.9 C 0 km/h
2675 30-07-2010 07:18:02 15.1 C 10.45 g/m*3 15.1 C 0 km/h
Sensor: Nr:Datum:Temp:Abs-Feuchte:Windchill:Wind:
Aussen-T/F 2676 30-07-2010 07:30:02 15.3 C 10.58 g/m*3 15.3 C 0 km/h
2677 30-07-2010 07:42:02 15.2 C 10.38 g/m*3 15.2 C 0 km/h
2678 30-07-2010 07:54:02 15.4 C 10.64 g/m*3 15.4 C 0 km/h
2679 30-07-2010 08:06:02 15.6 C 10.64 g/m*3 15.6 C 0 km/h
2680 30-07-2010 08:18:02 15.8 C 10.63 g/m*3 15.8 C 0 km/h
2681 30-07-2010 08:30:02 16.2 C 10.62 g/m*3 16.2 C 0 km/h
2682 30-07-2010 08:42:01 16.6 C 10.59 g/m*3 16.6 C 0 km/h
2683 30-07-2010 08:54:02 17.2 C 10.25 g/m*3 17.2 C 0 km/h
2684 30-07-2010 09:06:01 17.3 C 9.72 g/m*3 17.3 C 0 km/h
2685 30-07-2010 09:18:01 16.7 C 9.81 g/m*3 16.7 C 0 km/h
2686 30-07-2010 09:30:01 16.4 C 9.91 g/m*3 16.4 C 0 km/h
2687 30-07-2010 09:42:02 17.7 C 10.11 g/m*3 17.7 C 0 km/h
2688 30-07-2010 09:54:02 18.2 C 9.33 g/m*3 18.2 C 0 km/h
2689 30-07-2010 10:06:01 18 C 9.06 g/m*3 18 C 0 km/h
2690 30-07-2010 10:18:01 19.5 C 9.06 g/m*3 19.5 C 0 km/h
2691 30-07-2010 10:30:02 19.1 C 9.02 g/m*3 19.1 C 0 km/h
2692 30-07-2010 10:42:01 18.9 C 8.91 g/m*3 18.9 C 0 km/h
2693 30-07-2010 10:54:02 19.5 C 8.89 g/m*3 19.5 C 0 km/h
2694 30-07-2010 11:06:02 19.8 C 8.71 g/m*3 19.8 C 0 km/h
2695 30-07-2010 11:18:02 21.1 C 8.66 g/m*3 21.1 C 0 km/h
2696 30-07-2010 11:30:02 22.6 C 8.64 g/m*3 22.6 C 0 km/h
2697 30-07-2010 11:42:02 23.8 C 8.17 g/m*3 23.8 C 0 km/h
2698 30-07-2010 11:54:01 22.7 C 7.27 g/m*3 22.7 C 0 km/h
2699 30-07-2010 12:06:02 21.1 C 7.74 g/m*3 21.1 C 0 km/h
2700 30-07-2010 12:18:01 21 C 8.24 g/m*3 21 C 0 km/h
Sensor: Nr:Datum:Temp:Abs-Feuchte:Windchill:Wind:
Aussen-T/F 2701 30-07-2010 12:30:01 21.3 C 8.39 g/m*3 21.3 C 0 km/h
2702 30-07-2010 12:42:01 21.7 C 8.97 g/m*3 21.7 C 0 km/h
2703 30-07-2010 12:54:01 22.6 C 8.24 g/m*3 22.6 C 0 km/h
2704 30-07-2010 13:06:02 24.5 C 7.61 g/m*3 24.5 C 0 km/h
2705 30-07-2010 13:18:01 26.3 C 7.43 g/m*3 26.3 C 0 km/h
2706 30-07-2010 13:30:01 24.2 C 7.26 g/m*3 24.2 C 0 km/h
2707 30-07-2010 13:42:01 22.5 C 7.39 g/m*3 22.5 C 0 km/h
2708 30-07-2010 13:54:01 22.5 C 7.59 g/m*3 22.5 C 0 km/h
2709 30-07-2010 14:06:02 23.3 C 7.32 g/m*3 23.3 C 0 km/h
2710 30-07-2010 14:18:02 24.3 C 7.52 g/m*3 24.3 C 0 km/h
2711 30-07-2010 14:30:02 24.7 C 7.7 g/m*3 24.7 C 0 km/h
2712 30-07-2010 14:42:01 24.8 C 7.97 g/m*3 24.8 C 0 km/h
2713 30-07-2010 14:54:02 25.3 C 7.49 g/m*3 25.3 C 0 km/h
2714 30-07-2010 15:06:01 25.7 C 7.18 g/m*3 25.7 C 0 km/h
2715 30-07-2010 15:18:02 25.5 C 7.1 g/m*3 25.5 C 0 km/h
2716 30-07-2010 15:30:02 25.4 C 7.3 g/m*3 25.4 C 0 km/h
2717 30-07-2010 15:42:01 24.8 C 7.28 g/m*3 24.8 C 0 km/h
2718 30-07-2010 15:54:03 24.3 C 6.86 g/m*3 24.3 C 0 km/h
2719 30-07-2010 16:06:02 24.8 C 7.06 g/m*3 24.8 C 0 km/h
2720 30-07-2010 16:18:02 26.4 C 6.47 g/m*3 26.4 C 0 km/h
2721 30-07-2010 16:30:03 26.4 C 6.47 g/m*3 26.4 C 0 km/h
2722 30-07-2010 16:42:02 26.5 C 6.76 g/m*3 26.5 C 0 km/h
2723 30-07-2010 16:54:02 25.6 C 6.19 g/m*3 25.6 C 0 km/h
2724 30-07-2010 17:06:01 26.9 C 6.91 g/m*3 26.9 C 0 km/h
2725 30-07-2010 17:18:02 28.3 C 6.08 g/m*3 28.3 C 0 km/h
Sensor: Nr:Datum:Temp:Abs-Feuchte:Windchill:Wind:
Aussen-T/F 2726 30-07-2010 17:30:02 26.9 C 6.4 g/m*3 26.9 C 0 km/h
2727 30-07-2010 17:42:02 25.8 C 6.26 g/m*3 25.8 C 0 km/h
2728 30-07-2010 17:54:02 26.2 C 6.4 g/m*3 26.2 C 0 km/h
2729 30-07-2010 18:06:02 26.6 C 6.04 g/m*3 26.6 C 0 km/h
2730 30-07-2010 18:18:02 26.2 C 6.15 g/m*3 26.2 C 0 km/h
2731 30-07-2010 18:30:02 26.5 C 6.26 g/m*3 26.5 C 0 km/h
2732 30-07-2010 18:42:02 26.8 C 5.85 g/m*3 26.8 C 0 km/h
2733 30-07-2010 18:54:01 27.9 C 5.95 g/m*3 27.9 C 0 km/h
2734 30-07-2010 19:06:02 27.9 C 6.49 g/m*3 27.9 C 0 km/h
2735 30-07-2010 19:18:01 27 C 6.69 g/m*3 27 C 0 km/h
2736 30-07-2010 19:30:01 25.9 C 6.54 g/m*3 25.9 C 0 km/h
2737 30-07-2010 19:42:01 24.7 C 7.02 g/m*3 24.7 C 0 km/h
2738 30-07-2010 19:54:01 24.6 C 7.88 g/m*3 24.6 C 0 km/h
2739 30-07-2010 20:06:02 23.7 C 7.49 g/m*3 23.7 C 0 km/h
2740 30-07-2010 20:18:02 23.2 C 7.28 g/m*3 23.2 C 0 km/h
2741 30-07-2010 20:30:02 22.6 C 7.43 g/m*3 22.6 C 0 km/h
2742 30-07-2010 20:42:01 21.9 C 7.72 g/m*3 21.9 C 0 km/h
2743 30-07-2010 20:54:01 21.3 C 7.64 g/m*3 21.3 C 0 km/h
2744 30-07-2010 21:06:01 20.5 C 7.65 g/m*3 20.5 C 0 km/h
2745 30-07-2010 21:18:02 20.2 C 7.87 g/m*3 20.2 C 0 km/h
2746 30-07-2010 21:30:02 19.9 C 7.73 g/m*3 19.9 C 0 km/h
2747 30-07-2010 21:42:01 19.5 C 7.72 g/m*3 19.5 C 0 km/h
2748 30-07-2010 21:54:03 19.1 C 7.54 g/m*3 19.1 C 0 km/h
2749 30-07-2010 22:07:51 18.9 C 7.45 g/m*3 18.9 C 0 km/h
2750 30-07-2010 22:19:51 18.6 C 7.32 g/m*3 18.6 C 0 km/h
Sensor: Nr:Datum:Temp:Abs-Feuchte:Windchill:Wind:
Aussen-T/F 2751 30-07-2010 22:31:51 18.6 C 7.32 g/m*3 18.6 C 0 km/h
2752 30-07-2010 22:43:51 18.3 C 7.66 g/m*3 18.3 C 0 km/h
2753 30-07-2010 22:55:51 18.1 C 7.57 g/m*3 18.1 C 0 km/h
2754 30-07-2010 23:07:52 17.6 C 8.4 g/m*3 17.6 C 0 km/h
2755 30-07-2010 23:19:52 17.2 C 8.35 g/m*3 17.2 C 0 km/h
2756 30-07-2010 23:31:52 17 C 8.54 g/m*3 17 C 0 km/h
2757 30-07-2010 23:43:52 16.7 C 8.81 g/m*3 16.7 C 0 km/h
2758 30-07-2010 23:55:52 16.5 C 8.57 g/m*3 16.5 C 0 km/h
2759 31-07-2010 00:07:52 16.3 C 8.74 g/m*3 16.3 C 0 km/h
2760 31-07-2010 00:19:52 16.2 C 8.69 g/m*3 16.2 C 0 km/h
2761 31-07-2010 00:31:52 16 C 8.58 g/m*3 16 C 0 km/h
2762 31-07-2010 00:43:52 15.6 C 8.78 g/m*3 15.6 C 0 km/h
2763 31-07-2010 00:55:52 15.5 C 8.86 g/m*3 15.5 C 0 km/h
2764 31-07-2010 01:07:52 15.3 C 8.88 g/m*3 15.3 C 0 km/h
2765 31-07-2010 01:19:52 15 C 8.85 g/m*3 15 C 0 km/h
2766 31-07-2010 01:31:52 14.8 C 8.87 g/m*3 14.8 C 0 km/h
2767 31-07-2010 01:43:52 14.6 C 8.63 g/m*3 14.6 C 0 km/h
2768 31-07-2010 01:55:52 14.5 C 8.71 g/m*3 14.5 C 0 km/h
2769 31-07-2010 02:07:52 14.3 C 8.6 g/m*3 14.3 C 0 km/h
2770 31-07-2010 02:19:52 14.2 C 8.67 g/m*3 14.2 C 0 km/h
2771 31-07-2010 02:31:52 13.9 C 8.63 g/m*3 13.9 C 0 km/h
2772 31-07-2010 02:43:52 14 C 8.68 g/m*3 14 C 0 km/h
2773 31-07-2010 02:55:52 13.8 C 8.7 g/m*3 13.8 C 0 km/h
2774 31-07-2010 03:07:52 13.6 C 8.71 g/m*3 13.6 C 0 km/h
2775 31-07-2010 03:19:53 13.4 C 8.6 g/m*3 13.4 C 0 km/h
Sensor: Nr:Datum:Temp:Abs-Feuchte:Windchill:Wind:
Aussen-T/F 2776 31-07-2010 03:31:53 13.4 C 8.72 g/m*3 13.4 C 0 km/h
2777 31-07-2010 03:43:53 13.2 C 8.61 g/m*3 13.2 C 0 km/h
2778 31-07-2010 03:55:53 13.1 C 8.56 g/m*3 13.1 C 0 km/h
2779 31-07-2010 04:07:53 12.9 C 8.68 g/m*3 12.9 C 0 km/h
2780 31-07-2010 04:19:53 12.8 C 8.62 g/m*3 12.8 C 0 km/h
2781 31-07-2010 04:31:53 12.7 C 8.68 g/m*3 12.7 C 0 km/h
2782 31-07-2010 04:43:53 12.6 C 8.63 g/m*3 12.6 C 0 km/h
2783 31-07-2010 04:55:53 12.5 C 8.69 g/m*3 12.5 C 0 km/h
2784 31-07-2010 05:07:53 12.4 C 8.63 g/m*3 12.4 C 0 km/h
2785 31-07-2010 05:19:53 12.4 C 8.74 g/m*3 12.4 C 0 km/h
2786 31-07-2010 05:31:53 12.2 C 8.63 g/m*3 12.2 C 0 km/h
2787 31-07-2010 05:43:53 12.2 C 8.63 g/m*3 12.2 C 0 km/h
2788 31-07-2010 05:55:53 12.1 C 8.69 g/m*3 12.1 C 0 km/h
2789 31-07-2010 06:07:53 12.1 C 8.79 g/m*3 12.1 C 0 km/h
2790 31-07-2010 06:19:53 12 C 8.74 g/m*3 12 C 0 km/h
2791 31-07-2010 06:31:53 11.9 C 8.79 g/m*3 11.9 C 0 km/h
2792 31-07-2010 06:43:53 12 C 8.74 g/m*3 12 C 0 km/h
2793 31-07-2010 06:55:53 12.1 C 8.79 g/m*3 12.1 C 0 km/h
2794 31-07-2010 07:07:53 12.1 C 8.9 g/m*3 12.1 C 0 km/h
2795 31-07-2010 07:19:54 12.3 C 9.01 g/m*3 12.3 C 0 km/h
2796 31-07-2010 07:31:54 12.7 C 9.24 g/m*3 12.7 C 0 km/h
2797 31-07-2010 07:43:54 12.9 C 9.24 g/m*3 12.9 C 0 km/h
2798 31-07-2010 07:55:54 13 C 9.19 g/m*3 13 C 0 km/h
2799 31-07-2010 08:07:54 13.1 C 9.24 g/m*3 13.1 C 0 km/h
2800 31-07-2010 08:19:54 13.5 C 9.36 g/m*3 13.5 C 0 km/h
Sensor: Nr:Datum:Temp:Abs-Feuchte:Windchill:Wind:
Aussen-T/F 2801 31-07-2010 08:31:54 14.1 C 9.34 g/m*3 14.1 C 0 km/h
2802 31-07-2010 08:43:54 14.1 C 9.1 g/m*3 14.1 C 0 km/h
2803 31-07-2010 08:55:02 14.4 C 9.27 g/m*3 14.4 C 0 km/h
2804 31-07-2010 09:07:02 15.1 C 9.55 g/m*3 15.1 C 0 km/h
2805 31-07-2010 09:19:01 15.6 C 9.58 g/m*3 15.6 C 0 km/h
2806 31-07-2010 09:31:02 16 C 9.4 g/m*3 16 C 0 km/h
2807 31-07-2010 09:43:02 17.2 C 9.67 g/m*3 17.2 C 0 km/h
2808 31-07-2010 09:55:02 17.9 C 9.47 g/m*3 17.9 C 0 km/h
2809 31-07-2010 10:07:02 19.7 C 9.51 g/m*3 19.7 C 0 km/h
2810 31-07-2010 10:19:02 21.2 C 9.45 g/m*3 21.2 C 0 km/h
2811 31-07-2010 10:31:02 22.5 C 9.19 g/m*3 22.5 C 0 km/h
2812 31-07-2010 10:43:02 23.3 C 8.57 g/m*3 23.3 C 0 km/h
2813 31-07-2010 10:55:01 23.3 C 8.15 g/m*3 23.3 C 0 km/h
2814 31-07-2010 11:07:01 23.6 C 7.66 g/m*3 23.6 C 0 km/h
2815 31-07-2010 11:19:01 23.5 C 7.4 g/m*3 23.5 C 0 km/h
2816 31-07-2010 11:31:01 23.2 C 7.28 g/m*3 23.2 C 0 km/h
2817 31-07-2010 11:43:01 23.5 C 7.4 g/m*3 23.5 C 0 km/h
2818 31-07-2010 11:55:01 23.6 C 7.44 g/m*3 23.6 C 0 km/h
2819 31-07-2010 12:07:01 23.6 C 7.02 g/m*3 23.6 C 0 km/h
2820 31-07-2010 12:19:02 23.7 C 6.84 g/m*3 23.7 C 0 km/h
2821 31-07-2010 12:31:01 24.4 C 6.9 g/m*3 24.4 C 0 km/h
2822 31-07-2010 12:43:01 24.4 C 6.68 g/m*3 24.4 C 0 km/h
2823 31-07-2010 12:55:02 24.5 C 6.71 g/m*3 24.5 C 0 km/h
2824 31-07-2010 13:07:02 25.2 C 6.29 g/m*3 25.2 C 0 km/h
2825 31-07-2010 13:19:02 25.3 C 6.55 g/m*3 25.3 C 0 km/h
Sensor: Nr:Datum:Temp:Abs-Feuchte:Windchill:Wind:
Aussen-T/F 2826 31-07-2010 13:31:03 25.4 C 6.59 g/m*3 25.4 C 0 km/h
2827 31-07-2010 13:43:03 25.8 C 6.74 g/m*3 25.8 C 0 km/h
2828 31-07-2010 13:55:02 26.1 C 6.61 g/m*3 26.1 C 0 km/h
2829 31-07-2010 14:07:02 26.8 C 6.36 g/m*3 26.8 C 0 km/h
2830 31-07-2010 14:19:02 26.3 C 6.44 g/m*3 26.3 C 0 km/h
2831 31-07-2010 14:31:02 27 C 6.69 g/m*3 27 C 0 km/h
2832 31-07-2010 14:43:02 26.9 C 6.91 g/m*3 26.9 C 0 km/h
2833 31-07-2010 14:55:02 27.2 C 6.77 g/m*3 27.2 C 0 km/h
2834 31-07-2010 15:07:02 27.1 C 6.73 g/m*3 27.1 C 0 km/h
2835 31-07-2010 15:19:02 27.9 C 6.76 g/m*3 27.9 C 0 km/h
2836 31-07-2010 15:31:02 28.1 C 5.74 g/m*3 28.1 C 0 km/h
2837 31-07-2010 15:43:02 27.7 C 6.15 g/m*3 27.7 C 0 km/h
2838 31-07-2010 15:55:01 28.6 C 6.18 g/m*3 28.6 C 0 km/h
2839 31-07-2010 16:07:01 29.3 C 6.13 g/m*3 29.3 C 0 km/h
2840 31-07-2010 16:19:02 28.9 C 6 g/m*3 28.9 C 0 km/h
2841 31-07-2010 16:31:01 29.4 C 5.87 g/m*3 29.4 C 0 km/h
2842 31-07-2010 16:43:01 30.1 C 6.1 g/m*3 30.1 C 0 km/h
2843 31-07-2010 16:55:01 29.5 C 5.9 g/m*3 29.5 C 0 km/h
2844 31-07-2010 17:07:01 29 C 5.74 g/m*3 29 C 0 km/h
2845 31-07-2010 17:19:02 30.1 C 6.1 g/m*3 30.1 C 0 km/h
2846 31-07-2010 17:31:01 30 C 6.06 g/m*3 30 C 0 km/h
2847 31-07-2010 17:43:01 30 C 6.06 g/m*3 30 C 0 km/h
2848 31-07-2010 17:55:02 30.1 C 6.1 g/m*3 30.1 C 0 km/h
2849 31-07-2010 18:07:02 30.2 C 6.13 g/m*3 30.2 C 0 km/h
2850 31-07-2010 18:19:02 30.1 C 6.1 g/m*3 30.1 C 0 km/h
Sensor: Nr:Datum:Temp:Abs-Feuchte:Windchill:Wind:
Aussen-T/F 2851 31-07-2010 18:31:02 29.9 C 6.03 g/m*3 29.9 C 0 km/h
2852 31-07-2010 18:43:02 29.6 C 5.94 g/m*3 29.6 C 0 km/h
2853 31-07-2010 18:55:02 29.5 C 6.2 g/m*3 29.5 C 0 km/h
2854 31-07-2010 19:07:02 29.9 C 6.33 g/m*3 29.9 C 0 km/h
2855 31-07-2010 19:19:02 29 C 6.61 g/m*3 29 C 0 km/h
2856 31-07-2010 19:31:02 27.6 C 7.45 g/m*3 27.6 C 0 km/h
2857 31-07-2010 19:43:02 26.8 C 7.89 g/m*3 26.8 C 0 km/h
2858 31-07-2010 19:55:02 26.1 C 7.59 g/m*3 26.1 C 0 km/h
2859 31-07-2010 20:07:02 25.6 C 8.09 g/m*3 25.6 C 0 km/h
2860 31-07-2010 20:19:02 25.2 C 7.92 g/m*3 25.2 C 0 km/h
2861 31-07-2010 20:31:02 24.5 C 8.28 g/m*3 24.5 C 0 km/h
2862 31-07-2010 20:43:02 24 C 8.27 g/m*3 24 C 0 km/h
2863 31-07-2010 20:55:02 23.7 C 8.34 g/m*3 23.7 C 0 km/h
2864 31-07-2010 21:07:02 23.3 C 8.36 g/m*3 23.3 C 0 km/h
2865 31-07-2010 21:19:02 23.1 C 8.27 g/m*3 23.1 C 0 km/h
2866 31-07-2010 21:31:02 23.1 C 8.27 g/m*3 23.1 C 0 km/h
2867 31-07-2010 21:43:02 23 C 8.43 g/m*3 23 C 0 km/h
2868 31-07-2010 21:55:01 22.7 C 8.69 g/m*3 22.7 C 0 km/h
2869 31-07-2010 22:07:01 22.5 C 8.99 g/m*3 22.5 C 0 km/h
2870 31-07-2010 22:19:01 22.2 C 8.83 g/m*3 22.2 C 0 km/h
2871 31-07-2010 22:31:01 22.2 C 8.64 g/m*3 22.2 C 0 km/h
2872 31-07-2010 22:43:01 22.4 C 8.74 g/m*3 22.4 C 0 km/h
2873 31-07-2010 22:55:02 20.8 C 10.5 g/m*3 20.8 C 0 km/h
2874 31-07-2010 23:07:02 19.9 C 12.03 g/m*3 19.9 C 0 km/h
2875 31-07-2010 23:19:02 20.3 C 11.78 g/m*3 20.3 C 0 km/h
Sensor: Nr:Datum:Temp:Abs-Feuchte:Windchill:Wind:
Aussen-T/F 2876 31-07-2010 23:31:02 20.7 C 11.88 g/m*3 20.7 C 0 km/h
2877 31-07-2010 23:43:02 20.8 C 11.59 g/m*3 20.8 C 0 km/h
2878 31-07-2010 23:55:01 20.8 C 11.41 g/m*3 20.8 C 0 km/h
2879 01-08-2010 00:07:02 19.5 C 11.92 g/m*3 19.5 C 0 km/h
2880 01-08-2010 00:20:02 19.3 C 12.44 g/m*3 19.3 C 0 km/h
2881 01-08-2010 00:32:02 19.6 C 12.66 g/m*3 19.6 C 0 km/h
2882 01-08-2010 00:44:02 19.5 C 12.42 g/m*3 19.5 C 0 km/h
2883 01-08-2010 00:56:02 19.1 C 12.46 g/m*3 19.1 C 0 km/h
2884 01-08-2010 01:08:02 18.3 C 12.66 g/m*3 18.3 C 0 km/h
2885 01-08-2010 01:20:02 18.1 C 12.98 g/m*3 18.1 C 0 km/h
2886 01-08-2010 01:32:02 18.3 C 13.29 g/m*3 18.3 C 0 km/h
2887 01-08-2010 01:44:02 18.5 C 13.45 g/m*3 18.5 C 0 km/h
2888 01-08-2010 01:56:02 18.1 C 13.13 g/m*3 18.1 C 0 km/h
2889 01-08-2010 02:08:02 18.1 C 13.29 g/m*3 18.1 C 0 km/h
2890 01-08-2010 02:20:02 18.2 C 13.52 g/m*3 18.2 C 0 km/h
2891 01-08-2010 02:32:02 18.1 C 13.29 g/m*3 18.1 C 0 km/h
2892 01-08-2010 02:44:02 18.2 C 13.52 g/m*3 18.2 C 0 km/h
2893 01-08-2010 02:56:03 17.9 C 13.28 g/m*3 17.9 C 0 km/h
2894 01-08-2010 03:08:03 18 C 13.21 g/m*3 18 C 0 km/h
2895 01-08-2010 03:20:03 18 C 13.21 g/m*3 18 C 0 km/h
2896 01-08-2010 03:32:03 18 C 13.21 g/m*3 18 C 0 km/h
2897 01-08-2010 03:44:03 17.9 C 13.13 g/m*3 17.9 C 0 km/h
2898 01-08-2010 03:56:03 18 C 13.06 g/m*3 18 C 0 km/h
2899 01-08-2010 04:08:03 17.9 C 12.98 g/m*3 17.9 C 0 km/h
2900 01-08-2010 04:20:03 17.9 C 12.98 g/m*3 17.9 C 0 km/h
Sensor: Nr:Datum:Temp:Abs-Feuchte:Windchill:Wind:
Aussen-T/F 2901 01-08-2010 04:32:03 17.8 C 12.9 g/m*3 17.8 C 0 km/h
2902 01-08-2010 04:44:03 17.8 C 12.9 g/m*3 17.8 C 0 km/h
2903 01-08-2010 04:56:03 17.8 C 12.9 g/m*3 17.8 C 0 km/h
2904 01-08-2010 05:08:03 18 C 12.9 g/m*3 18 C 0 km/h
2905 01-08-2010 05:20:03 18 C 12.75 g/m*3 18 C 0 km/h
2906 01-08-2010 05:32:03 17.8 C 12.75 g/m*3 17.8 C 0 km/h
2907 01-08-2010 05:44:03 17.6 C 12.75 g/m*3 17.6 C 0 km/h
2908 01-08-2010 05:56:03 17.2 C 12.74 g/m*3 17.2 C 0 km/h
2909 01-08-2010 06:08:04 17.3 C 12.96 g/m*3 17.3 C 0 km/h
2910 01-08-2010 06:20:04 17.2 C 12.89 g/m*3 17.2 C 0 km/h
2911 01-08-2010 06:32:04 17.3 C 13.11 g/m*3 17.3 C 0 km/h
2912 01-08-2010 06:44:04 17.6 C 13.35 g/m*3 17.6 C 0 km/h
2913 01-08-2010 06:56:04 17.7 C 13.43 g/m*3 17.7 C 0 km/h
2914 01-08-2010 07:08:04 17.9 C 13.59 g/m*3 17.9 C 0 km/h
2915 01-08-2010 07:20:04 18.1 C 13.6 g/m*3 18.1 C 0 km/h
2916 01-08-2010 07:32:04 18.4 C 13.84 g/m*3 18.4 C 0 km/h
2917 01-08-2010 07:44:04 18.4 C 13.68 g/m*3 18.4 C 0 km/h
2918 01-08-2010 07:56:04 18.9 C 13.93 g/m*3 18.9 C 0 km/h
2919 01-08-2010 08:08:04 19.2 C 13.85 g/m*3 19.2 C 0 km/h
2920 01-08-2010 08:20:04 19.5 C 13.93 g/m*3 19.5 C 0 km/h
2921 01-08-2010 08:32:04 19.6 C 13.84 g/m*3 19.6 C 0 km/h
2922 01-08-2010 08:44:04 20 C 13.65 g/m*3 20 C 0 km/h
2923 01-08-2010 08:56:04 20.1 C 13.56 g/m*3 20.1 C 0 km/h
2924 01-08-2010 09:08:03 20.2 C 13.46 g/m*3 20.2 C 0 km/h
2925 01-08-2010 09:20:02 20.9 C 13.84 g/m*3 20.9 C 0 km/h
Sensor: Nr:Datum:Temp:Abs-Feuchte:Windchill:Wind:
Aussen-T/F 2926 01-08-2010 09:32:03 21.1 C 13.63 g/m*3 21.1 C 0 km/h
2927 01-08-2010 09:44:03 21 C 13.37 g/m*3 21 C 0 km/h
2928 01-08-2010 09:56:01 21.1 C 13.45 g/m*3 21.1 C 0 km/h
2929 01-08-2010 10:08:02 21.2 C 13.53 g/m*3 21.2 C 0 km/h
2930 01-08-2010 10:20:02 21.5 C 13.77 g/m*3 21.5 C 0 km/h
2931 01-08-2010 10:32:01 21.6 C 13.66 g/m*3 21.6 C 0 km/h
2932 01-08-2010 10:44:01 22.2 C 13.35 g/m*3 22.2 C 0 km/h
2933 01-08-2010 10:56:03 23.2 C 13.51 g/m*3 23.2 C 0 km/h
2934 01-08-2010 11:08:03 23.3 C 13.38 g/m*3 23.3 C 0 km/h
2935 01-08-2010 11:20:02 23.6 C 12.97 g/m*3 23.6 C 0 km/h
2936 01-08-2010 11:32:02 24.3 C 13.06 g/m*3 24.3 C 0 km/h
2937 01-08-2010 11:44:02 24.5 C 12.98 g/m*3 24.5 C 0 km/h
2938 01-08-2010 11:56:02 24.6 C 12.15 g/m*3 24.6 C 0 km/h
2939 01-08-2010 12:08:02 24.8 C 12.29 g/m*3 24.8 C 0 km/h
2940 01-08-2010 12:20:01 24.6 C 10.13 g/m*3 24.6 C 0 km/h
2941 01-08-2010 12:32:02 25.3 C 10.77 g/m*3 25.3 C 0 km/h
2942 01-08-2010 12:44:02 25.9 C 10.17 g/m*3 25.9 C 0 km/h
2943 01-08-2010 12:56:02 26.7 C 10.12 g/m*3 26.7 C 0 km/h
2944 01-08-2010 13:08:02 27 C 9.52 g/m*3 27 C 0 km/h
2945 01-08-2010 13:20:02 26.8 C 9.42 g/m*3 26.8 C 0 km/h
2946 01-08-2010 13:32:02 27.6 C 9.58 g/m*3 27.6 C 0 km/h
2947 01-08-2010 13:44:02 28.8 C 9.94 g/m*3 28.8 C 0 km/h
2948 01-08-2010 13:56:02 29 C 8.62 g/m*3 29 C 0 km/h
2949 01-08-2010 14:08:02 29.4 C 8.81 g/m*3 29.4 C 0 km/h
2950 01-08-2010 14:20:02 28.6 C 8.15 g/m*3 28.6 C 0 km/h
Sensor: Nr:Datum:Temp:Abs-Feuchte:Windchill:Wind:
Aussen-T/F 2951 01-08-2010 14:32:02 28.6 C 7.87 g/m*3 28.6 C 0 km/h
2952 01-08-2010 14:44:02 29.4 C 7.63 g/m*3 29.4 C 0 km/h
2953 01-08-2010 14:56:02 29.1 C 7.22 g/m*3 29.1 C 0 km/h
2954 01-08-2010 15:08:02 29 C 7.47 g/m*3 29 C 0 km/h
2955 01-08-2010 15:20:02 30 C 7.28 g/m*3 30 C 0 km/h
2956 01-08-2010 15:32:02 30 C 6.97 g/m*3 30 C 0 km/h
2957 01-08-2010 15:44:02 30.2 C 7.36 g/m*3 30.2 C 0 km/h
2958 01-08-2010 15:56:02 31 C 7.04 g/m*3 31 C 0 km/h
2959 01-08-2010 16:08:01 30.9 C 6.68 g/m*3 30.9 C 0 km/h
2960 01-08-2010 16:20:02 30.7 C 6.93 g/m*3 30.7 C 0 km/h
2961 01-08-2010 16:32:02 30.2 C 7.36 g/m*3 30.2 C 0 km/h
2962 01-08-2010 16:44:02 30.6 C 7.2 g/m*3 30.6 C 0 km/h
2963 01-08-2010 16:56:01 30.9 C 7.32 g/m*3 30.9 C 0 km/h
2964 01-08-2010 17:08:02 31 C 6.72 g/m*3 31 C 0 km/h
2965 01-08-2010 17:20:01 30.7 C 7.24 g/m*3 30.7 C 0 km/h
2966 01-08-2010 17:32:01 30 C 7.58 g/m*3 30 C 0 km/h
2967 01-08-2010 17:44:02 29.3 C 7.88 g/m*3 29.3 C 0 km/h
2968 01-08-2010 17:56:02 29.5 C 7.67 g/m*3 29.5 C 0 km/h
2969 01-08-2010 18:08:02 29 C 7.47 g/m*3 29 C 0 km/h
2970 01-08-2010 18:20:02 29.4 C 7.93 g/m*3 29.4 C 0 km/h
2971 01-08-2010 18:32:02 28.7 C 7.63 g/m*3 28.7 C 0 km/h
2972 01-08-2010 18:44:02 27.6 C 9.31 g/m*3 27.6 C 0 km/h
2973 01-08-2010 18:56:02 27.1 C 9.32 g/m*3 27.1 C 0 km/h
2974 01-08-2010 19:08:02 26.8 C 9.42 g/m*3 26.8 C 0 km/h
2975 01-08-2010 19:20:02 26.4 C 9.21 g/m*3 26.4 C 0 km/h
Sensor: Nr:Datum:Temp:Abs-Feuchte:Windchill:Wind:
Aussen-T/F 2976 01-08-2010 19:32:02 25.5 C 9.47 g/m*3 25.5 C 0 km/h
2977 01-08-2010 19:44:02 25.3 C 9.6 g/m*3 25.3 C 0 km/h
2978 01-08-2010 19:56:01 25.4 C 9.65 g/m*3 25.4 C 0 km/h
2979 01-08-2010 20:08:01 25.2 C 9.78 g/m*3 25.2 C 0 km/h
2980 01-08-2010 20:20:02 24.8 C 10.02 g/m*3 24.8 C 0 km/h
2981 01-08-2010 20:32:01 24.5 C 10.3 g/m*3 24.5 C 0 km/h
2982 01-08-2010 20:44:01 24.4 C 10.46 g/m*3 24.4 C 0 km/h
2983 01-08-2010 20:56:03 24.3 C 10.62 g/m*3 24.3 C 0 km/h
2984 01-08-2010 21:08:02 23.7 C 9.84 g/m*3 23.7 C 0 km/h
2985 01-08-2010 21:20:02 23.6 C 10 g/m*3 23.6 C 0 km/h
2986 01-08-2010 21:32:03 23.3 C 10.04 g/m*3 23.3 C 0 km/h
2987 01-08-2010 21:44:03 22.7 C 9.7 g/m*3 22.7 C 0 km/h
2988 01-08-2010 21:57:02 22.5 C 9.59 g/m*3 22.5 C 0 km/h
2989 01-08-2010 22:09:02 22.3 C 9.48 g/m*3 22.3 C 0 km/h
2990 01-08-2010 22:21:02 22.2 C 9.42 g/m*3 22.2 C 0 km/h
2991 01-08-2010 22:33:03 22 C 9.32 g/m*3 22 C 0 km/h
2992 01-08-2010 22:45:03 21.6 C 9.67 g/m*3 21.6 C 0 km/h
2993 01-08-2010 22:57:03 21.7 C 9.73 g/m*3 21.7 C 0 km/h
2994 01-08-2010 23:09:03 21.6 C 9.86 g/m*3 21.6 C 0 km/h
2995 01-08-2010 23:21:03 21.4 C 9.94 g/m*3 21.4 C 0 km/h
2996 01-08-2010 23:33:03 21.2 C 10.01 g/m*3 21.2 C 0 km/h
2997 01-08-2010 23:45:03 20.8 C 9.96 g/m*3 20.8 C 0 km/h
2998 01-08-2010 23:57:03 20.4 C 10.08 g/m*3 20.4 C 0 km/h
2999 02-08-2010 00:09:03 20 C 9.85 g/m*3 20 C 0 km/h
3000 02-08-2010 00:21:03 19.7 C 10.02 g/m*3 19.7 C 0 km/h
Sensor: Nr:Datum:Temp:Abs-Feuchte:Windchill:Wind:
Aussen-T/F 3001 02-08-2010 00:33:03 19.7 C 10.02 g/m*3 19.7 C 0 km/h
3002 02-08-2010 00:45:03 19.7 C 10.19 g/m*3 19.7 C 0 km/h
3003 02-08-2010 00:57:03 19.6 C 9.96 g/m*3 19.6 C 0 km/h
3004 02-08-2010 01:09:03 19.4 C 10.01 g/m*3 19.4 C 0 km/h
3005 02-08-2010 01:21:03 19.4 C 10.34 g/m*3 19.4 C 0 km/h
3006 02-08-2010 01:33:03 19.3 C 10.45 g/m*3 19.3 C 0 km/h
3007 02-08-2010 01:45:03 19.1 C 10.33 g/m*3 19.1 C 0 km/h
3008 02-08-2010 01:57:03 19 C 10.27 g/m*3 19 C 0 km/h
3009 02-08-2010 02:09:03 18.9 C 10.37 g/m*3 18.9 C 0 km/h
3010 02-08-2010 02:21:03 18.8 C 10.63 g/m*3 18.8 C 0 km/h
3011 02-08-2010 02:33:03 18.6 C 10.5 g/m*3 18.6 C 0 km/h
3012 02-08-2010 02:45:03 18.5 C 10.6 g/m*3 18.5 C 0 km/h
3013 02-08-2010 02:57:03 18.4 C 10.54 g/m*3 18.4 C 0 km/h
3014 02-08-2010 03:09:04 18.2 C 10.57 g/m*3 18.2 C 0 km/h
3015 02-08-2010 03:21:04 18 C 10.6 g/m*3 18 C 0 km/h
3016 02-08-2010 03:33:04 18 C 10.44 g/m*3 18 C 0 km/h
3017 02-08-2010 03:45:04 17.8 C 10.78 g/m*3 17.8 C 0 km/h
3018 02-08-2010 03:57:04 17.7 C 10.71 g/m*3 17.7 C 0 km/h
3019 02-08-2010 04:09:04 17.5 C 10.88 g/m*3 17.5 C 0 km/h
3020 02-08-2010 04:21:04 17.1 C 10.92 g/m*3 17.1 C 0 km/h
3021 02-08-2010 04:33:04 17.2 C 10.84 g/m*3 17.2 C 0 km/h
3022 02-08-2010 04:45:04 16.9 C 10.79 g/m*3 16.9 C 0 km/h
3023 02-08-2010 04:57:04 16.8 C 10.87 g/m*3 16.8 C 0 km/h
3024 02-08-2010 05:09:02 16.6 C 10.74 g/m*3 16.6 C 0 km/h
3025 02-08-2010 05:21:02 16.5 C 10.67 g/m*3 16.5 C 0 km/h
Sensor: Nr:Datum:Temp:Abs-Feuchte:Windchill:Wind:
Aussen-T/F 3026 02-08-2010 05:33:02 16.3 C 10.54 g/m*3 16.3 C 0 km/h
3027 02-08-2010 05:45:02 16 C 10.49 g/m*3 16 C 0 km/h
3028 02-08-2010 05:57:02 16.2 C 10.76 g/m*3 16.2 C 0 km/h
3029 02-08-2010 06:09:02 16.4 C 10.89 g/m*3 16.4 C 0 km/h
3030 02-08-2010 06:21:02 16.6 C 11.02 g/m*3 16.6 C 0 km/h
3031 02-08-2010 06:33:01 16.6 C 10.88 g/m*3 16.6 C 0 km/h
3032 02-08-2010 06:45:02 16.4 C 10.89 g/m*3 16.4 C 0 km/h
3033 02-08-2010 06:57:02 16.4 C 10.89 g/m*3 16.4 C 0 km/h
3034 02-08-2010 07:09:01 16.3 C 10.82 g/m*3 16.3 C 0 km/h
3035 02-08-2010 07:21:01 16.4 C 11.03 g/m*3 16.4 C 0 km/h
3036 02-08-2010 07:33:02 16.4 C 10.89 g/m*3 16.4 C 0 km/h
3037 02-08-2010 07:45:02 16.4 C 11.03 g/m*3 16.4 C 0 km/h
3038 02-08-2010 07:57:02 16.4 C 11.03 g/m*3 16.4 C 0 km/h
3039 02-08-2010 08:09:02 16.5 C 11.09 g/m*3 16.5 C 0 km/h
3040 02-08-2010 08:21:01 16.6 C 11.16 g/m*3 16.6 C 0 km/h
3041 02-08-2010 08:33:02 16.9 C 11.36 g/m*3 16.9 C 0 km/h
3042 02-08-2010 08:45:02 17 C 11 g/m*3 17 C 0 km/h
3043 02-08-2010 08:57:02 17.3 C 11.2 g/m*3 17.3 C 0 km/h
3044 02-08-2010 09:09:02 17.8 C 11.38 g/m*3 17.8 C 0 km/h
3045 02-08-2010 09:21:02 18.3 C 11.26 g/m*3 18.3 C 0 km/h
3046 02-08-2010 09:33:02 18.6 C 11.3 g/m*3 18.6 C 0 km/h
3047 02-08-2010 09:45:02 19.1 C 10.82 g/m*3 19.1 C 0 km/h
3048 02-08-2010 09:57:02 19.6 C 10.97 g/m*3 19.6 C 0 km/h
3049 02-08-2010 10:09:02 20 C 10.89 g/m*3 20 C 0 km/h
3050 02-08-2010 10:21:02 20.5 C 10.85 g/m*3 20.5 C 0 km/h
Sensor: Nr:Datum:Temp:Abs-Feuchte:Windchill:Wind:
Aussen-T/F 3051 02-08-2010 10:33:01 20.8 C 10.68 g/m*3 20.8 C 0 km/h
3052 02-08-2010 10:45:02 21.2 C 9.64 g/m*3 21.2 C 0 km/h
3053 02-08-2010 10:57:03 21.9 C 10.81 g/m*3 21.9 C 0 km/h
3054 02-08-2010 11:09:02 22.6 C 9.84 g/m*3 22.6 C 0 km/h
3055 02-08-2010 11:21:02 23.5 C 9.52 g/m*3 23.5 C 0 km/h
3056 02-08-2010 11:33:02 24.1 C 9.19 g/m*3 24.1 C 0 km/h
3057 02-08-2010 11:45:01 24.4 C 9.12 g/m*3 24.4 C 0 km/h
3058 02-08-2010 11:57:01 24.6 C 8.78 g/m*3 24.6 C 0 km/h
3059 02-08-2010 12:09:02 24.8 C 9.1 g/m*3 24.8 C 0 km/h
3060 02-08-2010 12:21:01 25.1 C 8.57 g/m*3 25.1 C 0 km/h
3061 02-08-2010 12:33:02 25.5 C 8.05 g/m*3 25.5 C 0 km/h
3062 02-08-2010 12:45:01 26.1 C 7.59 g/m*3 26.1 C 0 km/h
3063 02-08-2010 12:57:01 26.2 C 7.39 g/m*3 26.2 C 0 km/h
3064 02-08-2010 13:09:02 25.1 C 7.41 g/m*3 25.1 C 0 km/h
3065 02-08-2010 13:21:02 24.2 C 8.14 g/m*3 24.2 C 0 km/h
3066 02-08-2010 13:33:01 23.3 C 8.57 g/m*3 23.3 C 0 km/h
3067 02-08-2010 13:45:02 22.3 C 9.08 g/m*3 22.3 C 0 km/h
3068 02-08-2010 13:57:02 21.5 C 9.62 g/m*3 21.5 C 0 km/h
3069 02-08-2010 14:09:01 19.7 C 11.21 g/m*3 19.7 C 0 km/h
3070 02-08-2010 14:21:01 19.7 C 11.89 g/m*3 19.7 C 0 km/h
3071 02-08-2010 14:33:01 21.1 C 11.24 g/m*3 21.1 C 0 km/h
3072 02-08-2010 14:45:02 21.2 C 11.12 g/m*3 21.2 C 0 km/h
3073 02-08-2010 14:57:03 20.7 C 10.62 g/m*3 20.7 C 0 km/h
3074 02-08-2010 15:09:01 20.6 C 10.92 g/m*3 20.6 C 0 km/h
3075 02-08-2010 15:21:02 21.1 C 11.61 g/m*3 21.1 C 0 km/h
Sensor: Nr:Datum:Temp:Abs-Feuchte:Windchill:Wind:
Aussen-T/F 3076 02-08-2010 15:33:02 21.7 C 11.06 g/m*3 21.7 C 0 km/h
3077 02-08-2010 15:45:01 21.7 C 11.06 g/m*3 21.7 C 0 km/h
3078 02-08-2010 15:57:01 21.5 C 11.5 g/m*3 21.5 C 0 km/h
3079 02-08-2010 16:09:01 22.4 C 11.92 g/m*3 22.4 C 0 km/h
3080 02-08-2010 16:21:01 22.9 C 11.04 g/m*3 22.9 C 0 km/h
3081 02-08-2010 16:33:01 23.1 C 10.54 g/m*3 23.1 C 0 km/h
3082 02-08-2010 16:45:02 23.4 C 10.51 g/m*3 23.4 C 0 km/h
3083 02-08-2010 16:57:02 23.5 C 10.57 g/m*3 23.5 C 0 km/h
3084 02-08-2010 17:09:02 24.2 C 10.12 g/m*3 24.2 C 0 km/h
3085 02-08-2010 17:21:02 24.1 C 9.85 g/m*3 24.1 C 0 km/h
3086 02-08-2010 17:33:03 24.5 C 9.62 g/m*3 24.5 C 0 km/h
3087 02-08-2010 17:45:01 24.4 C 9.57 g/m*3 24.4 C 0 km/h
3088 02-08-2010 17:57:01 23.8 C 9.68 g/m*3 23.8 C 0 km/h
3089 02-08-2010 18:09:02 23 C 9.66 g/m*3 23 C 0 km/h
3090 02-08-2010 18:21:02 22.5 C 10.59 g/m*3 22.5 C 0 km/h
3091 02-08-2010 18:33:03 20.9 C 11.66 g/m*3 20.9 C 0 km/h
3092 02-08-2010 18:45:02 20.3 C 11.96 g/m*3 20.3 C 0 km/h
3093 02-08-2010 18:57:02 19.7 C 11.55 g/m*3 19.7 C 0 km/h
3094 02-08-2010 19:09:02 20.2 C 12.24 g/m*3 20.2 C 0 km/h
3095 02-08-2010 19:21:03 20.5 C 12.63 g/m*3 20.5 C 0 km/h
3096 02-08-2010 19:33:02 20 C 12.1 g/m*3 20 C 0 km/h
3097 02-08-2010 19:45:02 19.8 C 12.3 g/m*3 19.8 C 0 km/h
3098 02-08-2010 19:57:02 19.6 C 12.49 g/m*3 19.6 C 0 km/h
3099 02-08-2010 20:09:01 19.2 C 13.03 g/m*3 19.2 C 0 km/h
3100 02-08-2010 20:21:02 18.7 C 13.45 g/m*3 18.7 C 0 km/h
Sensor: Nr:Datum:Temp:Abs-Feuchte:Windchill:Wind:
Aussen-T/F 3101 02-08-2010 20:33:01 18.6 C 13.69 g/m*3 18.6 C 0 km/h
3102 02-08-2010 20:45:02 18.2 C 13.52 g/m*3 18.2 C 0 km/h
3103 02-08-2010 20:57:03 18.3 C 13.76 g/m*3 18.3 C 0 km/h
3104 02-08-2010 21:09:02 18.2 C 13.68 g/m*3 18.2 C 0 km/h
3105 02-08-2010 21:21:02 17.5 C 13.27 g/m*3 17.5 C 0 km/h
3106 02-08-2010 21:33:03 17.5 C 13.42 g/m*3 17.5 C 0 km/h
3107 02-08-2010 21:46:01 17.4 C 13.49 g/m*3 17.4 C 0 km/h
3108 02-08-2010 21:58:01 17.3 C 13.41 g/m*3 17.3 C 0 km/h
3109 02-08-2010 22:10:01 17.2 C 13.33 g/m*3 17.2 C 0 km/h
3110 02-08-2010 22:22:01 17.4 C 13.49 g/m*3 17.4 C 0 km/h
3111 02-08-2010 22:34:01 17.3 C 13.55 g/m*3 17.3 C 0 km/h
3112 02-08-2010 22:46:02 17 C 13.17 g/m*3 17 C 0 km/h
3113 02-08-2010 22:58:02 16.7 C 13.07 g/m*3 16.7 C 0 km/h
3114 02-08-2010 23:10:02 16.4 C 12.7 g/m*3 16.4 C 0 km/h
3115 02-08-2010 23:22:02 16.2 C 12.55 g/m*3 16.2 C 0 km/h
3116 02-08-2010 23:34:02 15.9 C 12.32 g/m*3 15.9 C 0 km/h
3117 02-08-2010 23:46:02 15.8 C 12.25 g/m*3 15.8 C 0 km/h
3118 02-08-2010 23:58:02 15.9 C 12.32 g/m*3 15.9 C 0 km/h
3119 03-08-2010 00:10:02 15.9 C 12.19 g/m*3 15.9 C 0 km/h
3120 03-08-2010 00:22:02 16 C 12.13 g/m*3 16 C 0 km/h
3121 03-08-2010 00:34:02 16 C 11.99 g/m*3 16 C 0 km/h
3122 03-08-2010 00:46:02 15.9 C 12.05 g/m*3 15.9 C 0 km/h
3123 03-08-2010 00:58:02 15.9 C 12.05 g/m*3 15.9 C 0 km/h
3124 03-08-2010 01:10:02 15.9 C 12.05 g/m*3 15.9 C 0 km/h
3125 03-08-2010 01:22:02 15.9 C 12.05 g/m*3 15.9 C 0 km/h
Sensor: Nr:Datum:Temp:Abs-Feuchte:Windchill:Wind:
Aussen-T/F 3126 03-08-2010 01:34:02 16 C 11.99 g/m*3 16 C 0 km/h
3127 03-08-2010 01:46:02 16 C 11.99 g/m*3 16 C 0 km/h
3128 03-08-2010 01:58:02 16 C 11.99 g/m*3 16 C 0 km/h
3129 03-08-2010 02:10:02 15.9 C 11.92 g/m*3 15.9 C 0 km/h
3130 03-08-2010 02:22:02 15.7 C 11.77 g/m*3 15.7 C 0 km/h
3131 03-08-2010 02:34:02 15.5 C 11.76 g/m*3 15.5 C 0 km/h
3132 03-08-2010 02:46:02 15.1 C 11.61 g/m*3 15.1 C 0 km/h
3133 03-08-2010 02:58:02 15.1 C 11.74 g/m*3 15.1 C 0 km/h
3134 03-08-2010 03:10:02 15.2 C 11.94 g/m*3 15.2 C 0 km/h
3135 03-08-2010 03:22:03 15.3 C 12.01 g/m*3 15.3 C 0 km/h
3136 03-08-2010 03:34:03 15.3 C 12.14 g/m*3 15.3 C 0 km/h
3137 03-08-2010 03:46:03 15.2 C 12.07 g/m*3 15.2 C 0 km/h
3138 03-08-2010 03:58:03 15.3 C 12.14 g/m*3 15.3 C 0 km/h
3139 03-08-2010 04:10:03 15.2 C 12.07 g/m*3 15.2 C 0 km/h
3140 03-08-2010 04:22:03 15 C 11.93 g/m*3 15 C 0 km/h
3141 03-08-2010 04:34:03 15 C 12.05 g/m*3 15 C 0 km/h
3142 03-08-2010 04:46:03 15 C 12.05 g/m*3 15 C 0 km/h
3143 03-08-2010 04:58:03 14.9 C 12.11 g/m*3 14.9 C 0 km/h
3144 03-08-2010 05:10:03 14.9 C 12.11 g/m*3 14.9 C 0 km/h
3145 03-08-2010 05:22:03 14.9 C 12.11 g/m*3 14.9 C 0 km/h
3146 03-08-2010 05:34:03 15 C 12.05 g/m*3 15 C 0 km/h
3147 03-08-2010 05:46:03 15 C 12.05 g/m*3 15 C 0 km/h
3148 03-08-2010 05:58:03 15 C 12.05 g/m*3 15 C 0 km/h
3149 03-08-2010 06:10:03 14.8 C 12.03 g/m*3 14.8 C 0 km/h
3150 03-08-2010 06:22:03 14.7 C 11.96 g/m*3 14.7 C 0 km/h
Sensor: Nr:Datum:Temp:Abs-Feuchte:Windchill:Wind:
Aussen-T/F 3151 03-08-2010 06:34:03 14.6 C 11.89 g/m*3 14.6 C 0 km/h
3152 03-08-2010 06:46:03 14.5 C 11.82 g/m*3 14.5 C 0 km/h
3153 03-08-2010 06:58:03 14.5 C 11.82 g/m*3 14.5 C 0 km/h
3154 03-08-2010 07:10:02 14.7 C 11.96 g/m*3 14.7 C 0 km/h
3155 03-08-2010 07:22:01 15 C 12.18 g/m*3 15 C 0 km/h
3156 03-08-2010 07:34:02 15 C 12.18 g/m*3 15 C 0 km/h
3157 03-08-2010 07:46:01 15.2 C 12.33 g/m*3 15.2 C 0 km/h
3158 03-08-2010 07:58:01 15.4 C 12.48 g/m*3 15.4 C 0 km/h
3159 03-08-2010 08:10:02 15.8 C 12.65 g/m*3 15.8 C 0 km/h
3160 03-08-2010 08:22:02 15.9 C 12.59 g/m*3 15.9 C 0 km/h
3161 03-08-2010 08:34:01 15.8 C 12.38 g/m*3 15.8 C 0 km/h
3162 03-08-2010 08:46:02 16.2 C 12.27 g/m*3 16.2 C 0 km/h
3163 03-08-2010 08:58:02 16.1 C 11.93 g/m*3 16.1 C 0 km/h
3164 03-08-2010 09:10:01 16.4 C 11.86 g/m*3 16.4 C 0 km/h
3165 03-08-2010 09:22:02 16.6 C 11.72 g/m*3 16.6 C 0 km/h
3166 03-08-2010 09:34:02 16.8 C 11.87 g/m*3 16.8 C 0 km/h
3167 03-08-2010 09:46:02 16.9 C 11.65 g/m*3 16.9 C 0 km/h
3168 03-08-2010 09:58:02 17.2 C 11.42 g/m*3 17.2 C 0 km/h
3169 03-08-2010 10:10:03 18.1 C 11.74 g/m*3 18.1 C 0 km/h
3170 03-08-2010 10:22:02 17.9 C 10.84 g/m*3 17.9 C 0 km/h
3171 03-08-2010 10:34:03 17.1 C 10.77 g/m*3 17.1 C 0 km/h
3172 03-08-2010 10:46:01 17.2 C 10.84 g/m*3 17.2 C 0 km/h
3173 03-08-2010 10:58:01 17.9 C 10.99 g/m*3 17.9 C 0 km/h
3174 03-08-2010 11:10:02 18.2 C 10.41 g/m*3 18.2 C 0 km/h
3175 03-08-2010 11:22:01 18.7 C 10.25 g/m*3 18.7 C 0 km/h
Sensor: Nr:Datum:Temp:Abs-Feuchte:Windchill:Wind:
Aussen-T/F 3176 03-08-2010 11:34:03 18.8 C 9.5 g/m*3 18.8 C 0 km/h
3177 03-08-2010 11:46:03 19.2 C 9.07 g/m*3 19.2 C 0 km/h
3178 03-08-2010 11:58:03 19.8 C 8.54 g/m*3 19.8 C 0 km/h
3179 03-08-2010 12:10:02 20.4 C 8.31 g/m*3 20.4 C 0 km/h
3180 03-08-2010 12:22:02 21.1 C 7.92 g/m*3 21.1 C 0 km/h
3181 03-08-2010 12:34:02 22 C 7.96 g/m*3 22 C 0 km/h
3182 03-08-2010 12:46:02 22.1 C 7.42 g/m*3 22.1 C 0 km/h
3183 03-08-2010 12:58:02 20.5 C 8.01 g/m*3 20.5 C 0 km/h
3184 03-08-2010 13:10:02 20.9 C 8.01 g/m*3 20.9 C 0 km/h
3185 03-08-2010 13:22:02 22.8 C 7.11 g/m*3 22.8 C 0 km/h
3186 03-08-2010 13:34:02 23.3 C 6.48 g/m*3 23.3 C 0 km/h
3187 03-08-2010 13:46:02 21 C 6.78 g/m*3 21 C 0 km/h
3188 03-08-2010 13:58:02 18.7 C 9.29 g/m*3 18.7 C 0 km/h
3189 03-08-2010 14:10:02 20.2 C 10.49 g/m*3 20.2 C 0 km/h
3190 03-08-2010 14:22:01 21.5 C 8.11 g/m*3 21.5 C 0 km/h
3191 03-08-2010 14:34:02 21.6 C 7.78 g/m*3 21.6 C 0 km/h
3192 03-08-2010 14:46:01 22 C 7.76 g/m*3 22 C 0 km/h
3193 03-08-2010 14:58:01 24.1 C 6.78 g/m*3 24.1 C 0 km/h
3194 03-08-2010 15:10:02 23.6 C 6.38 g/m*3 23.6 C 0 km/h
3195 03-08-2010 15:22:02 24.9 C 6.41 g/m*3 24.9 C 0 km/h
3196 03-08-2010 15:34:01 24.2 C 6.16 g/m*3 24.2 C 0 km/h
3197 03-08-2010 15:46:02 24.9 C 6.18 g/m*3 24.9 C 0 km/h
3198 03-08-2010 15:58:02 23.4 C 6.31 g/m*3 23.4 C 0 km/h
3199 03-08-2010 16:10:01 25 C 5.99 g/m*3 25 C 0 km/h
3200 03-08-2010 16:22:02 25.1 C 5.79 g/m*3 25.1 C 0 km/h
Sensor: Nr:Datum:Temp:Abs-Feuchte:Windchill:Wind:
Aussen-T/F 3201 03-08-2010 16:34:01 25.5 C 5.21 g/m*3 25.5 C 0 km/h
3202 03-08-2010 16:46:02 26 C 4.87 g/m*3 26 C 0 km/h
3203 03-08-2010 16:58:02 25.3 C 4.68 g/m*3 25.3 C 0 km/h
3204 03-08-2010 17:10:02 25.1 C 4.86 g/m*3 25.1 C 0 km/h
3205 03-08-2010 17:22:02 25.6 C 5 g/m*3 25.6 C 0 km/h
3206 03-08-2010 17:34:02 25.3 C 4.92 g/m*3 25.3 C 0 km/h
3207 03-08-2010 17:46:01 26.2 C 4.92 g/m*3 26.2 C 0 km/h
3208 03-08-2010 17:58:01 27 C 5.15 g/m*3 27 C 0 km/h
3209 03-08-2010 18:10:02 26.6 C 5.03 g/m*3 26.6 C 0 km/h
3210 03-08-2010 18:22:01 27.1 C 5.18 g/m*3 27.1 C 0 km/h
3211 03-08-2010 18:34:01 26.9 C 5.12 g/m*3 26.9 C 0 km/h
3212 03-08-2010 18:46:01 26 C 4.87 g/m*3 26 C 0 km/h
3213 03-08-2010 18:58:01 24 C 5.44 g/m*3 24 C 0 km/h
3214 03-08-2010 19:10:02 23.1 C 5.79 g/m*3 23.1 C 0 km/h
3215 03-08-2010 19:22:01 23.6 C 5.74 g/m*3 23.6 C 0 km/h
3216 03-08-2010 19:34:01 24.1 C 6.35 g/m*3 24.1 C 0 km/h
3217 03-08-2010 19:46:01 23.9 C 6.06 g/m*3 23.9 C 0 km/h
3218 03-08-2010 19:58:01 23.3 C 5.65 g/m*3 23.3 C 0 km/h
3219 03-08-2010 20:10:02 23.2 C 5.61 g/m*3 23.2 C 0 km/h
3220 03-08-2010 20:22:02 22.6 C 6.23 g/m*3 22.6 C 0 km/h
3221 03-08-2010 20:34:01 22 C 7.76 g/m*3 22 C 0 km/h
3222 03-08-2010 20:46:02 20.9 C 8.01 g/m*3 20.9 C 0 km/h
3223 03-08-2010 20:58:02 19.9 C 8.08 g/m*3 19.9 C 0 km/h
3224 03-08-2010 21:10:02 19.1 C 7.38 g/m*3 19.1 C 0 km/h
3225 03-08-2010 21:22:01 18.6 C 7.64 g/m*3 18.6 C 0 km/h
Sensor: Nr:Datum:Temp:Abs-Feuchte:Windchill:Wind:
Aussen-T/F 3226 03-08-2010 21:34:01 18.3 C 7.51 g/m*3 18.3 C 0 km/h
3227 03-08-2010 21:46:02 18 C